Summary for KCOLONGM6

Ute Creek Golf Course, Longmont, CO 80504
Join the PWSweather.com Network
View data in metric units
Latest Conditions
Updated 7:00:58 PM MST Sunday, Dec 21, 2014
Data Currently Today's Max Today's Min Today's Average
Temperature 43.3°F6.3°C 53.8°F12.1°C 19.0°F-7.2°C 36.3°F2.4°C
Dew Point 29.5°F-1.4°C 30.0°F-1.1°C 13.8°F-10.1°C 22.2°F-5.4°C
Winds 0.9 mph WSW1.4 kmh WSW 8.9 mph W14.3 kmh W CalmCalm 2.3 mph3.7 kmh
Wind Gusts 5.0 mph8.0 kmh 21.0 mph33.8 kmh -- 3.8 mph6.1 kmh
Humidity 58% 83% 33% 60%
Pressure 29.57 in1001.4 mb 29.97 in1014.9 mb 29.54 in1000.3 mb 29.72 in1006.4 mb
Precipitation 0.00 in0.0 mm - - 0.00 in0.0 mm
Trends
 
Station Profile
Ute Creek Golf CourseLongmont, CO 80504

Lat: 40.194, Lon: -105.067
Elevation: 5014
Station Type: Davis Vantage Vue

Detailed Summary for Sun, Dec 21, 2014
Hour (MST) Temperature Dew Point Humidity Winds Wind Gusts Pressure Precip Precip Rate Daily Precip Total
07:00 PM 43.3°F6.3°C 29.5°F-1.4°C 58% 0.9 mph WSW1.4 kmh WSW 5.0 mph8.0 kmh 29.57 in1001.4 mb 0.00 in0.0 mm 0.00 in/hr0.0 mm/hr 0.00 in0.0 mm
06:59 PM 43.3°F6.3°C 29.1°F-1.6°C 57% Calm Calm 2.0 mph3.2 kmh 29.57 in1001.4 mb 0.00 in0.0 mm 0.00 in/hr0.0 mm/hr 0.00 in0.0 mm
06:58 PM 43.5°F6.4°C 29.3°F-1.5°C 57% 0.9 mph SW1.4 kmh SW 0.9 mph1.4 kmh 29.57 in1001.4 mb 0.00 in0.0 mm 0.00 in/hr0.0 mm/hr 0.00 in0.0 mm
06:57 PM 43.5°F6.4°C 29.3°F-1.5°C 57% 0.9 mph SW1.4 kmh SW 0.9 mph1.4 kmh 29.57 in1001.4 mb 0.00 in0.0 mm 0.00 in/hr0.0 mm/hr 0.00 in0.0 mm
06:56 PM 43.9°F6.6°C 29.1°F-1.6°C 56% 0.9 mph WSW1.4 kmh WSW 2.0 mph3.2 kmh 29.57 in1001.4 mb 0.00 in0.0 mm 0.00 in/hr0.0 mm/hr 0.00 in0.0 mm
06:55 PM 43.9°F6.6°C 29.1°F-1.6°C 56% 0.9 mph WSW1.4 kmh WSW 2.0 mph3.2 kmh 29.57 in1001.4 mb 0.00 in0.0 mm 0.00 in/hr0.0 mm/hr 0.00 in0.0 mm
06:54 PM 44.1°F6.7°C 29.3°F-1.5°C 56% 0.9 mph SW1.4 kmh SW 2.0 mph3.2 kmh 29.57 in1001.4 mb 0.00 in0.0 mm 0.00 in/hr0.0 mm/hr 0.00 in0.0 mm
06:53 PM 44.2°F6.8°C 29.5°F-1.4°C 56% 2.0 mph NW3.2 kmh NW -- 29.57 in1001.4 mb 0.00 in0.0 mm 0.00 in/hr0.0 mm/hr 0.00 in0.0 mm
06:52 PM 44.4°F6.9°C 29.7°F-1.3°C 56% 2.0 mph NW3.2 kmh NW -- 29.57 in1001.4 mb 0.00 in0.0 mm 0.00 in/hr0.0 mm/hr 0.00 in0.0 mm
06:51 PM 44.4°F6.9°C 29.3°F-1.5°C 55% 2.9 mph NW4.7 kmh NW 0.9 mph1.4 kmh 29.57 in1001.4 mb 0.00 in0.0 mm 0.00 in/hr0.0 mm/hr 0.00 in0.0 mm
06:50 PM 44.8°F7.1°C 30.0°F-1.1°C 56% 2.9 mph NW4.7 kmh NW 2.0 mph3.2 kmh 29.57 in1001.4 mb 0.00 in0.0 mm 0.00 in/hr0.0 mm/hr 0.00 in0.0 mm
06:49 PM 44.8°F7.1°C 29.7°F-1.3°C 55% 2.9 mph NW4.7 kmh NW 4.0 mph6.4 kmh 29.57 in1001.4 mb 0.00 in0.0 mm 0.00 in/hr0.0 mm/hr 0.00 in0.0 mm
06:48 PM 45.0°F7.2°C 29.8°F-1.2°C 55% 4.0 mph NW6.4 kmh NW 4.0 mph6.4 kmh 29.57 in1001.4 mb 0.00 in0.0 mm 0.00 in/hr0.0 mm/hr 0.00 in0.0 mm
06:47 PM 45.0°F7.2°C 29.8°F-1.2°C 55% 4.0 mph W6.4 kmh W 2.9 mph4.7 kmh 29.57 in1001.4 mb 0.00 in0.0 mm 0.00 in/hr0.0 mm/hr 0.00 in0.0 mm
06:46 PM 45.0°F7.2°C 29.8°F-1.2°C 55% 4.0 mph WNW6.4 kmh WNW 4.0 mph6.4 kmh 29.57 in1001.4 mb 0.00 in0.0 mm 0.00 in/hr0.0 mm/hr 0.00 in0.0 mm
06:45 PM 45.1°F7.3°C 30.0°F-1.1°C 55% 4.0 mph W6.4 kmh W 4.9 mph7.9 kmh 29.57 in1001.4 mb 0.00 in0.0 mm 0.00 in/hr0.0 mm/hr 0.00 in0.0 mm
06:44 PM 45.3°F7.4°C 29.7°F-1.3°C 54% 4.0 mph WNW6.4 kmh WNW 7.0 mph11.3 kmh 29.57 in1001.4 mb 0.00 in0.0 mm 0.00 in/hr0.0 mm/hr 0.00 in0.0 mm
06:43 PM 45.5°F7.5°C 29.8°F-1.2°C 54% 4.0 mph W6.4 kmh W 4.9 mph7.9 kmh 29.57 in1001.4 mb 0.00 in0.0 mm 0.00 in/hr0.0 mm/hr 0.00 in0.0 mm
06:42 PM 45.7°F7.6°C 30.0°F-1.1°C 54% 4.0 mph WNW6.4 kmh WNW 4.9 mph7.9 kmh 29.57 in1001.4 mb 0.00 in0.0 mm 0.00 in/hr0.0 mm/hr 0.00 in0.0 mm
06:41 PM 45.9°F7.7°C 29.7°F-1.3°C 53% 4.9 mph WNW7.9 kmh WNW 4.9 mph7.9 kmh 29.57 in1001.4 mb 0.00 in0.0 mm 0.00 in/hr0.0 mm/hr 0.00 in0.0 mm
06:39 PM 46.0°F7.8°C 29.8°F-1.2°C 53% 4.9 mph WNW7.9 kmh WNW 4.9 mph7.9 kmh 29.57 in1001.4 mb 0.00 in0.0 mm 0.00 in/hr0.0 mm/hr 0.00 in0.0 mm
06:38 PM 46.2°F7.9°C 29.5°F-1.4°C 52% 4.9 mph W7.9 kmh W 4.9 mph7.9 kmh 29.57 in1001.4 mb 0.00 in0.0 mm 0.00 in/hr0.0 mm/hr 0.00 in0.0 mm
06:37 PM 46.4°F8.0°C 29.7°F-1.3°C 52% 6.0 mph NW9.7 kmh NW 4.9 mph7.9 kmh 29.57 in1001.4 mb 0.00 in0.0 mm 0.00 in/hr0.0 mm/hr 0.00 in0.0 mm
06:36 PM 46.6°F8.1°C 29.8°F-1.2°C 52% 6.0 mph WNW9.7 kmh WNW 6.0 mph9.7 kmh 29.57 in1001.4 mb 0.00 in0.0 mm 0.00 in/hr0.0 mm/hr 0.00 in0.0 mm
06:35 PM 46.8°F8.2°C 29.7°F-1.3°C 51% 6.0 mph NW9.7 kmh NW 6.0 mph9.7 kmh 29.57 in1001.4 mb 0.00 in0.0 mm 0.00 in/hr0.0 mm/hr 0.00 in0.0 mm
06:34 PM 46.9°F8.3°C 29.8°F-1.2°C 51% 6.9 mph NW11.1 kmh NW 6.9 mph11.1 kmh 29.57 in1001.4 mb 0.00 in0.0 mm 0.00 in/hr0.0 mm/hr 0.00 in0.0 mm
06:33 PM 46.9°F8.3°C 29.8°F-1.2°C 51% 6.9 mph WNW11.1 kmh WNW 6.9 mph11.1 kmh 29.57 in1001.4 mb 0.00 in0.0 mm 0.00 in/hr0.0 mm/hr 0.00 in0.0 mm
06:32 PM 47.1°F8.4°C 29.8°F-1.2°C 51% 6.9 mph WNW11.1 kmh WNW 6.0 mph9.7 kmh 29.57 in1001.4 mb 0.00 in0.0 mm 0.00 in/hr0.0 mm/hr 0.00 in0.0 mm
06:31 PM 47.1°F8.4°C 29.8°F-1.2°C 51% 6.9 mph NW11.1 kmh NW 8.1 mph13.0 kmh 29.57 in1001.4 mb 0.00 in0.0 mm 0.00 in/hr0.0 mm/hr 0.00 in0.0 mm
06:30 PM 47.1°F8.4°C 29.5°F-1.4°C 50% 6.9 mph NW11.1 kmh NW 8.1 mph13.0 kmh 29.57 in1001.4 mb 0.00 in0.0 mm 0.00 in/hr0.0 mm/hr 0.00 in0.0 mm
06:29 PM 47.3°F8.5°C 29.7°F-1.3°C 50% 6.9 mph NW11.1 kmh NW 8.1 mph13.0 kmh 29.57 in1001.4 mb 0.00 in0.0 mm 0.00 in/hr0.0 mm/hr 0.00 in0.0 mm
06:28 PM 47.3°F8.5°C 29.7°F-1.3°C 50% 6.9 mph WNW11.1 kmh WNW 8.9 mph14.3 kmh 29.57 in1001.4 mb 0.00 in0.0 mm 0.00 in/hr0.0 mm/hr 0.00 in0.0 mm
06:27 PM 47.5°F8.6°C 29.8°F-1.2°C 50% 6.9 mph WNW11.1 kmh WNW 12.1 mph19.5 kmh 29.57 in1001.4 mb 0.00 in0.0 mm 0.00 in/hr0.0 mm/hr 0.00 in0.0 mm
06:26 PM 47.5°F8.6°C 29.8°F-1.2°C 50% 6.9 mph WNW11.1 kmh WNW 12.1 mph19.5 kmh 29.57 in1001.4 mb 0.00 in0.0 mm 0.00 in/hr0.0 mm/hr 0.00 in0.0 mm
06:25 PM 47.5°F8.6°C 29.3°F-1.5°C 49% 6.9 mph NW11.1 kmh NW 8.1 mph13.0 kmh 29.57 in1001.4 mb 0.00 in0.0 mm 0.00 in/hr0.0 mm/hr 0.00 in0.0 mm
06:24 PM 47.7°F8.7°C 29.5°F-1.4°C 49% 6.9 mph NW11.1 kmh NW 8.1 mph13.0 kmh 29.57 in1001.4 mb 0.00 in0.0 mm 0.00 in/hr0.0 mm/hr 0.00 in0.0 mm
06:23 PM 47.7°F8.7°C 29.5°F-1.4°C 49% 6.9 mph WNW11.1 kmh WNW 8.9 mph14.3 kmh 29.57 in1001.4 mb 0.00 in0.0 mm 0.00 in/hr0.0 mm/hr 0.00 in0.0 mm
06:22 PM 47.7°F8.7°C 29.5°F-1.4°C 49% 6.9 mph WNW11.1 kmh WNW 11.0 mph17.7 kmh 29.57 in1001.4 mb 0.00 in0.0 mm 0.00 in/hr0.0 mm/hr 0.00 in0.0 mm
06:21 PM 47.7°F8.7°C 29.5°F-1.4°C 49% 6.0 mph NW9.7 kmh NW 11.0 mph17.7 kmh 29.57 in1001.4 mb 0.00 in0.0 mm 0.00 in/hr0.0 mm/hr 0.00 in0.0 mm
06:20 PM 47.7°F8.7°C 29.5°F-1.4°C 49% 6.0 mph NW9.7 kmh NW 11.0 mph17.7 kmh 29.57 in1001.4 mb 0.00 in0.0 mm 0.00 in/hr0.0 mm/hr 0.00 in0.0 mm
06:19 PM 47.7°F8.7°C 28.9°F-1.7°C 48% 6.9 mph NW11.1 kmh NW 10.1 mph16.3 kmh 29.57 in1001.4 mb 0.00 in0.0 mm 0.00 in/hr0.0 mm/hr 0.00 in0.0 mm
06:18 PM 47.8°F8.8°C 29.1°F-1.6°C 48% 6.0 mph WNW9.7 kmh WNW 8.9 mph14.3 kmh 29.57 in1001.4 mb 0.00 in0.0 mm 0.00 in/hr0.0 mm/hr 0.00 in0.0 mm
06:17 PM 47.8°F8.8°C 29.1°F-1.6°C 48% 6.0 mph NW9.7 kmh NW 8.1 mph13.0 kmh 29.57 in1001.4 mb 0.00 in0.0 mm 0.00 in/hr0.0 mm/hr 0.00 in0.0 mm
06:16 PM 47.8°F8.8°C 29.1°F-1.6°C 48% 6.0 mph NW9.7 kmh NW 6.0 mph9.7 kmh 29.57 in1001.4 mb 0.00 in0.0 mm 0.00 in/hr0.0 mm/hr 0.00 in0.0 mm
06:15 PM 47.8°F8.8°C 29.1°F-1.6°C 48% 6.0 mph WNW9.7 kmh WNW 8.1 mph13.0 kmh 29.57 in1001.4 mb 0.00 in0.0 mm 0.00 in/hr0.0 mm/hr 0.00 in0.0 mm
06:14 PM 47.8°F8.8°C 29.1°F-1.6°C 48% 6.0 mph NW9.7 kmh NW 8.9 mph14.3 kmh 29.57 in1001.4 mb 0.00 in0.0 mm 0.00 in/hr0.0 mm/hr 0.00 in0.0 mm
06:12 PM 47.8°F8.8°C 29.1°F-1.6°C 48% 6.0 mph NW9.7 kmh NW 8.1 mph13.0 kmh 29.57 in1001.4 mb 0.00 in0.0 mm 0.00 in/hr0.0 mm/hr 0.00 in0.0 mm
06:11 PM 47.8°F8.8°C 29.1°F-1.6°C 48% 6.0 mph NW9.7 kmh NW 8.1 mph13.0 kmh 29.57 in1001.4 mb 0.00 in0.0 mm 0.00 in/hr0.0 mm/hr 0.00 in0.0 mm
06:10 PM 47.8°F8.8°C 29.1°F-1.6°C 48% 6.0 mph WNW9.7 kmh WNW 10.1 mph16.3 kmh 29.57 in1001.4 mb 0.00 in0.0 mm 0.00 in/hr0.0 mm/hr 0.00 in0.0 mm
06:09 PM 47.7°F8.7°C 28.9°F-1.7°C 48% 6.0 mph NW9.7 kmh NW 13.0 mph20.9 kmh 29.57 in1001.4 mb 0.00 in0.0 mm 0.00 in/hr0.0 mm/hr 0.00 in0.0 mm
06:08 PM 47.7°F8.7°C 29.5°F-1.4°C 49% 4.9 mph WNW7.9 kmh WNW 13.0 mph20.9 kmh 29.57 in1001.4 mb 0.00 in0.0 mm 0.00 in/hr0.0 mm/hr 0.00 in0.0 mm
06:07 PM 47.7°F8.7°C 29.5°F-1.4°C 49% 4.9 mph W7.9 kmh W 6.9 mph11.1 kmh 29.57 in1001.4 mb 0.00 in0.0 mm 0.00 in/hr0.0 mm/hr 0.00 in0.0 mm
06:06 PM 47.7°F8.7°C 29.5°F-1.4°C 49% 4.9 mph WNW7.9 kmh WNW 8.9 mph14.3 kmh 29.57 in1001.4 mb 0.00 in0.0 mm 0.00 in/hr0.0 mm/hr 0.00 in0.0 mm
06:05 PM 47.5°F8.6°C 29.3°F-1.5°C 49% 4.0 mph WNW6.4 kmh WNW 8.9 mph14.3 kmh 29.57 in1001.4 mb 0.00 in0.0 mm 0.00 in/hr0.0 mm/hr 0.00 in0.0 mm
06:04 PM 47.3°F8.5°C 29.1°F-1.6°C 49% 4.0 mph WNW6.4 kmh WNW 6.9 mph11.1 kmh 29.57 in1001.4 mb 0.00 in0.0 mm 0.00 in/hr0.0 mm/hr 0.00 in0.0 mm
06:03 PM 47.1°F8.4°C 28.9°F-1.7°C 49% 4.0 mph WNW6.4 kmh WNW 6.9 mph11.1 kmh 29.57 in1001.4 mb 0.00 in0.0 mm 0.00 in/hr0.0 mm/hr 0.00 in0.0 mm
06:02 PM 46.8°F8.2°C 29.1°F-1.6°C 50% 2.9 mph WNW4.7 kmh WNW 8.9 mph14.3 kmh 29.57 in1001.4 mb 0.00 in0.0 mm 0.00 in/hr0.0 mm/hr 0.00 in0.0 mm
06:01 PM 46.4°F8.0°C 28.8°F-1.8°C 50% 2.9 mph WNW4.7 kmh WNW 8.9 mph14.3 kmh 29.57 in1001.4 mb 0.00 in0.0 mm 0.00 in/hr0.0 mm/hr 0.00 in0.0 mm
06:00 PM 46.0°F7.8°C 28.4°F-2.0°C 50% 2.0 mph WNW3.2 kmh WNW 6.0 mph9.7 kmh 29.57 in1001.4 mb 0.00 in0.0 mm 0.00 in/hr0.0 mm/hr 0.00 in0.0 mm
05:59 PM 45.9°F7.7°C 28.2°F-2.1°C 50% 2.0 mph W3.2 kmh W 6.0 mph9.7 kmh 29.57 in1001.4 mb 0.00 in0.0 mm 0.00 in/hr0.0 mm/hr 0.00 in0.0 mm
05:58 PM 45.7°F7.6°C 28.6°F-1.9°C 51% 2.0 mph W3.2 kmh W 4.9 mph7.9 kmh 29.57 in1001.4 mb 0.00 in0.0 mm 0.00 in/hr0.0 mm/hr 0.00 in0.0 mm
05:57 PM 45.3°F7.4°C 28.2°F-2.1°C 51% 0.9 mph SW1.4 kmh SW 0.9 mph1.4 kmh 29.57 in1001.4 mb 0.00 in0.0 mm 0.00 in/hr0.0 mm/hr 0.00 in0.0 mm
05:56 PM 45.1°F7.3°C 28.0°F-2.2°C 51% 0.9 mph WNW1.4 kmh WNW 4.9 mph7.9 kmh 29.57 in1001.4 mb 0.00 in0.0 mm 0.00 in/hr0.0 mm/hr 0.00 in0.0 mm
05:55 PM 45.0°F7.2°C 28.4°F-2.0°C 52% 0.9 mph WSW1.4 kmh WSW 4.0 mph6.4 kmh 29.57 in1001.4 mb 0.00 in0.0 mm 0.00 in/hr0.0 mm/hr 0.00 in0.0 mm
05:54 PM 44.8°F7.1°C 28.2°F-2.1°C 52% 0.9 mph WSW1.4 kmh WSW 5.0 mph8.0 kmh 29.57 in1001.4 mb 0.00 in0.0 mm 0.00 in/hr0.0 mm/hr 0.00 in0.0 mm
05:53 PM 44.4°F6.9°C 27.9°F-2.3°C 52% 0.9 mph WSW1.4 kmh WSW 4.0 mph6.4 kmh 29.57 in1001.4 mb 0.00 in0.0 mm 0.00 in/hr0.0 mm/hr 0.00 in0.0 mm
05:52 PM 44.2°F6.8°C 27.7°F-2.4°C 52% 0.9 mph WSW1.4 kmh WSW 2.0 mph3.2 kmh 29.57 in1001.4 mb 0.00 in0.0 mm 0.00 in/hr0.0 mm/hr 0.00 in0.0 mm
05:51 PM 44.4°F6.9°C 27.5°F-2.5°C 51% 0.9 mph W1.4 kmh W 2.0 mph3.2 kmh 29.57 in1001.4 mb 0.00 in0.0 mm 0.00 in/hr0.0 mm/hr 0.00 in0.0 mm
05:50 PM 44.6°F7.0°C 27.1°F-2.7°C 50% 0.9 mph NW1.4 kmh NW 0.9 mph1.4 kmh 29.57 in1001.4 mb 0.00 in0.0 mm 0.00 in/hr0.0 mm/hr 0.00 in0.0 mm
05:49 PM 45.0°F7.2°C 27.5°F-2.5°C 50% 0.9 mph NNW1.4 kmh NNW 0.9 mph1.4 kmh 29.57 in1001.4 mb 0.00 in0.0 mm 0.00 in/hr0.0 mm/hr 0.00 in0.0 mm
05:48 PM 45.1°F7.3°C 27.1°F-2.7°C 49% 0.9 mph NNW1.4 kmh NNW 0.9 mph1.4 kmh 29.57 in1001.4 mb 0.00 in0.0 mm 0.00 in/hr0.0 mm/hr 0.00 in0.0 mm
05:47 PM 45.3°F7.4°C 27.3°F-2.6°C 49% 0.9 mph NNW1.4 kmh NNW 0.9 mph1.4 kmh 29.57 in1001.4 mb 0.00 in0.0 mm 0.00 in/hr0.0 mm/hr 0.00 in0.0 mm
05:46 PM 45.7°F7.6°C 27.7°F-2.4°C 49% 0.9 mph NNW1.4 kmh NNW 0.9 mph1.4 kmh 29.57 in1001.4 mb 0.00 in0.0 mm 0.00 in/hr0.0 mm/hr 0.00 in0.0 mm
05:45 PM 45.9°F7.7°C 27.3°F-2.6°C 48% 0.9 mph N1.4 kmh N 0.9 mph1.4 kmh 29.57 in1001.4 mb 0.00 in0.0 mm 0.00 in/hr0.0 mm/hr 0.00 in0.0 mm
05:44 PM 46.0°F7.8°C 27.5°F-2.5°C 48% 0.9 mph N1.4 kmh N 2.0 mph3.2 kmh 29.57 in1001.4 mb 0.00 in0.0 mm 0.00 in/hr0.0 mm/hr 0.00 in0.0 mm
05:43 PM 46.0°F7.8°C 28.4°F-2.0°C 50% 0.9 mph NW1.4 kmh NW 2.0 mph3.2 kmh 29.57 in1001.4 mb 0.00 in0.0 mm 0.00 in/hr0.0 mm/hr 0.00 in0.0 mm
05:42 PM 46.0°F7.8°C 27.9°F-2.3°C 49% 0.9 mph W1.4 kmh W 4.0 mph6.4 kmh 29.57 in1001.4 mb 0.00 in0.0 mm 0.00 in/hr0.0 mm/hr 0.00 in0.0 mm
05:41 PM 45.9°F7.7°C 27.9°F-2.3°C 49% 0.9 mph NW1.4 kmh NW 2.0 mph3.2 kmh 29.57 in1001.4 mb 0.00 in0.0 mm 0.00 in/hr0.0 mm/hr 0.00 in0.0 mm
05:39 PM 45.9°F7.7°C 28.2°F-2.1°C 50% 0.9 mph SW1.4 kmh SW 2.0 mph3.2 kmh 29.57 in1001.4 mb 0.00 in0.0 mm 0.00 in/hr0.0 mm/hr 0.00 in0.0 mm
05:38 PM 45.7°F7.6°C 28.0°F-2.2°C 50% 0.9 mph WSW1.4 kmh WSW 2.0 mph3.2 kmh 29.57 in1001.4 mb 0.00 in0.0 mm 0.00 in/hr0.0 mm/hr 0.00 in0.0 mm
05:37 PM 45.3°F7.4°C 27.9°F-2.3°C 50% 0.9 mph WSW1.4 kmh WSW 4.0 mph6.4 kmh 29.57 in1001.4 mb 0.00 in0.0 mm 0.00 in/hr0.0 mm/hr 0.00 in0.0 mm
05:36 PM 45.0°F7.2°C 27.5°F-2.5°C 50% Calm Calm 6.0 mph9.7 kmh 29.57 in1001.4 mb 0.00 in0.0 mm 0.00 in/hr0.0 mm/hr 0.00 in0.0 mm
05:35 PM 44.8°F7.1°C 27.3°F-2.6°C 50% Calm Calm 2.0 mph3.2 kmh 29.57 in1001.4 mb 0.00 in0.0 mm 0.00 in/hr0.0 mm/hr 0.00 in0.0 mm
05:34 PM 44.8°F7.1°C 27.3°F-2.6°C 50% Calm Calm 0.9 mph1.4 kmh 29.57 in1001.4 mb 0.00 in0.0 mm 0.00 in/hr0.0 mm/hr 0.00 in0.0 mm
05:33 PM 44.8°F7.1°C 26.8°F-2.9°C 49% Calm Calm 2.0 mph3.2 kmh 29.57 in1001.4 mb 0.00 in0.0 mm 0.00 in/hr0.0 mm/hr 0.00 in0.0 mm
05:32 PM 45.0°F7.2°C 27.0°F-2.8°C 49% Calm Calm 0.9 mph1.4 kmh 29.57 in1001.4 mb 0.00 in0.0 mm 0.00 in/hr0.0 mm/hr 0.00 in0.0 mm
05:31 PM 45.0°F7.2°C 27.0°F-2.8°C 49% Calm Calm -- 29.57 in1001.4 mb 0.00 in0.0 mm 0.00 in/hr0.0 mm/hr 0.00 in0.0 mm
05:30 PM 45.1°F7.3°C 27.1°F-2.7°C 49% Calm Calm 0.9 mph1.4 kmh 29.55 in1000.7 mb 0.00 in0.0 mm 0.00 in/hr0.0 mm/hr 0.00 in0.0 mm
05:29 PM 45.3°F7.4°C 27.3°F-2.6°C 49% Calm Calm 0.9 mph1.4 kmh 29.55 in1000.7 mb 0.00 in0.0 mm 0.00 in/hr0.0 mm/hr 0.00 in0.0 mm
05:28 PM 45.5°F7.5°C 27.0°F-2.8°C 48% Calm Calm 0.9 mph1.4 kmh 29.55 in1000.7 mb 0.00 in0.0 mm 0.00 in/hr0.0 mm/hr 0.00 in0.0 mm
05:27 PM 45.7°F7.6°C 27.1°F-2.7°C 48% 0.9 mph WNW1.4 kmh WNW -- 29.55 in1000.7 mb 0.00 in0.0 mm 0.00 in/hr0.0 mm/hr 0.00 in0.0 mm
05:26 PM 45.9°F7.7°C 27.3°F-2.6°C 48% 0.9 mph WNW1.4 kmh WNW -- 29.55 in1000.7 mb 0.00 in0.0 mm 0.00 in/hr0.0 mm/hr 0.00 in0.0 mm
05:25 PM 46.0°F7.8°C 27.0°F-2.8°C 47% 0.9 mph WNW1.4 kmh WNW 3.0 mph4.8 kmh 29.55 in1000.7 mb 0.00 in0.0 mm 0.00 in/hr0.0 mm/hr 0.00 in0.0 mm
05:24 PM 46.2°F7.9°C 27.1°F-2.7°C 47% 0.9 mph WNW1.4 kmh WNW 3.0 mph4.8 kmh 29.55 in1000.7 mb 0.00 in0.0 mm 0.00 in/hr0.0 mm/hr 0.00 in0.0 mm
05:23 PM 46.6°F8.1°C 27.0°F-2.8°C 46% 0.9 mph WNW1.4 kmh WNW -- 29.55 in1000.7 mb 0.00 in0.0 mm 0.00 in/hr0.0 mm/hr 0.00 in0.0 mm
05:22 PM 46.9°F8.3°C 27.3°F-2.6°C 46% 0.9 mph WNW1.4 kmh WNW -- 29.55 in1000.7 mb 0.00 in0.0 mm 0.00 in/hr0.0 mm/hr 0.00 in0.0 mm
05:21 PM 47.3°F8.5°C 27.0°F-2.8°C 45% 2.0 mph WNW3.2 kmh WNW 0.9 mph1.4 kmh 29.55 in1000.7 mb 0.00 in0.0 mm 0.00 in/hr0.0 mm/hr 0.00 in0.0 mm
05:20 PM 47.8°F8.8°C 27.0°F-2.8°C 44% 2.0 mph WNW3.2 kmh WNW 0.9 mph1.4 kmh 29.55 in1000.7 mb 0.00 in0.0 mm 0.00 in/hr0.0 mm/hr 0.00 in0.0 mm
05:19 PM 48.2°F9.0°C 27.3°F-2.6°C 44% 2.0 mph WNW3.2 kmh WNW 2.0 mph3.2 kmh 29.55 in1000.7 mb 0.00 in0.0 mm 0.00 in/hr0.0 mm/hr 0.00 in0.0 mm
05:17 PM 48.7°F9.3°C 27.9°F-2.3°C 44% 2.0 mph W3.2 kmh W 2.0 mph3.2 kmh 29.55 in1000.7 mb 0.00 in0.0 mm 0.00 in/hr0.0 mm/hr 0.00 in0.0 mm
05:16 PM 48.7°F9.3°C 27.9°F-2.3°C 44% 2.9 mph W4.7 kmh W 2.0 mph3.2 kmh 29.55 in1000.7 mb 0.00 in0.0 mm 0.00 in/hr0.0 mm/hr 0.00 in0.0 mm
05:15 PM 48.7°F9.3°C 27.9°F-2.3°C 44% 2.9 mph WSW4.7 kmh WSW 2.9 mph4.7 kmh 29.57 in1001.4 mb 0.00 in0.0 mm 0.00 in/hr0.0 mm/hr 0.00 in0.0 mm
05:14 PM 48.7°F9.3°C 27.9°F-2.3°C 44% 2.9 mph WSW4.7 kmh WSW 4.0 mph6.4 kmh 29.57 in1001.4 mb 0.00 in0.0 mm 0.00 in/hr0.0 mm/hr 0.00 in0.0 mm
05:13 PM 48.7°F9.3°C 27.9°F-2.3°C 44% 2.9 mph WSW4.7 kmh WSW 4.0 mph6.4 kmh 29.57 in1001.4 mb 0.00 in0.0 mm 0.00 in/hr0.0 mm/hr 0.00 in0.0 mm
05:12 PM 48.7°F9.3°C 27.9°F-2.3°C 44% 2.9 mph WSW4.7 kmh WSW 4.0 mph6.4 kmh 29.57 in1001.4 mb 0.00 in0.0 mm 0.00 in/hr0.0 mm/hr 0.00 in0.0 mm
05:11 PM 48.7°F9.3°C 27.9°F-2.3°C 44% 2.9 mph WSW4.7 kmh WSW 4.9 mph7.9 kmh 29.57 in1001.4 mb 0.00 in0.0 mm 0.00 in/hr0.0 mm/hr 0.00 in0.0 mm
05:10 PM 48.7°F9.3°C 27.9°F-2.3°C 44% 2.9 mph WSW4.7 kmh WSW 4.0 mph6.4 kmh 29.57 in1001.4 mb 0.00 in0.0 mm 0.00 in/hr0.0 mm/hr 0.00 in0.0 mm
05:09 PM 48.7°F9.3°C 27.9°F-2.3°C 44% 2.0 mph WSW3.2 kmh WSW 4.9 mph7.9 kmh 29.57 in1001.4 mb 0.00 in0.0 mm 0.00 in/hr0.0 mm/hr 0.00 in0.0 mm
05:08 PM 48.6°F9.2°C 28.2°F-2.1°C 45% 2.0 mph WSW3.2 kmh WSW 4.9 mph7.9 kmh 29.57 in1001.4 mb 0.00 in0.0 mm 0.00 in/hr0.0 mm/hr 0.00 in0.0 mm
05:07 PM 48.4°F9.1°C 27.5°F-2.5°C 44% 2.0 mph WSW3.2 kmh WSW 8.1 mph13.0 kmh 29.57 in1001.4 mb 0.00 in0.0 mm 0.00 in/hr0.0 mm/hr 0.00 in0.0 mm
05:06 PM 48.4°F9.1°C 28.0°F-2.2°C 45% 2.0 mph W3.2 kmh W 8.1 mph13.0 kmh 29.57 in1001.4 mb 0.00 in0.0 mm 0.00 in/hr0.0 mm/hr 0.00 in0.0 mm
05:05 PM 48.2°F9.0°C 27.9°F-2.3°C 45% 0.9 mph W1.4 kmh W 2.9 mph4.7 kmh 29.57 in1001.4 mb 0.00 in0.0 mm 0.00 in/hr0.0 mm/hr 0.00 in0.0 mm
05:04 PM 48.2°F9.0°C 27.9°F-2.3°C 45% 0.9 mph SSW1.4 kmh SSW 4.9 mph7.9 kmh 29.57 in1001.4 mb 0.00 in0.0 mm 0.00 in/hr0.0 mm/hr 0.00 in0.0 mm
05:03 PM 48.0°F8.9°C 27.7°F-2.4°C 45% 0.9 mph WSW1.4 kmh WSW 4.9 mph7.9 kmh 29.57 in1001.4 mb 0.00 in0.0 mm 0.00 in/hr0.0 mm/hr 0.00 in0.0 mm
05:02 PM 48.0°F8.9°C 27.7°F-2.4°C 45% 0.9 mph W1.4 kmh W 2.0 mph3.2 kmh 29.57 in1001.4 mb 0.00 in0.0 mm 0.00 in/hr0.0 mm/hr 0.00 in0.0 mm
05:01 PM 48.0°F8.9°C 27.7°F-2.4°C 45% 0.9 mph W1.4 kmh W 4.0 mph6.4 kmh 29.57 in1001.4 mb 0.00 in0.0 mm 0.00 in/hr0.0 mm/hr 0.00 in0.0 mm
05:00 PM 48.0°F8.9°C 27.7°F-2.4°C 45% 0.9 mph WSW1.4 kmh WSW 2.9 mph4.7 kmh 29.56 in1001.0 mb 0.00 in0.0 mm 0.00 in/hr0.0 mm/hr 0.00 in0.0 mm
04:59 PM 48.0°F8.9°C 27.7°F-2.4°C 45% 0.9 mph SW1.4 kmh SW 0.9 mph1.4 kmh 29.56 in1001.0 mb 0.00 in0.0 mm 0.00 in/hr0.0 mm/hr 0.00 in0.0 mm
04:58 PM 48.0°F8.9°C 27.7°F-2.4°C 45% 2.0 mph SW3.2 kmh SW 2.9 mph4.7 kmh 29.56 in1001.0 mb 0.00 in0.0 mm 0.00 in/hr0.0 mm/hr 0.00 in0.0 mm
04:57 PM 48.0°F8.9°C 27.7°F-2.4°C 45% 2.0 mph SW3.2 kmh SW 4.0 mph6.4 kmh 29.56 in1001.0 mb 0.00 in0.0 mm 0.00 in/hr0.0 mm/hr 0.00 in0.0 mm
04:56 PM 47.8°F8.8°C 27.5°F-2.5°C 45% 2.0 mph W3.2 kmh W 4.9 mph7.9 kmh 29.56 in1001.0 mb 0.00 in0.0 mm 0.00 in/hr0.0 mm/hr 0.00 in0.0 mm
04:55 PM 47.8°F8.8°C 28.0°F-2.2°C 46% 2.0 mph WSW3.2 kmh WSW 0.9 mph1.4 kmh 29.56 in1001.0 mb 0.00 in0.0 mm 0.00 in/hr0.0 mm/hr 0.00 in0.0 mm
04:54 PM 47.8°F8.8°C 28.0°F-2.2°C 46% 2.0 mph WSW3.2 kmh WSW 0.9 mph1.4 kmh 29.56 in1001.0 mb 0.00 in0.0 mm 0.00 in/hr0.0 mm/hr 0.00 in0.0 mm
04:53 PM 48.0°F8.9°C 28.2°F-2.1°C 46% 2.9 mph SW4.7 kmh SW 0.9 mph1.4 kmh 29.56 in1001.0 mb 0.00 in0.0 mm 0.00 in/hr0.0 mm/hr 0.00 in0.0 mm
04:52 PM 48.0°F8.9°C 27.7°F-2.4°C 45% 2.9 mph SSW4.7 kmh SSW 2.0 mph3.2 kmh 29.56 in1001.0 mb 0.00 in0.0 mm 0.00 in/hr0.0 mm/hr 0.00 in0.0 mm
04:51 PM 48.0°F8.9°C 27.7°F-2.4°C 45% 2.9 mph SW4.7 kmh SW 2.9 mph4.7 kmh 29.56 in1001.0 mb 0.00 in0.0 mm 0.00 in/hr0.0 mm/hr 0.00 in0.0 mm
04:50 PM 48.0°F8.9°C 28.2°F-2.1°C 46% 4.0 mph SW6.4 kmh SW 2.9 mph4.7 kmh 29.56 in1001.0 mb 0.00 in0.0 mm 0.00 in/hr0.0 mm/hr 0.00 in0.0 mm
04:49 PM 48.0°F8.9°C 27.7°F-2.4°C 45% 4.0 mph WSW6.4 kmh WSW 4.9 mph7.9 kmh 29.56 in1001.0 mb 0.00 in0.0 mm 0.00 in/hr0.0 mm/hr 0.00 in0.0 mm
04:48 PM 48.0°F8.9°C 28.2°F-2.1°C 46% 4.0 mph WSW6.4 kmh WSW 4.9 mph7.9 kmh 29.56 in1001.0 mb 0.00 in0.0 mm 0.00 in/hr0.0 mm/hr 0.00 in0.0 mm
04:47 PM 48.0°F8.9°C 27.7°F-2.4°C 45% 4.0 mph SSW6.4 kmh SSW 6.0 mph9.7 kmh 29.56 in1001.0 mb 0.00 in0.0 mm 0.00 in/hr0.0 mm/hr 0.00 in0.0 mm
04:46 PM 48.2°F9.0°C 27.9°F-2.3°C 45% 4.0 mph SSW6.4 kmh SSW 6.0 mph9.7 kmh 29.56 in1001.0 mb 0.00 in0.0 mm 0.00 in/hr0.0 mm/hr 0.00 in0.0 mm
04:45 PM 48.4°F9.1°C 28.0°F-2.2°C 45% 4.0 mph SSW6.4 kmh SSW 4.9 mph7.9 kmh 29.56 in1001.0 mb 0.00 in0.0 mm 0.00 in/hr0.0 mm/hr 0.00 in0.0 mm
04:44 PM 48.6°F9.2°C 28.2°F-2.1°C 45% 4.0 mph SW6.4 kmh SW 4.0 mph6.4 kmh 29.56 in1001.0 mb 0.00 in0.0 mm 0.00 in/hr0.0 mm/hr 0.00 in0.0 mm
04:43 PM 48.6°F9.2°C 28.2°F-2.1°C 45% 2.9 mph SW4.7 kmh SW 6.0 mph9.7 kmh 29.56 in1001.0 mb 0.00 in0.0 mm 0.00 in/hr0.0 mm/hr 0.00 in0.0 mm
04:42 PM 48.7°F9.3°C 28.4°F-2.0°C 45% 2.9 mph SW4.7 kmh SW 6.9 mph11.1 kmh 29.56 in1001.0 mb 0.00 in0.0 mm 0.00 in/hr0.0 mm/hr 0.00 in0.0 mm
04:41 PM 48.7°F9.3°C 27.9°F-2.3°C 44% 2.9 mph SW4.7 kmh SW 6.0 mph9.7 kmh 29.56 in1001.0 mb 0.00 in0.0 mm 0.00 in/hr0.0 mm/hr 0.00 in0.0 mm
04:40 PM 48.7°F9.3°C 27.9°F-2.3°C 44% 2.9 mph SW4.7 kmh SW 6.0 mph9.7 kmh 29.56 in1001.0 mb 0.00 in0.0 mm 0.00 in/hr0.0 mm/hr 0.00 in0.0 mm
04:39 PM 48.7°F9.3°C 27.9°F-2.3°C 44% 2.9 mph SW4.7 kmh SW 9.0 mph14.5 kmh 29.56 in1001.0 mb 0.00 in0.0 mm 0.00 in/hr0.0 mm/hr 0.00 in0.0 mm
04:38 PM 48.7°F9.3°C 27.9°F-2.3°C 44% 2.9 mph W4.7 kmh W 8.1 mph13.0 kmh 29.56 in1001.0 mb 0.00 in0.0 mm 0.00 in/hr0.0 mm/hr 0.00 in0.0 mm
04:37 PM 48.6°F9.2°C 27.7°F-2.4°C 44% 2.9 mph WSW4.7 kmh WSW 6.9 mph11.1 kmh 29.56 in1001.0 mb 0.00 in0.0 mm 0.00 in/hr0.0 mm/hr 0.00 in0.0 mm
04:36 PM 48.7°F9.3°C 27.9°F-2.3°C 44% 2.9 mph SW4.7 kmh SW 4.0 mph6.4 kmh 29.56 in1001.0 mb 0.00 in0.0 mm 0.00 in/hr0.0 mm/hr 0.00 in0.0 mm
04:35 PM 48.7°F9.3°C 27.9°F-2.3°C 44% 4.0 mph SW6.4 kmh SW 4.9 mph7.9 kmh 29.56 in1001.0 mb 0.00 in0.0 mm 0.00 in/hr0.0 mm/hr 0.00 in0.0 mm
04:34 PM 48.9°F9.4°C 28.0°F-2.2°C 44% 4.0 mph WSW6.4 kmh WSW 4.0 mph6.4 kmh 29.56 in1001.0 mb 0.00 in0.0 mm 0.00 in/hr0.0 mm/hr 0.00 in0.0 mm
04:33 PM 48.9°F9.4°C 28.0°F-2.2°C 44% 4.0 mph SW6.4 kmh SW 4.0 mph6.4 kmh 29.56 in1001.0 mb 0.00 in0.0 mm 0.00 in/hr0.0 mm/hr 0.00 in0.0 mm
04:32 PM 49.1°F9.5°C 28.0°F-2.2°C 44% 4.0 mph SW6.4 kmh SW 4.0 mph6.4 kmh 29.56 in1001.0 mb 0.00 in0.0 mm 0.00 in/hr0.0 mm/hr 0.00 in0.0 mm
04:31 PM 49.3°F9.6°C 28.2°F-2.1°C 44% 4.9 mph WSW7.9 kmh WSW 6.0 mph9.7 kmh 29.56 in1001.0 mb 0.00 in0.0 mm 0.00 in/hr0.0 mm/hr 0.00 in0.0 mm
04:30 PM 49.3°F9.6°C 27.7°F-2.4°C 43% 4.9 mph SW7.9 kmh SW 6.0 mph9.7 kmh 29.55 in1000.7 mb 0.00 in0.0 mm 0.00 in/hr0.0 mm/hr 0.00 in0.0 mm
04:29 PM 49.5°F9.7°C 27.9°F-2.3°C 43% 4.9 mph SSW7.9 kmh SSW 6.0 mph9.7 kmh 29.55 in1000.7 mb 0.00 in0.0 mm 0.00 in/hr0.0 mm/hr 0.00 in0.0 mm
04:28 PM 49.5°F9.7°C 27.9°F-2.3°C 43% 4.9 mph SW7.9 kmh SW 4.0 mph6.4 kmh 29.55 in1000.7 mb 0.00 in0.0 mm 0.00 in/hr0.0 mm/hr 0.00 in0.0 mm
04:27 PM 49.5°F9.7°C 27.9°F-2.3°C 43% 6.0 mph WSW9.7 kmh WSW 6.9 mph11.1 kmh 29.55 in1000.7 mb 0.00 in0.0 mm 0.00 in/hr0.0 mm/hr 0.00 in0.0 mm
04:26 PM 49.6°F9.8°C 28.0°F-2.2°C 43% 6.0 mph SW9.7 kmh SW 6.9 mph11.1 kmh 29.55 in1000.7 mb 0.00 in0.0 mm 0.00 in/hr0.0 mm/hr 0.00 in0.0 mm
04:25 PM 49.6°F9.8°C 28.0°F-2.2°C 43% 6.0 mph SW9.7 kmh SW 8.1 mph13.0 kmh 29.55 in1000.7 mb 0.00 in0.0 mm 0.00 in/hr0.0 mm/hr 0.00 in0.0 mm
04:24 PM 49.6°F9.8°C 27.5°F-2.5°C 42% 6.0 mph SW9.7 kmh SW 8.9 mph14.3 kmh 29.55 in1000.7 mb 0.00 in0.0 mm 0.00 in/hr0.0 mm/hr 0.00 in0.0 mm
04:23 PM 49.6°F9.8°C 28.0°F-2.2°C 43% 4.9 mph WSW7.9 kmh WSW 4.9 mph7.9 kmh 29.55 in1000.7 mb 0.00 in0.0 mm 0.00 in/hr0.0 mm/hr 0.00 in0.0 mm
04:22 PM 49.6°F9.8°C 27.5°F-2.5°C 42% 6.0 mph SW9.7 kmh SW 4.9 mph7.9 kmh 29.55 in1000.7 mb 0.00 in0.0 mm 0.00 in/hr0.0 mm/hr 0.00 in0.0 mm
04:21 PM 49.6°F9.8°C 27.5°F-2.5°C 42% 6.0 mph WSW9.7 kmh WSW 8.1 mph13.0 kmh 29.55 in1000.7 mb 0.00 in0.0 mm 0.00 in/hr0.0 mm/hr 0.00 in0.0 mm
04:20 PM 49.6°F9.8°C 27.5°F-2.5°C 42% 6.0 mph WSW9.7 kmh WSW 10.1 mph16.3 kmh 29.55 in1000.7 mb 0.00 in0.0 mm 0.00 in/hr0.0 mm/hr 0.00 in0.0 mm
04:19 PM 49.6°F9.8°C 27.5°F-2.5°C 42% 4.9 mph SW7.9 kmh SW 10.1 mph16.3 kmh 29.55 in1000.7 mb 0.00 in0.0 mm 0.00 in/hr0.0 mm/hr 0.00 in0.0 mm
04:18 PM 49.6°F9.8°C 27.5°F-2.5°C 42% 4.9 mph SSW7.9 kmh SSW 8.9 mph14.3 kmh 29.55 in1000.7 mb 0.00 in0.0 mm 0.00 in/hr0.0 mm/hr 0.00 in0.0 mm
04:17 PM 49.6°F9.8°C 27.5°F-2.5°C 42% 4.9 mph SW7.9 kmh SW 10.1 mph16.3 kmh 29.55 in1000.7 mb 0.00 in0.0 mm 0.00 in/hr0.0 mm/hr 0.00 in0.0 mm
04:16 PM 49.8°F9.9°C 27.7°F-2.4°C 42% 4.9 mph SSW7.9 kmh SSW 6.9 mph11.1 kmh 29.55 in1000.7 mb 0.00 in0.0 mm 0.00 in/hr0.0 mm/hr 0.00 in0.0 mm
04:15 PM 49.8°F9.9°C 27.7°F-2.4°C 42% 4.9 mph SW7.9 kmh SW 8.9 mph14.3 kmh 29.55 in1000.7 mb 0.00 in0.0 mm 0.00 in/hr0.0 mm/hr 0.00 in0.0 mm
04:14 PM 50.0°F10.0°C 27.9°F-2.3°C 42% 4.9 mph SW7.9 kmh SW 6.0 mph9.7 kmh 29.55 in1000.7 mb 0.00 in0.0 mm 0.00 in/hr0.0 mm/hr 0.00 in0.0 mm
04:13 PM 50.2°F10.1°C 27.3°F-2.6°C 41% 4.9 mph WSW7.9 kmh WSW 8.1 mph13.0 kmh 29.55 in1000.7 mb 0.00 in0.0 mm 0.00 in/hr0.0 mm/hr 0.00 in0.0 mm
04:12 PM 50.2°F10.1°C 27.3°F-2.6°C 41% 4.9 mph SSW7.9 kmh SSW 8.9 mph14.3 kmh 29.55 in1000.7 mb 0.00 in0.0 mm 0.00 in/hr0.0 mm/hr 0.00 in0.0 mm
04:11 PM 50.4°F10.2°C 27.5°F-2.5°C 41% 4.9 mph SW7.9 kmh SW 6.9 mph11.1 kmh 29.55 in1000.7 mb 0.00 in0.0 mm 0.00 in/hr0.0 mm/hr 0.00 in0.0 mm
04:10 PM 50.5°F10.3°C 27.7°F-2.4°C 41% 4.9 mph SW7.9 kmh SW 6.9 mph11.1 kmh 29.55 in1000.7 mb 0.00 in0.0 mm 0.00 in/hr0.0 mm/hr 0.00 in0.0 mm
04:09 PM 50.5°F10.3°C 27.1°F-2.7°C 40% 6.0 mph SW9.7 kmh SW 6.9 mph11.1 kmh 29.55 in1000.7 mb 0.00 in0.0 mm 0.00 in/hr0.0 mm/hr 0.00 in0.0 mm
04:08 PM 50.7°F10.4°C 27.3°F-2.6°C 40% 6.0 mph WSW9.7 kmh WSW 6.0 mph9.7 kmh 29.55 in1000.7 mb 0.00 in0.0 mm 0.00 in/hr0.0 mm/hr 0.00 in0.0 mm
04:07 PM 50.7°F10.4°C 27.3°F-2.6°C 40% 6.0 mph SW9.7 kmh SW 11.0 mph17.7 kmh 29.55 in1000.7 mb 0.00 in0.0 mm 0.00 in/hr0.0 mm/hr 0.00 in0.0 mm
04:06 PM 50.9°F10.5°C 27.5°F-2.5°C 40% 6.0 mph SW9.7 kmh SW 8.9 mph14.3 kmh 29.55 in1000.7 mb 0.00 in0.0 mm 0.00 in/hr0.0 mm/hr 0.00 in0.0 mm
04:05 PM 51.1°F10.6°C 27.7°F-2.4°C 40% 6.0 mph SW9.7 kmh SW 8.9 mph14.3 kmh 29.55 in1000.7 mb 0.00 in0.0 mm 0.00 in/hr0.0 mm/hr 0.00 in0.0 mm
04:04 PM 51.3°F10.7°C 27.1°F-2.7°C 39% 6.0 mph WSW9.7 kmh WSW 10.1 mph16.3 kmh 29.55 in1000.7 mb 0.00 in0.0 mm 0.00 in/hr0.0 mm/hr 0.00 in0.0 mm
04:03 PM 51.3°F10.7°C 27.1°F-2.7°C 39% 6.0 mph SSW9.7 kmh SSW 8.9 mph14.3 kmh 29.55 in1000.7 mb 0.00 in0.0 mm 0.00 in/hr0.0 mm/hr 0.00 in0.0 mm
04:02 PM 51.4°F10.8°C 27.3°F-2.6°C 39% 6.0 mph SW9.7 kmh SW 8.1 mph13.0 kmh 29.55 in1000.7 mb 0.00 in0.0 mm 0.00 in/hr0.0 mm/hr 0.00 in0.0 mm
04:01 PM 51.6°F10.9°C 27.5°F-2.5°C 39% 6.0 mph WSW9.7 kmh WSW 8.9 mph14.3 kmh 29.55 in1000.7 mb 0.00 in0.0 mm 0.00 in/hr0.0 mm/hr 0.00 in0.0 mm
04:00 PM 51.6°F10.9°C 26.8°F-2.9°C 38% 6.0 mph W9.7 kmh W 10.1 mph16.3 kmh 29.55 in1000.7 mb 0.00 in0.0 mm 0.00 in/hr0.0 mm/hr 0.00 in0.0 mm
03:59 PM 51.8°F11.0°C 27.0°F-2.8°C 38% 6.0 mph WSW9.7 kmh WSW 8.9 mph14.3 kmh 29.55 in1000.7 mb 0.00 in0.0 mm 0.00 in/hr0.0 mm/hr 0.00 in0.0 mm
03:58 PM 52.0°F11.1°C 27.1°F-2.7°C 38% 6.0 mph WSW9.7 kmh WSW 8.1 mph13.0 kmh 29.55 in1000.7 mb 0.00 in0.0 mm 0.00 in/hr0.0 mm/hr 0.00 in0.0 mm
03:57 PM 52.0°F11.1°C 27.1°F-2.7°C 38% 6.0 mph SW9.7 kmh SW 11.0 mph17.7 kmh 29.55 in1000.7 mb 0.00 in0.0 mm 0.00 in/hr0.0 mm/hr 0.00 in0.0 mm
03:56 PM 52.2°F11.2°C 27.3°F-2.6°C 38% 6.0 mph WSW9.7 kmh WSW 10.1 mph16.3 kmh 29.55 in1000.7 mb 0.00 in0.0 mm 0.00 in/hr0.0 mm/hr 0.00 in0.0 mm
03:55 PM 52.2°F11.2°C 27.3°F-2.6°C 38% 6.0 mph WSW9.7 kmh WSW 8.1 mph13.0 kmh 29.55 in1000.7 mb 0.00 in0.0 mm 0.00 in/hr0.0 mm/hr 0.00 in0.0 mm
03:54 PM 52.2°F11.2°C 27.3°F-2.6°C 38% 6.0 mph WSW9.7 kmh WSW 6.0 mph9.7 kmh 29.55 in1000.7 mb 0.00 in0.0 mm 0.00 in/hr0.0 mm/hr 0.00 in0.0 mm
03:53 PM 52.2°F11.2°C 27.3°F-2.6°C 38% 6.0 mph SW9.7 kmh SW 11.0 mph17.7 kmh 29.55 in1000.7 mb 0.00 in0.0 mm 0.00 in/hr0.0 mm/hr 0.00 in0.0 mm
03:52 PM 52.2°F11.2°C 27.3°F-2.6°C 38% 6.0 mph SSW9.7 kmh SSW 11.0 mph17.7 kmh 29.55 in1000.7 mb 0.00 in0.0 mm 0.00 in/hr0.0 mm/hr 0.00 in0.0 mm
03:51 PM 52.3°F11.3°C 27.5°F-2.5°C 38% 6.0 mph SW9.7 kmh SW 8.9 mph14.3 kmh 29.55 in1000.7 mb 0.00 in0.0 mm 0.00 in/hr0.0 mm/hr 0.00 in0.0 mm
03:50 PM 52.3°F11.3°C 27.5°F-2.5°C 38% 6.0 mph WSW9.7 kmh WSW 8.9 mph14.3 kmh 29.55 in1000.7 mb 0.00 in0.0 mm 0.00 in/hr0.0 mm/hr 0.00 in0.0 mm
03:49 PM 52.5°F11.4°C 27.7°F-2.4°C 38% 6.0 mph SW9.7 kmh SW 8.1 mph13.0 kmh 29.55 in1000.7 mb 0.00 in0.0 mm 0.00 in/hr0.0 mm/hr 0.00 in0.0 mm
03:48 PM 52.9°F11.6°C 28.0°F-2.2°C 38% 6.0 mph SSW9.7 kmh SSW 11.0 mph17.7 kmh 29.55 in1000.7 mb 0.00 in0.0 mm 0.00 in/hr0.0 mm/hr 0.00 in0.0 mm
03:47 PM 52.9°F11.6°C 27.3°F-2.6°C 37% 6.0 mph WSW9.7 kmh WSW 11.0 mph17.7 kmh 29.55 in1000.7 mb 0.00 in0.0 mm 0.00 in/hr0.0 mm/hr 0.00 in0.0 mm
03:46 PM 53.1°F11.7°C 27.5°F-2.5°C 37% 6.0 mph SW9.7 kmh SW 10.1 mph16.3 kmh 29.55 in1000.7 mb 0.00 in0.0 mm 0.00 in/hr0.0 mm/hr 0.00 in0.0 mm
03:45 PM 53.2°F11.8°C 27.7°F-2.4°C 37% 6.0 mph SW9.7 kmh SW 8.1 mph13.0 kmh 29.54 in1000.3 mb 0.00 in0.0 mm 0.00 in/hr0.0 mm/hr 0.00 in0.0 mm
03:44 PM 53.2°F11.8°C 27.7°F-2.4°C 37% 6.0 mph W9.7 kmh W 4.9 mph7.9 kmh 29.54 in1000.3 mb 0.00 in0.0 mm 0.00 in/hr0.0 mm/hr 0.00 in0.0 mm
03:43 PM 53.4°F11.9°C 27.9°F-2.3°C 37% 6.0 mph WSW9.7 kmh WSW 11.0 mph17.7 kmh 29.54 in1000.3 mb 0.00 in0.0 mm 0.00 in/hr0.0 mm/hr 0.00 in0.0 mm
03:42 PM 53.4°F11.9°C 27.9°F-2.3°C 37% 6.0 mph SW9.7 kmh SW 11.0 mph17.7 kmh 29.54 in1000.3 mb 0.00 in0.0 mm 0.00 in/hr0.0 mm/hr 0.00 in0.0 mm
03:41 PM 53.6°F12.0°C 28.0°F-2.2°C 37% 6.0 mph WSW9.7 kmh WSW 8.9 mph14.3 kmh 29.54 in1000.3 mb 0.00 in0.0 mm 0.00 in/hr0.0 mm/hr 0.00 in0.0 mm
03:40 PM 53.8°F12.1°C 28.0°F-2.2°C 37% 4.9 mph WSW7.9 kmh WSW 8.1 mph13.0 kmh 29.54 in1000.3 mb 0.00 in0.0 mm 0.00 in/hr0.0 mm/hr 0.00 in0.0 mm
03:39 PM 53.8°F12.1°C 28.0°F-2.2°C 37% 6.0 mph W9.7 kmh W 8.1 mph13.0 kmh 29.54 in1000.3 mb 0.00 in0.0 mm 0.00 in/hr0.0 mm/hr 0.00 in0.0 mm
03:38 PM 53.8°F12.1°C 28.0°F-2.2°C 37% 4.9 mph WSW7.9 kmh WSW 8.9 mph14.3 kmh 29.54 in1000.3 mb 0.00 in0.0 mm 0.00 in/hr0.0 mm/hr 0.00 in0.0 mm
03:37 PM 53.8°F12.1°C 28.0°F-2.2°C 37% 4.9 mph WSW7.9 kmh WSW 13.0 mph20.9 kmh 29.54 in1000.3 mb 0.00 in0.0 mm 0.00 in/hr0.0 mm/hr 0.00 in0.0 mm
03:36 PM 53.8°F12.1°C 28.0°F-2.2°C 37% 4.9 mph WSW7.9 kmh WSW 12.1 mph19.5 kmh 29.54 in1000.3 mb 0.00 in0.0 mm 0.00 in/hr0.0 mm/hr 0.00 in0.0 mm
03:35 PM 53.8°F12.1°C 28.0°F-2.2°C 37% 4.9 mph W7.9 kmh W 6.9 mph11.1 kmh 29.54 in1000.3 mb 0.00 in0.0 mm 0.00 in/hr0.0 mm/hr 0.00 in0.0 mm
03:34 PM 53.8°F12.1°C 28.8°F-1.8°C 38% 4.9 mph W7.9 kmh W 4.9 mph7.9 kmh 29.54 in1000.3 mb 0.00 in0.0 mm 0.00 in/hr0.0 mm/hr 0.00 in0.0 mm
03:33 PM 53.6°F12.0°C 28.6°F-1.9°C 38% 4.9 mph WSW7.9 kmh WSW 10.1 mph16.3 kmh 29.54 in1000.3 mb 0.00 in0.0 mm 0.00 in/hr0.0 mm/hr 0.00 in0.0 mm
03:32 PM 53.6°F12.0°C 28.0°F-2.2°C 37% 4.9 mph W7.9 kmh W 10.1 mph16.3 kmh 29.54 in1000.3 mb 0.00 in0.0 mm 0.00 in/hr0.0 mm/hr 0.00 in0.0 mm
03:31 PM 53.6°F12.0°C 28.6°F-1.9°C 38% 4.9 mph WNW7.9 kmh WNW 6.0 mph9.7 kmh 29.54 in1000.3 mb 0.00 in0.0 mm 0.00 in/hr0.0 mm/hr 0.00 in0.0 mm
03:30 PM 53.6°F12.0°C 28.6°F-1.9°C 38% 4.9 mph W7.9 kmh W 8.1 mph13.0 kmh 29.54 in1000.3 mb 0.00 in0.0 mm 0.00 in/hr0.0 mm/hr 0.00 in0.0 mm
03:29 PM 53.6°F12.0°C 28.0°F-2.2°C 37% 4.0 mph WSW6.4 kmh WSW 8.9 mph14.3 kmh 29.54 in1000.3 mb 0.00 in0.0 mm 0.00 in/hr0.0 mm/hr 0.00 in0.0 mm
03:28 PM 53.6°F12.0°C 28.0°F-2.2°C 37% 4.0 mph W6.4 kmh W 6.9 mph11.1 kmh 29.54 in1000.3 mb 0.00 in0.0 mm 0.00 in/hr0.0 mm/hr 0.00 in0.0 mm
03:27 PM 53.6°F12.0°C 28.0°F-2.2°C 37% 4.0 mph WNW6.4 kmh WNW 6.9 mph11.1 kmh 29.54 in1000.3 mb 0.00 in0.0 mm 0.00 in/hr0.0 mm/hr 0.00 in0.0 mm
03:26 PM 53.6°F12.0°C 28.6°F-1.9°C 38% 4.0 mph WSW6.4 kmh WSW 4.9 mph7.9 kmh 29.54 in1000.3 mb 0.00 in0.0 mm 0.00 in/hr0.0 mm/hr 0.00 in0.0 mm
03:25 PM 53.6°F12.0°C 28.6°F-1.9°C 38% 4.0 mph WNW6.4 kmh WNW 8.1 mph13.0 kmh 29.54 in1000.3 mb 0.00 in0.0 mm 0.00 in/hr0.0 mm/hr 0.00 in0.0 mm
03:24 PM 53.6°F12.0°C 28.6°F-1.9°C 38% 4.0 mph WSW6.4 kmh WSW 6.9 mph11.1 kmh 29.54 in1000.3 mb 0.00 in0.0 mm 0.00 in/hr0.0 mm/hr 0.00 in0.0 mm
03:23 PM 53.4°F11.9°C 28.4°F-2.0°C 38% 4.0 mph WSW6.4 kmh WSW 4.9 mph7.9 kmh 29.54 in1000.3 mb 0.00 in0.0 mm 0.00 in/hr0.0 mm/hr 0.00 in0.0 mm
03:22 PM 53.4°F11.9°C 28.4°F-2.0°C 38% 4.0 mph W6.4 kmh W 6.0 mph9.7 kmh 29.54 in1000.3 mb 0.00 in0.0 mm 0.00 in/hr0.0 mm/hr 0.00 in0.0 mm
03:21 PM 53.4°F11.9°C 28.4°F-2.0°C 38% 4.0 mph WSW6.4 kmh WSW 8.9 mph14.3 kmh 29.54 in1000.3 mb 0.00 in0.0 mm 0.00 in/hr0.0 mm/hr 0.00 in0.0 mm
03:20 PM 53.2°F11.8°C 28.2°F-2.1°C 38% 4.0 mph SW6.4 kmh SW 8.9 mph14.3 kmh 29.54 in1000.3 mb 0.00 in0.0 mm 0.00 in/hr0.0 mm/hr 0.00 in0.0 mm
03:19 PM 53.2°F11.8°C 28.9°F-1.7°C 39% 4.0 mph WSW6.4 kmh WSW 4.9 mph7.9 kmh 29.54 in1000.3 mb 0.00 in0.0 mm 0.00 in/hr0.0 mm/hr 0.00 in0.0 mm
03:18 PM 53.2°F11.8°C 28.2°F-2.1°C 38% 4.0 mph WSW6.4 kmh WSW 9.0 mph14.5 kmh 29.54 in1000.3 mb 0.00 in0.0 mm 0.00 in/hr0.0 mm/hr 0.00 in0.0 mm
03:17 PM 53.2°F11.8°C 28.2°F-2.1°C 38% 2.9 mph WSW4.7 kmh WSW 6.0 mph9.7 kmh 29.54 in1000.3 mb 0.00 in0.0 mm 0.00 in/hr0.0 mm/hr 0.00 in0.0 mm
03:16 PM 53.2°F11.8°C 28.9°F-1.7°C 39% 2.9 mph WSW4.7 kmh WSW 4.9 mph7.9 kmh 29.54 in1000.3 mb 0.00 in0.0 mm 0.00 in/hr0.0 mm/hr 0.00 in0.0 mm
03:15 PM 53.1°F11.7°C 28.8°F-1.8°C 39% 2.9 mph W4.7 kmh W 6.0 mph9.7 kmh 29.55 in1000.7 mb 0.00 in0.0 mm 0.00 in/hr0.0 mm/hr 0.00 in0.0 mm
03:14 PM 53.1°F11.7°C 28.8°F-1.8°C 39% 2.0 mph W3.2 kmh W 6.0 mph9.7 kmh 29.55 in1000.7 mb 0.00 in0.0 mm 0.00 in/hr0.0 mm/hr 0.00 in0.0 mm
03:13 PM 52.9°F11.6°C 28.6°F-1.9°C 39% 2.0 mph W3.2 kmh W 8.1 mph13.0 kmh 29.55 in1000.7 mb 0.00 in0.0 mm 0.00 in/hr0.0 mm/hr 0.00 in0.0 mm
03:12 PM 52.7°F11.5°C 29.1°F-1.6°C 40% 2.0 mph WSW3.2 kmh WSW 4.0 mph6.4 kmh 29.55 in1000.7 mb 0.00 in0.0 mm 0.00 in/hr0.0 mm/hr 0.00 in0.0 mm
03:11 PM 52.5°F11.4°C 28.2°F-2.1°C 39% 2.0 mph WNW3.2 kmh WNW 2.9 mph4.7 kmh 29.55 in1000.7 mb 0.00 in0.0 mm 0.00 in/hr0.0 mm/hr 0.00 in0.0 mm
03:10 PM 52.2°F11.2°C 28.6°F-1.9°C 40% 0.9 mph W1.4 kmh W 6.0 mph9.7 kmh 29.55 in1000.7 mb 0.00 in0.0 mm 0.00 in/hr0.0 mm/hr 0.00 in0.0 mm
03:09 PM 52.0°F11.1°C 28.4°F-2.0°C 40% 0.9 mph NW1.4 kmh NW 6.0 mph9.7 kmh 29.55 in1000.7 mb 0.00 in0.0 mm 0.00 in/hr0.0 mm/hr 0.00 in0.0 mm
03:08 PM 52.0°F11.1°C 28.9°F-1.7°C 41% 0.9 mph NW1.4 kmh NW 5.0 mph8.0 kmh 29.55 in1000.7 mb 0.00 in0.0 mm 0.00 in/hr0.0 mm/hr 0.00 in0.0 mm
03:07 PM 52.0°F11.1°C 28.4°F-2.0°C 40% 0.9 mph NNW1.4 kmh NNW 4.0 mph6.4 kmh 29.55 in1000.7 mb 0.00 in0.0 mm 0.00 in/hr0.0 mm/hr 0.00 in0.0 mm
03:06 PM 52.0°F11.1°C 28.9°F-1.7°C 41% 0.9 mph WNW1.4 kmh WNW 4.0 mph6.4 kmh 29.55 in1000.7 mb 0.00 in0.0 mm 0.00 in/hr0.0 mm/hr 0.00 in0.0 mm
03:05 PM 52.0°F11.1°C 28.4°F-2.0°C 40% 0.9 mph NW1.4 kmh NW 4.0 mph6.4 kmh 29.55 in1000.7 mb 0.00 in0.0 mm 0.00 in/hr0.0 mm/hr 0.00 in0.0 mm
03:04 PM 52.0°F11.1°C 27.9°F-2.3°C 39% 0.9 mph W1.4 kmh W 0.9 mph1.4 kmh 29.55 in1000.7 mb 0.00 in0.0 mm 0.00 in/hr0.0 mm/hr 0.00 in0.0 mm
03:03 PM 52.0°F11.1°C 27.9°F-2.3°C 39% 0.9 mph WSW1.4 kmh WSW 0.9 mph1.4 kmh 29.55 in1000.7 mb 0.00 in0.0 mm 0.00 in/hr0.0 mm/hr 0.00 in0.0 mm
03:02 PM 52.0°F11.1°C 27.9°F-2.3°C 39% 0.9 mph W1.4 kmh W 0.9 mph1.4 kmh 29.55 in1000.7 mb 0.00 in0.0 mm 0.00 in/hr0.0 mm/hr 0.00 in0.0 mm
03:01 PM 52.0°F11.1°C 27.9°F-2.3°C 39% 0.9 mph W1.4 kmh W 0.9 mph1.4 kmh 29.55 in1000.7 mb 0.00 in0.0 mm 0.00 in/hr0.0 mm/hr 0.00 in0.0 mm
03:00 PM 52.0°F11.1°C 27.9°F-2.3°C 39% 0.9 mph WNW1.4 kmh WNW 0.9 mph1.4 kmh 29.54 in1000.3 mb 0.00 in0.0 mm 0.00 in/hr0.0 mm/hr 0.00 in0.0 mm
02:59 PM 52.0°F11.1°C 27.9°F-2.3°C 39% 2.0 mph WNW3.2 kmh WNW 2.0 mph3.2 kmh 29.54 in1000.3 mb 0.00 in0.0 mm 0.00 in/hr0.0 mm/hr 0.00 in0.0 mm
02:58 PM 52.0°F11.1°C 27.9°F-2.3°C 39% 0.9 mph WSW1.4 kmh WSW 2.9 mph4.7 kmh 29.54 in1000.3 mb 0.00 in0.0 mm 0.00 in/hr0.0 mm/hr 0.00 in0.0 mm
02:57 PM 52.0°F11.1°C 27.9°F-2.3°C 39% 0.9 mph WSW1.4 kmh WSW 2.9 mph4.7 kmh 29.54 in1000.3 mb 0.00 in0.0 mm 0.00 in/hr0.0 mm/hr 0.00 in0.0 mm
02:56 PM 52.0°F11.1°C 27.9°F-2.3°C 39% 0.9 mph WSW1.4 kmh WSW 2.9 mph4.7 kmh 29.54 in1000.3 mb 0.00 in0.0 mm 0.00 in/hr0.0 mm/hr 0.00 in0.0 mm
02:55 PM 52.0°F11.1°C 27.9°F-2.3°C 39% 0.9 mph WSW1.4 kmh WSW 0.9 mph1.4 kmh 29.54 in1000.3 mb 0.00 in0.0 mm 0.00 in/hr0.0 mm/hr 0.00 in0.0 mm
02:54 PM 52.0°F11.1°C 27.1°F-2.7°C 38% 0.9 mph WSW1.4 kmh WSW 0.9 mph1.4 kmh 29.54 in1000.3 mb 0.00 in0.0 mm 0.00 in/hr0.0 mm/hr 0.00 in0.0 mm
02:53 PM 52.0°F11.1°C 27.9°F-2.3°C 39% 0.9 mph WSW1.4 kmh WSW 2.0 mph3.2 kmh 29.54 in1000.3 mb 0.00 in0.0 mm 0.00 in/hr0.0 mm/hr 0.00 in0.0 mm
02:52 PM 52.0°F11.1°C 27.9°F-2.3°C 39% 0.9 mph SSW1.4 kmh SSW 2.9 mph4.7 kmh 29.54 in1000.3 mb 0.00 in0.0 mm 0.00 in/hr0.0 mm/hr 0.00 in0.0 mm
02:51 PM 51.8°F11.0°C 27.0°F-2.8°C 38% 0.9 mph SSW1.4 kmh SSW 6.0 mph9.7 kmh 29.54 in1000.3 mb 0.00 in0.0 mm 0.00 in/hr0.0 mm/hr 0.00 in0.0 mm
02:50 PM 51.8°F11.0°C 27.7°F-2.4°C 39% 0.9 mph SSW1.4 kmh SSW 6.0 mph9.7 kmh 29.54 in1000.3 mb 0.00 in0.0 mm 0.00 in/hr0.0 mm/hr 0.00 in0.0 mm
02:49 PM 51.8°F11.0°C 27.0°F-2.8°C 38% 0.9 mph S1.4 kmh S 2.9 mph4.7 kmh 29.54 in1000.3 mb 0.00 in0.0 mm 0.00 in/hr0.0 mm/hr 0.00 in0.0 mm
02:48 PM 51.8°F11.0°C 27.0°F-2.8°C 38% 0.9 mph SW1.4 kmh SW -- 29.54 in1000.3 mb 0.00 in0.0 mm 0.00 in/hr0.0 mm/hr 0.00 in0.0 mm
02:47 PM 52.0°F11.1°C 27.9°F-2.3°C 39% 0.9 mph WSW1.4 kmh WSW 0.9 mph1.4 kmh 29.54 in1000.3 mb 0.00 in0.0 mm 0.00 in/hr0.0 mm/hr 0.00 in0.0 mm
02:46 PM 52.0°F11.1°C 27.9°F-2.3°C 39% 2.0 mph SW3.2 kmh SW 0.9 mph1.4 kmh 29.54 in1000.3 mb 0.00 in0.0 mm 0.00 in/hr0.0 mm/hr 0.00 in0.0 mm
02:45 PM 52.0°F11.1°C 27.9°F-2.3°C 39% 2.0 mph SW3.2 kmh SW 0.9 mph1.4 kmh 29.54 in1000.3 mb 0.00 in0.0 mm 0.00 in/hr0.0 mm/hr 0.00 in0.0 mm
02:44 PM 52.0°F11.1°C 27.1°F-2.7°C 38% 2.0 mph SW3.2 kmh SW 2.0 mph3.2 kmh 29.54 in1000.3 mb 0.00 in0.0 mm 0.00 in/hr0.0 mm/hr 0.00 in0.0 mm
02:43 PM 51.8°F11.0°C 27.7°F-2.4°C 39% 2.0 mph SSW3.2 kmh SSW 2.0 mph3.2 kmh 29.54 in1000.3 mb 0.00 in0.0 mm 0.00 in/hr0.0 mm/hr 0.00 in0.0 mm
02:42 PM 51.8°F11.0°C 27.0°F-2.8°C 38% 2.0 mph W3.2 kmh W 2.9 mph4.7 kmh 29.54 in1000.3 mb 0.00 in0.0 mm 0.00 in/hr0.0 mm/hr 0.00 in0.0 mm
02:41 PM 51.8°F11.0°C 27.0°F-2.8°C 38% 2.0 mph W3.2 kmh W 2.9 mph4.7 kmh 29.54 in1000.3 mb 0.00 in0.0 mm 0.00 in/hr0.0 mm/hr 0.00 in0.0 mm
02:40 PM 51.8°F11.0°C 27.0°F-2.8°C 38% 2.0 mph NW3.2 kmh NW 7.0 mph11.3 kmh 29.54 in1000.3 mb 0.00 in0.0 mm 0.00 in/hr0.0 mm/hr 0.00 in0.0 mm
02:39 PM 51.8°F11.0°C 27.0°F-2.8°C 38% 2.9 mph NW4.7 kmh NW 7.0 mph11.3 kmh 29.54 in1000.3 mb 0.00 in0.0 mm 0.00 in/hr0.0 mm/hr 0.00 in0.0 mm
02:38 PM 51.8°F11.0°C 27.0°F-2.8°C 38% 2.0 mph WSW3.2 kmh WSW 6.0 mph9.7 kmh 29.54 in1000.3 mb 0.00 in0.0 mm 0.00 in/hr0.0 mm/hr 0.00 in0.0 mm
02:37 PM 51.8°F11.0°C 27.0°F-2.8°C 38% 2.0 mph SW3.2 kmh SW 6.0 mph9.7 kmh 29.54 in1000.3 mb 0.00 in0.0 mm 0.00 in/hr0.0 mm/hr 0.00 in0.0 mm
02:36 PM 51.8°F11.0°C 27.7°F-2.4°C 39% 2.0 mph SW3.2 kmh SW 4.0 mph6.4 kmh 29.54 in1000.3 mb 0.00 in0.0 mm 0.00 in/hr0.0 mm/hr 0.00 in0.0 mm
02:35 PM 51.8°F11.0°C 27.0°F-2.8°C 38% 2.0 mph SW3.2 kmh SW 2.0 mph3.2 kmh 29.54 in1000.3 mb 0.00 in0.0 mm 0.00 in/hr0.0 mm/hr 0.00 in0.0 mm
02:34 PM 51.8°F11.0°C 27.0°F-2.8°C 38% 2.0 mph W3.2 kmh W 0.9 mph1.4 kmh 29.54 in1000.3 mb 0.00 in0.0 mm 0.00 in/hr0.0 mm/hr 0.00 in0.0 mm
02:33 PM 51.6°F10.9°C 26.2°F-3.2°C 37% 2.0 mph W3.2 kmh W 2.9 mph4.7 kmh 29.54 in1000.3 mb 0.00 in0.0 mm 0.00 in/hr0.0 mm/hr 0.00 in0.0 mm
02:32 PM 51.6°F10.9°C 26.8°F-2.9°C 38% 2.0 mph WNW3.2 kmh WNW 6.0 mph9.7 kmh 29.54 in1000.3 mb 0.00 in0.0 mm 0.00 in/hr0.0 mm/hr 0.00 in0.0 mm
02:31 PM 51.6°F10.9°C 26.8°F-2.9°C 38% 0.9 mph WNW1.4 kmh WNW 6.0 mph9.7 kmh 29.54 in1000.3 mb 0.00 in0.0 mm 0.00 in/hr0.0 mm/hr 0.00 in0.0 mm
02:30 PM 51.6°F10.9°C 26.8°F-2.9°C 38% 0.9 mph WSW1.4 kmh WSW 6.9 mph11.1 kmh 29.56 in1001.0 mb 0.00 in0.0 mm 0.00 in/hr0.0 mm/hr 0.00 in0.0 mm
02:29 PM 51.6°F10.9°C 27.5°F-2.5°C 39% 0.9 mph SW1.4 kmh SW 6.9 mph11.1 kmh 29.56 in1001.0 mb 0.00 in0.0 mm 0.00 in/hr0.0 mm/hr 0.00 in0.0 mm
02:28 PM 51.6°F10.9°C 27.5°F-2.5°C 39% 0.9 mph SW1.4 kmh SW 2.0 mph3.2 kmh 29.56 in1001.0 mb 0.00 in0.0 mm 0.00 in/hr0.0 mm/hr 0.00 in0.0 mm
02:27 PM 51.6°F10.9°C 26.8°F-2.9°C 38% 0.9 mph SW1.4 kmh SW 0.9 mph1.4 kmh 29.56 in1001.0 mb 0.00 in0.0 mm 0.00 in/hr0.0 mm/hr 0.00 in0.0 mm
02:26 PM 51.6°F10.9°C 26.8°F-2.9°C 38% 0.9 mph WSW1.4 kmh WSW 0.9 mph1.4 kmh 29.56 in1001.0 mb 0.00 in0.0 mm 0.00 in/hr0.0 mm/hr 0.00 in0.0 mm
02:25 PM 51.6°F10.9°C 26.8°F-2.9°C 38% 0.9 mph SW1.4 kmh SW 0.9 mph1.4 kmh 29.56 in1001.0 mb 0.00 in0.0 mm 0.00 in/hr0.0 mm/hr 0.00 in0.0 mm
02:24 PM 51.6°F10.9°C 27.5°F-2.5°C 39% Calm Calm 0.9 mph1.4 kmh 29.56 in1001.0 mb 0.00 in0.0 mm 0.00 in/hr0.0 mm/hr 0.00 in0.0 mm
02:23 PM 51.4°F10.8°C 27.3°F-2.6°C 39% Calm Calm 0.9 mph1.4 kmh 29.56 in1001.0 mb 0.00 in0.0 mm 0.00 in/hr0.0 mm/hr 0.00 in0.0 mm
02:22 PM 51.4°F10.8°C 27.9°F-2.3°C 40% Calm Calm 2.0 mph3.2 kmh 29.56 in1001.0 mb 0.00 in0.0 mm 0.00 in/hr0.0 mm/hr 0.00 in0.0 mm
02:21 PM 51.4°F10.8°C 27.3°F-2.6°C 39% Calm Calm 2.0 mph3.2 kmh 29.56 in1001.0 mb 0.00 in0.0 mm 0.00 in/hr0.0 mm/hr 0.00 in0.0 mm
02:20 PM 51.4°F10.8°C 27.3°F-2.6°C 39% Calm Calm 2.0 mph3.2 kmh 29.56 in1001.0 mb 0.00 in0.0 mm 0.00 in/hr0.0 mm/hr 0.00 in0.0 mm
02:19 PM 51.4°F10.8°C 27.3°F-2.6°C 39% Calm Calm 0.9 mph1.4 kmh 29.56 in1001.0 mb 0.00 in0.0 mm 0.00 in/hr0.0 mm/hr 0.00 in0.0 mm
02:18 PM 51.3°F10.7°C 27.1°F-2.7°C 39% Calm Calm 2.0 mph3.2 kmh 29.56 in1001.0 mb 0.00 in0.0 mm 0.00 in/hr0.0 mm/hr 0.00 in0.0 mm
02:17 PM 51.3°F10.7°C 27.1°F-2.7°C 39% Calm Calm 0.9 mph1.4 kmh 29.56 in1001.0 mb 0.00 in0.0 mm 0.00 in/hr0.0 mm/hr 0.00 in0.0 mm
02:16 PM 51.3°F10.7°C 27.1°F-2.7°C 39% Calm Calm -- 29.56 in1001.0 mb 0.00 in0.0 mm 0.00 in/hr0.0 mm/hr 0.00 in0.0 mm
02:15 PM 51.3°F10.7°C 27.7°F-2.4°C 40% 0.9 mph W1.4 kmh W -- 29.56 in1001.0 mb 0.00 in0.0 mm 0.00 in/hr0.0 mm/hr 0.00 in0.0 mm
02:14 PM 51.3°F10.7°C 27.7°F-2.4°C 40% 0.9 mph W1.4 kmh W -- 29.56 in1001.0 mb 0.00 in0.0 mm 0.00 in/hr0.0 mm/hr 0.00 in0.0 mm
02:13 PM 51.3°F10.7°C 27.7°F-2.4°C 40% 0.9 mph W1.4 kmh W 0.9 mph1.4 kmh 29.56 in1001.0 mb 0.00 in0.0 mm 0.00 in/hr0.0 mm/hr 0.00 in0.0 mm
02:12 PM 51.3°F10.7°C 27.7°F-2.4°C 40% 0.9 mph W1.4 kmh W 0.9 mph1.4 kmh 29.56 in1001.0 mb 0.00 in0.0 mm 0.00 in/hr0.0 mm/hr 0.00 in0.0 mm
02:11 PM 51.3°F10.7°C 27.1°F-2.7°C 39% 0.9 mph WSW1.4 kmh WSW 0.9 mph1.4 kmh 29.56 in1001.0 mb 0.00 in0.0 mm 0.00 in/hr0.0 mm/hr 0.00 in0.0 mm
02:10 PM 51.3°F10.7°C 27.7°F-2.4°C 40% 2.0 mph WSW3.2 kmh WSW -- 29.56 in1001.0 mb 0.00 in0.0 mm 0.00 in/hr0.0 mm/hr 0.00 in0.0 mm
02:09 PM 51.1°F10.6°C 27.7°F-2.4°C 40% 2.0 mph WSW3.2 kmh WSW -- 29.56 in1001.0 mb 0.00 in0.0 mm 0.00 in/hr0.0 mm/hr 0.00 in0.0 mm
02:08 PM 51.1°F10.6°C 27.7°F-2.4°C 40% 2.0 mph WSW3.2 kmh WSW 2.0 mph3.2 kmh 29.56 in1001.0 mb 0.00 in0.0 mm 0.00 in/hr0.0 mm/hr 0.00 in0.0 mm
02:07 PM 51.1°F10.6°C 27.7°F-2.4°C 40% 2.0 mph WSW3.2 kmh WSW 2.0 mph3.2 kmh 29.56 in1001.0 mb 0.00 in0.0 mm 0.00 in/hr0.0 mm/hr 0.00 in0.0 mm
02:06 PM 51.1°F10.6°C 27.7°F-2.4°C 40% 2.0 mph W3.2 kmh W 2.0 mph3.2 kmh 29.56 in1001.0 mb 0.00 in0.0 mm 0.00 in/hr0.0 mm/hr 0.00 in0.0 mm
02:05 PM 51.1°F10.6°C 27.7°F-2.4°C 40% 2.0 mph WSW3.2 kmh WSW 2.0 mph3.2 kmh 29.56 in1001.0 mb 0.00 in0.0 mm 0.00 in/hr0.0 mm/hr 0.00 in0.0 mm
02:04 PM 50.9°F10.5°C 26.8°F-2.9°C 39% 2.0 mph W3.2 kmh W 2.9 mph4.7 kmh 29.56 in1001.0 mb 0.00 in0.0 mm 0.00 in/hr0.0 mm/hr 0.00 in0.0 mm
02:03 PM 50.7°F10.4°C 26.6°F-3.0°C 39% 2.0 mph W3.2 kmh W 2.9 mph4.7 kmh 29.56 in1001.0 mb 0.00 in0.0 mm 0.00 in/hr0.0 mm/hr 0.00 in0.0 mm
02:02 PM 50.7°F10.4°C 27.3°F-2.6°C 40% 0.9 mph W1.4 kmh W 6.0 mph9.7 kmh 29.56 in1001.0 mb 0.00 in0.0 mm 0.00 in/hr0.0 mm/hr 0.00 in0.0 mm
02:01 PM 50.7°F10.4°C 26.6°F-3.0°C 39% 0.9 mph W1.4 kmh W 6.0 mph9.7 kmh 29.56 in1001.0 mb 0.00 in0.0 mm 0.00 in/hr0.0 mm/hr 0.00 in0.0 mm
02:00 PM 50.5°F10.3°C 27.1°F-2.7°C 40% 0.9 mph NW1.4 kmh NW 4.0 mph6.4 kmh 29.57 in1001.4 mb 0.00 in0.0 mm 0.00 in/hr0.0 mm/hr 0.00 in0.0 mm
01:59 PM 50.5°F10.3°C 27.1°F-2.7°C 40% 0.9 mph WSW1.4 kmh WSW 4.0 mph6.4 kmh 29.57 in1001.4 mb 0.00 in0.0 mm 0.00 in/hr0.0 mm/hr 0.00 in0.0 mm
01:58 PM 50.5°F10.3°C 27.1°F-2.7°C 40% Calm Calm 4.0 mph6.4 kmh 29.57 in1001.4 mb 0.00 in0.0 mm 0.00 in/hr0.0 mm/hr 0.00 in0.0 mm
01:57 PM 50.5°F10.3°C 27.7°F-2.4°C 41% 0.9 mph WSW1.4 kmh WSW 2.0 mph3.2 kmh 29.57 in1001.4 mb 0.00 in0.0 mm 0.00 in/hr0.0 mm/hr 0.00 in0.0 mm
01:56 PM 50.5°F10.3°C 27.7°F-2.4°C 41% 0.9 mph W1.4 kmh W 2.0 mph3.2 kmh 29.57 in1001.4 mb 0.00 in0.0 mm 0.00 in/hr0.0 mm/hr 0.00 in0.0 mm
01:55 PM 50.4°F10.2°C 27.5°F-2.5°C 41% 0.9 mph SW1.4 kmh SW 0.9 mph1.4 kmh 29.57 in1001.4 mb 0.00 in0.0 mm 0.00 in/hr0.0 mm/hr 0.00 in0.0 mm
01:54 PM 50.4°F10.2°C 27.5°F-2.5°C 41% 0.9 mph SSW1.4 kmh SSW 0.9 mph1.4 kmh 29.57 in1001.4 mb 0.00 in0.0 mm 0.00 in/hr0.0 mm/hr 0.00 in0.0 mm
01:53 PM 50.4°F10.2°C 27.5°F-2.5°C 41% 2.0 mph WSW3.2 kmh WSW 0.9 mph1.4 kmh 29.57 in1001.4 mb 0.00 in0.0 mm 0.00 in/hr0.0 mm/hr 0.00 in0.0 mm
01:52 PM 50.4°F10.2°C 28.2°F-2.1°C 42% 2.0 mph WSW3.2 kmh WSW -- 29.57 in1001.4 mb 0.00 in0.0 mm 0.00 in/hr0.0 mm/hr 0.00 in0.0 mm
01:51 PM 50.4°F10.2°C 27.5°F-2.5°C 41% 2.0 mph WSW3.2 kmh WSW 0.9 mph1.4 kmh 29.57 in1001.4 mb 0.00 in0.0 mm 0.00 in/hr0.0 mm/hr 0.00 in0.0 mm
01:50 PM 50.4°F10.2°C 27.5°F-2.5°C 41% 2.0 mph WSW3.2 kmh WSW 0.9 mph1.4 kmh 29.57 in1001.4 mb 0.00 in0.0 mm 0.00 in/hr0.0 mm/hr 0.00 in0.0 mm
01:49 PM 50.4°F10.2°C 27.5°F-2.5°C 41% 2.0 mph WSW3.2 kmh WSW 0.9 mph1.4 kmh 29.57 in1001.4 mb 0.00 in0.0 mm 0.00 in/hr0.0 mm/hr 0.00 in0.0 mm
01:48 PM 50.4°F10.2°C 27.5°F-2.5°C 41% 2.9 mph WSW4.7 kmh WSW 2.0 mph3.2 kmh 29.57 in1001.4 mb 0.00 in0.0 mm 0.00 in/hr0.0 mm/hr 0.00 in0.0 mm
01:47 PM 50.2°F10.1°C 26.8°F-2.9°C 40% 2.9 mph WSW4.7 kmh WSW 2.9 mph4.7 kmh 29.57 in1001.4 mb 0.00 in0.0 mm 0.00 in/hr0.0 mm/hr 0.00 in0.0 mm
01:46 PM 50.4°F10.2°C 27.5°F-2.5°C 41% 2.9 mph WNW4.7 kmh WNW 4.0 mph6.4 kmh 29.57 in1001.4 mb 0.00 in0.0 mm 0.00 in/hr0.0 mm/hr 0.00 in0.0 mm
01:45 PM 50.4°F10.2°C 27.0°F-2.8°C 40% 2.9 mph WNW4.7 kmh WNW 4.0 mph6.4 kmh 29.57 in1001.4 mb 0.00 in0.0 mm 0.00 in/hr0.0 mm/hr 0.00 in0.0 mm
01:44 PM 50.4°F10.2°C 27.0°F-2.8°C 40% 2.9 mph NW4.7 kmh NW 4.0 mph6.4 kmh 29.57 in1001.4 mb 0.00 in0.0 mm 0.00 in/hr0.0 mm/hr 0.00 in0.0 mm
01:43 PM 50.4°F10.2°C 27.0°F-2.8°C 40% 2.9 mph NW4.7 kmh NW 4.0 mph6.4 kmh 29.57 in1001.4 mb 0.00 in0.0 mm 0.00 in/hr0.0 mm/hr 0.00 in0.0 mm
01:42 PM 50.2°F10.1°C 26.8°F-2.9°C 40% 2.9 mph N4.7 kmh N 4.0 mph6.4 kmh 29.57 in1001.4 mb 0.00 in0.0 mm 0.00 in/hr0.0 mm/hr 0.00 in0.0 mm
01:41 PM 50.2°F10.1°C 26.8°F-2.9°C 40% 4.0 mph NW6.4 kmh NW 2.9 mph4.7 kmh 29.57 in1001.4 mb 0.00 in0.0 mm 0.00 in/hr0.0 mm/hr 0.00 in0.0 mm
01:40 PM 50.2°F10.1°C 27.3°F-2.6°C 41% 4.0 mph NW6.4 kmh NW 4.9 mph7.9 kmh 29.57 in1001.4 mb 0.00 in0.0 mm 0.00 in/hr0.0 mm/hr 0.00 in0.0 mm
01:39 PM 50.2°F10.1°C 27.3°F-2.6°C 41% 4.0 mph WNW6.4 kmh WNW 4.0 mph6.4 kmh 29.57 in1001.4 mb 0.00 in0.0 mm 0.00 in/hr0.0 mm/hr 0.00 in0.0 mm
01:38 PM 50.2°F10.1°C 26.8°F-2.9°C 40% 4.0 mph WSW6.4 kmh WSW 4.9 mph7.9 kmh 29.57 in1001.4 mb 0.00 in0.0 mm 0.00 in/hr0.0 mm/hr 0.00 in0.0 mm
01:37 PM 50.2°F10.1°C 27.3°F-2.6°C 41% 4.0 mph W6.4 kmh W 4.9 mph7.9 kmh 29.57 in1001.4 mb 0.00 in0.0 mm 0.00 in/hr0.0 mm/hr 0.00 in0.0 mm
01:36 PM 50.2°F10.1°C 26.8°F-2.9°C 40% 4.0 mph W6.4 kmh W 4.0 mph6.4 kmh 29.57 in1001.4 mb 0.00 in0.0 mm 0.00 in/hr0.0 mm/hr 0.00 in0.0 mm
01:35 PM 50.4°F10.2°C 27.5°F-2.5°C 41% 4.0 mph NW6.4 kmh NW 4.9 mph7.9 kmh 29.57 in1001.4 mb 0.00 in0.0 mm 0.00 in/hr0.0 mm/hr 0.00 in0.0 mm
01:34 PM 50.4°F10.2°C 27.5°F-2.5°C 41% 4.0 mph W6.4 kmh W 4.9 mph7.9 kmh 29.57 in1001.4 mb 0.00 in0.0 mm 0.00 in/hr0.0 mm/hr 0.00 in0.0 mm
01:33 PM 50.5°F10.3°C 27.1°F-2.7°C 40% 4.0 mph WNW6.4 kmh WNW 8.1 mph13.0 kmh 29.57 in1001.4 mb 0.00 in0.0 mm 0.00 in/hr0.0 mm/hr 0.00 in0.0 mm
01:32 PM 50.5°F10.3°C 27.1°F-2.7°C 40% 4.0 mph WNW6.4 kmh WNW 8.1 mph13.0 kmh 29.57 in1001.4 mb 0.00 in0.0 mm 0.00 in/hr0.0 mm/hr 0.00 in0.0 mm
01:31 PM 50.7°F10.4°C 27.3°F-2.6°C 40% 4.0 mph W6.4 kmh W 6.0 mph9.7 kmh 29.57 in1001.4 mb 0.00 in0.0 mm 0.00 in/hr0.0 mm/hr 0.00 in0.0 mm
01:30 PM 50.7°F10.4°C 27.3°F-2.6°C 40% 4.9 mph WSW7.9 kmh WSW 6.0 mph9.7 kmh 29.58 in1001.7 mb 0.00 in0.0 mm 0.00 in/hr0.0 mm/hr 0.00 in0.0 mm
01:29 PM 50.7°F10.4°C 27.3°F-2.6°C 40% 4.9 mph W7.9 kmh W 6.0 mph9.7 kmh 29.58 in1001.7 mb 0.00 in0.0 mm 0.00 in/hr0.0 mm/hr 0.00 in0.0 mm
01:28 PM 50.9°F10.5°C 26.8°F-2.9°C 39% 4.9 mph WSW7.9 kmh WSW 9.0 mph14.5 kmh 29.58 in1001.7 mb 0.00 in0.0 mm 0.00 in/hr0.0 mm/hr 0.00 in0.0 mm
01:27 PM 50.9°F10.5°C 26.8°F-2.9°C 39% 4.9 mph SW7.9 kmh SW 6.0 mph9.7 kmh 29.58 in1001.7 mb 0.00 in0.0 mm 0.00 in/hr0.0 mm/hr 0.00 in0.0 mm
01:26 PM 51.1°F10.6°C 27.0°F-2.8°C 39% 4.9 mph W7.9 kmh W 6.0 mph9.7 kmh 29.58 in1001.7 mb 0.00 in0.0 mm 0.00 in/hr0.0 mm/hr 0.00 in0.0 mm
01:25 PM 51.1°F10.6°C 27.0°F-2.8°C 39% 4.9 mph W7.9 kmh W 6.0 mph9.7 kmh 29.58 in1001.7 mb 0.00 in0.0 mm 0.00 in/hr0.0 mm/hr 0.00 in0.0 mm
01:24 PM 51.3°F10.7°C 26.6°F-3.0°C 38% 4.9 mph W7.9 kmh W 6.9 mph11.1 kmh 29.58 in1001.7 mb 0.00 in0.0 mm 0.00 in/hr0.0 mm/hr 0.00 in0.0 mm
01:23 PM 51.3°F10.7°C 26.6°F-3.0°C 38% 4.9 mph W7.9 kmh W 8.1 mph13.0 kmh 29.58 in1001.7 mb 0.00 in0.0 mm 0.00 in/hr0.0 mm/hr 0.00 in0.0 mm
01:22 PM 51.3°F10.7°C 26.6°F-3.0°C 38% 4.9 mph W7.9 kmh W 6.0 mph9.7 kmh 29.58 in1001.7 mb 0.00 in0.0 mm 0.00 in/hr0.0 mm/hr 0.00 in0.0 mm
01:21 PM 51.4°F10.8°C 26.6°F-3.0°C 38% 4.9 mph WNW7.9 kmh WNW 6.9 mph11.1 kmh 29.58 in1001.7 mb 0.00 in0.0 mm 0.00 in/hr0.0 mm/hr 0.00 in0.0 mm
01:20 PM 51.4°F10.8°C 26.6°F-3.0°C 38% 4.9 mph WNW7.9 kmh WNW 6.9 mph11.1 kmh 29.58 in1001.7 mb 0.00 in0.0 mm 0.00 in/hr0.0 mm/hr 0.00 in0.0 mm
01:19 PM 51.6°F10.9°C 26.8°F-2.9°C 38% 4.9 mph W7.9 kmh W 6.9 mph11.1 kmh 29.58 in1001.7 mb 0.00 in0.0 mm 0.00 in/hr0.0 mm/hr 0.00 in0.0 mm
01:18 PM 51.6°F10.9°C 26.8°F-2.9°C 38% 6.0 mph W9.7 kmh W 4.9 mph7.9 kmh 29.58 in1001.7 mb 0.00 in0.0 mm 0.00 in/hr0.0 mm/hr 0.00 in0.0 mm
01:17 PM 51.6°F10.9°C 26.8°F-2.9°C 38% 6.0 mph W9.7 kmh W 8.1 mph13.0 kmh 29.58 in1001.7 mb 0.00 in0.0 mm 0.00 in/hr0.0 mm/hr 0.00 in0.0 mm
01:16 PM 51.8°F11.0°C 26.4°F-3.1°C 37% 6.0 mph SW9.7 kmh SW 12.1 mph19.5 kmh 29.58 in1001.7 mb 0.00 in0.0 mm 0.00 in/hr0.0 mm/hr 0.00 in0.0 mm
01:15 PM 51.8°F11.0°C 27.0°F-2.8°C 38% 6.0 mph WSW9.7 kmh WSW 12.1 mph19.5 kmh 29.59 in1002.0 mb 0.00 in0.0 mm 0.00 in/hr0.0 mm/hr 0.00 in0.0 mm
01:14 PM 51.8°F11.0°C 26.4°F-3.1°C 37% 6.0 mph SW9.7 kmh SW 4.9 mph7.9 kmh 29.59 in1002.0 mb 0.00 in0.0 mm 0.00 in/hr0.0 mm/hr 0.00 in0.0 mm
01:13 PM 52.0°F11.1°C 26.6°F-3.0°C 37% 6.9 mph WNW11.1 kmh WNW 6.9 mph11.1 kmh 29.59 in1002.0 mb 0.00 in0.0 mm 0.00 in/hr0.0 mm/hr 0.00 in0.0 mm
01:12 PM 52.0°F11.1°C 26.6°F-3.0°C 37% 6.9 mph WNW11.1 kmh WNW 8.1 mph13.0 kmh 29.59 in1002.0 mb 0.00 in0.0 mm 0.00 in/hr0.0 mm/hr 0.00 in0.0 mm
01:11 PM 52.2°F11.2°C 26.6°F-3.0°C 37% 6.9 mph W11.1 kmh W 8.1 mph13.0 kmh 29.59 in1002.0 mb 0.00 in0.0 mm 0.00 in/hr0.0 mm/hr 0.00 in0.0 mm
01:10 PM 52.2°F11.2°C 26.1°F-3.3°C 36% 8.1 mph WNW13.0 kmh WNW 10.1 mph16.3 kmh 29.59 in1002.0 mb 0.00 in0.0 mm 0.00 in/hr0.0 mm/hr 0.00 in0.0 mm
01:09 PM 52.3°F11.3°C 26.8°F-2.9°C 37% 8.1 mph WNW13.0 kmh WNW 13.0 mph20.9 kmh 29.59 in1002.0 mb 0.00 in0.0 mm 0.00 in/hr0.0 mm/hr 0.00 in0.0 mm
01:08 PM 52.3°F11.3°C 26.8°F-2.9°C 37% 8.1 mph W13.0 kmh W 13.0 mph20.9 kmh 29.59 in1002.0 mb 0.00 in0.0 mm 0.00 in/hr0.0 mm/hr 0.00 in0.0 mm
01:07 PM 52.3°F11.3°C 26.8°F-2.9°C 37% 8.1 mph SW13.0 kmh SW 8.9 mph14.3 kmh 29.59 in1002.0 mb 0.00 in0.0 mm 0.00 in/hr0.0 mm/hr 0.00 in0.0 mm
01:06 PM 52.5°F11.4°C 26.2°F-3.2°C 36% 8.1 mph W13.0 kmh W 10.1 mph16.3 kmh 29.59 in1002.0 mb 0.00 in0.0 mm 0.00 in/hr0.0 mm/hr 0.00 in0.0 mm
01:05 PM 52.5°F11.4°C 26.2°F-3.2°C 36% 8.1 mph W13.0 kmh W 10.1 mph16.3 kmh 29.59 in1002.0 mb 0.00 in0.0 mm 0.00 in/hr0.0 mm/hr 0.00 in0.0 mm
01:04 PM 52.5°F11.4°C 27.0°F-2.8°C 37% 8.1 mph W13.0 kmh W 14.0 mph22.5 kmh 29.59 in1002.0 mb 0.00 in0.0 mm 0.00 in/hr0.0 mm/hr 0.00 in0.0 mm
01:03 PM 52.5°F11.4°C 27.0°F-2.8°C 37% 8.1 mph W13.0 kmh W 11.0 mph17.7 kmh 29.59 in1002.0 mb 0.00 in0.0 mm 0.00 in/hr0.0 mm/hr 0.00 in0.0 mm
01:02 PM 52.5°F11.4°C 27.0°F-2.8°C 37% 8.1 mph W13.0 kmh W 11.0 mph17.7 kmh 29.59 in1002.0 mb 0.00 in0.0 mm 0.00 in/hr0.0 mm/hr 0.00 in0.0 mm
01:01 PM 52.5°F11.4°C 26.2°F-3.2°C 36% 8.1 mph WSW13.0 kmh WSW 12.1 mph19.5 kmh 29.59 in1002.0 mb 0.00 in0.0 mm 0.00 in/hr0.0 mm/hr 0.00 in0.0 mm
01:00 PM 52.7°F11.5°C 26.4°F-3.1°C 36% 8.1 mph W13.0 kmh W 13.0 mph20.9 kmh 29.59 in1002.0 mb 0.00 in0.0 mm 0.00 in/hr0.0 mm/hr 0.00 in0.0 mm
12:59 PM 52.9°F11.6°C 26.6°F-3.0°C 36% 8.1 mph WNW13.0 kmh WNW 12.1 mph19.5 kmh 29.59 in1002.0 mb 0.00 in0.0 mm 0.00 in/hr0.0 mm/hr 0.00 in0.0 mm
12:58 PM 52.9°F11.6°C 26.6°F-3.0°C 36% 6.9 mph W11.1 kmh W 12.1 mph19.5 kmh 29.59 in1002.0 mb 0.00 in0.0 mm 0.00 in/hr0.0 mm/hr 0.00 in0.0 mm
12:57 PM 52.7°F11.5°C 27.1°F-2.7°C 37% 6.9 mph WNW11.1 kmh WNW 8.1 mph13.0 kmh 29.59 in1002.0 mb 0.00 in0.0 mm 0.00 in/hr0.0 mm/hr 0.00 in0.0 mm
12:56 PM 52.5°F11.4°C 27.0°F-2.8°C 37% 8.1 mph WNW13.0 kmh WNW 8.9 mph14.3 kmh 29.59 in1002.0 mb 0.00 in0.0 mm 0.00 in/hr0.0 mm/hr 0.00 in0.0 mm
12:55 PM 52.5°F11.4°C 26.2°F-3.2°C 36% 6.9 mph SW11.1 kmh SW 12.1 mph19.5 kmh 29.59 in1002.0 mb 0.00 in0.0 mm 0.00 in/hr0.0 mm/hr 0.00 in0.0 mm
12:54 PM 52.5°F11.4°C 27.0°F-2.8°C 37% 6.9 mph SW11.1 kmh SW 14.1 mph22.7 kmh 29.59 in1002.0 mb 0.00 in0.0 mm 0.00 in/hr0.0 mm/hr 0.00 in0.0 mm
12:53 PM 52.5°F11.4°C 26.2°F-3.2°C 36% 6.9 mph SW11.1 kmh SW 13.0 mph20.9 kmh 29.59 in1002.0 mb 0.00 in0.0 mm 0.00 in/hr0.0 mm/hr 0.00 in0.0 mm
12:52 PM 52.7°F11.5°C 26.4°F-3.1°C 36% 6.9 mph W11.1 kmh W 10.1 mph16.3 kmh 29.59 in1002.0 mb 0.00 in0.0 mm 0.00 in/hr0.0 mm/hr 0.00 in0.0 mm
12:51 PM 52.9°F11.6°C 26.6°F-3.0°C 36% 6.9 mph W11.1 kmh W 10.1 mph16.3 kmh 29.59 in1002.0 mb 0.00 in0.0 mm 0.00 in/hr0.0 mm/hr 0.00 in0.0 mm
12:50 PM 53.1°F11.7°C 26.1°F-3.3°C 35% 6.9 mph NW11.1 kmh NW 10.1 mph16.3 kmh 29.59 in1002.0 mb 0.00 in0.0 mm 0.00 in/hr0.0 mm/hr 0.00 in0.0 mm
12:49 PM 53.1°F11.7°C 26.8°F-2.9°C 36% 6.9 mph WNW11.1 kmh WNW 8.9 mph14.3 kmh 29.59 in1002.0 mb 0.00 in0.0 mm 0.00 in/hr0.0 mm/hr 0.00 in0.0 mm
12:48 PM 53.1°F11.7°C 26.1°F-3.3°C 35% 6.9 mph WSW11.1 kmh WSW 8.9 mph14.3 kmh 29.59 in1002.0 mb 0.00 in0.0 mm 0.00 in/hr0.0 mm/hr 0.00 in0.0 mm
12:47 PM 53.2°F11.8°C 26.2°F-3.2°C 35% 6.9 mph W11.1 kmh W 12.1 mph19.5 kmh 29.59 in1002.0 mb 0.00 in0.0 mm 0.00 in/hr0.0 mm/hr 0.00 in0.0 mm
12:46 PM 53.2°F11.8°C 26.2°F-3.2°C 35% 6.9 mph W11.1 kmh W 11.0 mph17.7 kmh 29.59 in1002.0 mb 0.00 in0.0 mm 0.00 in/hr0.0 mm/hr 0.00 in0.0 mm
12:45 PM 53.2°F11.8°C 27.0°F-2.8°C 36% 6.9 mph W11.1 kmh W 11.0 mph17.7 kmh 29.59 in1002.0 mb 0.00 in0.0 mm 0.00 in/hr0.0 mm/hr 0.00 in0.0 mm
12:44 PM 53.1°F11.7°C 26.1°F-3.3°C 35% 6.0 mph WNW9.7 kmh WNW 14.1 mph22.7 kmh 29.59 in1002.0 mb 0.00 in0.0 mm 0.00 in/hr0.0 mm/hr 0.00 in0.0 mm
12:43 PM 53.1°F11.7°C 26.1°F-3.3°C 35% 4.9 mph W7.9 kmh W 8.1 mph13.0 kmh 29.59 in1002.0 mb 0.00 in0.0 mm 0.00 in/hr0.0 mm/hr 0.00 in0.0 mm
12:42 PM 52.9°F11.6°C 25.9°F-3.4°C 35% 4.9 mph NW7.9 kmh NW 6.9 mph11.1 kmh 29.59 in1002.0 mb 0.00 in0.0 mm 0.00 in/hr0.0 mm/hr 0.00 in0.0 mm
12:41 PM 52.7°F11.5°C 25.9°F-3.4°C 35% 4.0 mph WSW6.4 kmh WSW 8.9 mph14.3 kmh 29.59 in1002.0 mb 0.00 in0.0 mm 0.00 in/hr0.0 mm/hr 0.00 in0.0 mm
12:40 PM 52.5°F11.4°C 25.7°F-3.5°C 35% 4.0 mph SW6.4 kmh SW 10.1 mph16.3 kmh 29.59 in1002.0 mb 0.00 in0.0 mm 0.00 in/hr0.0 mm/hr 0.00 in0.0 mm
12:39 PM 52.5°F11.4°C 25.7°F-3.5°C 35% 2.9 mph W4.7 kmh W 8.9 mph14.3 kmh 29.59 in1002.0 mb 0.00 in0.0 mm 0.00 in/hr0.0 mm/hr 0.00 in0.0 mm
12:38 PM 52.3°F11.3°C 25.5°F-3.6°C 35% 2.9 mph WNW4.7 kmh WNW 15.0 mph24.1 kmh 29.59 in1002.0 mb 0.00 in0.0 mm 0.00 in/hr0.0 mm/hr 0.00 in0.0 mm
12:37 PM 52.3°F11.3°C 25.5°F-3.6°C 35% 2.0 mph W3.2 kmh W 15.0 mph24.1 kmh 29.59 in1002.0 mb 0.00 in0.0 mm 0.00 in/hr0.0 mm/hr 0.00 in0.0 mm
12:36 PM 52.2°F11.2°C 25.3°F-3.7°C 35% 2.0 mph W3.2 kmh W 8.1 mph13.0 kmh 29.59 in1002.0 mb 0.00 in0.0 mm 0.00 in/hr0.0 mm/hr 0.00 in0.0 mm
12:35 PM 52.0°F11.1°C 25.2°F-3.8°C 35% 0.9 mph WNW1.4 kmh WNW 2.9 mph4.7 kmh 29.59 in1002.0 mb 0.00 in0.0 mm 0.00 in/hr0.0 mm/hr 0.00 in0.0 mm
12:34 PM 51.6°F10.9°C 25.5°F-3.6°C 36% 0.9 mph WNW1.4 kmh WNW 2.0 mph3.2 kmh 29.59 in1002.0 mb 0.00 in0.0 mm 0.00 in/hr0.0 mm/hr 0.00 in0.0 mm
12:33 PM 51.4°F10.8°C 24.1°F-4.4°C 34% 0.9 mph WNW1.4 kmh WNW 4.0 mph6.4 kmh 29.59 in1002.0 mb 0.00 in0.0 mm 0.00 in/hr0.0 mm/hr 0.00 in0.0 mm
12:32 PM 51.4°F10.8°C 24.6°F-4.1°C 35% 0.9 mph N1.4 kmh N 4.0 mph6.4 kmh 29.59 in1002.0 mb 0.00 in0.0 mm 0.00 in/hr0.0 mm/hr 0.00 in0.0 mm
12:31 PM 51.3°F10.7°C 25.2°F-3.8°C 36% 0.9 mph NE1.4 kmh NE 2.0 mph3.2 kmh 29.59 in1002.0 mb 0.00 in0.0 mm 0.00 in/hr0.0 mm/hr 0.00 in0.0 mm
12:30 PM 51.3°F10.7°C 25.9°F-3.4°C 37% 2.0 mph NW3.2 kmh NW 0.9 mph1.4 kmh 29.61 in1002.7 mb 0.00 in0.0 mm 0.00 in/hr0.0 mm/hr 0.00 in0.0 mm
12:29 PM 51.1°F10.6°C 24.4°F-4.2°C 35% 2.0 mph NW3.2 kmh NW 0.9 mph1.4 kmh 29.61 in1002.7 mb 0.00 in0.0 mm 0.00 in/hr0.0 mm/hr 0.00 in0.0 mm
12:28 PM 51.3°F10.7°C 24.6°F-4.1°C 35% 2.0 mph NW3.2 kmh NW 2.0 mph3.2 kmh 29.61 in1002.7 mb 0.00 in0.0 mm 0.00 in/hr0.0 mm/hr 0.00 in0.0 mm
12:27 PM 51.3°F10.7°C 23.9°F-4.5°C 34% 2.0 mph NW3.2 kmh NW 4.0 mph6.4 kmh 29.61 in1002.7 mb 0.00 in0.0 mm 0.00 in/hr0.0 mm/hr 0.00 in0.0 mm
12:26 PM 51.3°F10.7°C 23.9°F-4.5°C 34% 2.0 mph WNW3.2 kmh WNW 4.0 mph6.4 kmh 29.61 in1002.7 mb 0.00 in0.0 mm 0.00 in/hr0.0 mm/hr 0.00 in0.0 mm
12:25 PM 51.3°F10.7°C 25.2°F-3.8°C 36% 2.0 mph NW3.2 kmh NW 2.0 mph3.2 kmh 29.61 in1002.7 mb 0.00 in0.0 mm 0.00 in/hr0.0 mm/hr 0.00 in0.0 mm
12:24 PM 51.3°F10.7°C 24.6°F-4.1°C 35% 2.9 mph NW4.7 kmh NW 0.9 mph1.4 kmh 29.61 in1002.7 mb 0.00 in0.0 mm 0.00 in/hr0.0 mm/hr 0.00 in0.0 mm
12:23 PM 51.4°F10.8°C 24.6°F-4.1°C 35% 2.9 mph NW4.7 kmh NW 2.0 mph3.2 kmh 29.61 in1002.7 mb 0.00 in0.0 mm 0.00 in/hr0.0 mm/hr 0.00 in0.0 mm
12:22 PM 51.4°F10.8°C 24.1°F-4.4°C 34% 2.9 mph W4.7 kmh W 4.9 mph7.9 kmh 29.61 in1002.7 mb 0.00 in0.0 mm 0.00 in/hr0.0 mm/hr 0.00 in0.0 mm
12:21 PM 51.6°F10.9°C 24.1°F-4.4°C 34% 2.9 mph WNW4.7 kmh WNW 4.9 mph7.9 kmh 29.61 in1002.7 mb 0.00 in0.0 mm 0.00 in/hr0.0 mm/hr 0.00 in0.0 mm
12:20 PM 51.6°F10.9°C 24.1°F-4.4°C 34% 2.9 mph NW4.7 kmh NW 6.9 mph11.1 kmh 29.61 in1002.7 mb 0.00 in0.0 mm 0.00 in/hr0.0 mm/hr 0.00 in0.0 mm
12:19 PM 52.0°F11.1°C 24.4°F-4.2°C 34% 2.9 mph NW4.7 kmh NW 7.0 mph11.3 kmh 29.61 in1002.7 mb 0.00 in0.0 mm 0.00 in/hr0.0 mm/hr 0.00 in0.0 mm
12:18 PM 52.2°F11.2°C 24.6°F-4.1°C 34% 2.9 mph WNW4.7 kmh WNW 2.9 mph4.7 kmh 29.61 in1002.7 mb 0.00 in0.0 mm 0.00 in/hr0.0 mm/hr 0.00 in0.0 mm
12:17 PM 52.2°F11.2°C 24.6°F-4.1°C 34% 2.0 mph W3.2 kmh W 4.0 mph6.4 kmh 29.61 in1002.7 mb 0.00 in0.0 mm 0.00 in/hr0.0 mm/hr 0.00 in0.0 mm
12:16 PM 52.2°F11.2°C 24.6°F-4.1°C 34% 2.0 mph N3.2 kmh N 2.9 mph4.7 kmh 29.61 in1002.7 mb 0.00 in0.0 mm 0.00 in/hr0.0 mm/hr 0.00 in0.0 mm
12:15 PM 52.2°F11.2°C 24.6°F-4.1°C 34% 2.0 mph NNE3.2 kmh NNE 2.9 mph4.7 kmh 29.61 in1002.7 mb 0.00 in0.0 mm 0.00 in/hr0.0 mm/hr 0.00 in0.0 mm
12:14 PM 52.2°F11.2°C 24.6°F-4.1°C 34% 2.0 mph NNE3.2 kmh NNE 4.0 mph6.4 kmh 29.61 in1002.7 mb 0.00 in0.0 mm 0.00 in/hr0.0 mm/hr 0.00 in0.0 mm
12:13 PM 52.2°F11.2°C 23.9°F-4.5°C 33% 2.0 mph NW3.2 kmh NW 4.9 mph7.9 kmh 29.61 in1002.7 mb 0.00 in0.0 mm 0.00 in/hr0.0 mm/hr 0.00 in0.0 mm
12:12 PM 52.2°F11.2°C 24.6°F-4.1°C 34% 0.9 mph NNW1.4 kmh NNW 4.9 mph7.9 kmh 29.61 in1002.7 mb 0.00 in0.0 mm 0.00 in/hr0.0 mm/hr 0.00 in0.0 mm
12:11 PM 52.0°F11.1°C 24.4°F-4.2°C 34% 0.9 mph NE1.4 kmh NE 6.0 mph9.7 kmh 29.61 in1002.7 mb 0.00 in0.0 mm 0.00 in/hr0.0 mm/hr 0.00 in0.0 mm
12:10 PM 51.8°F11.0°C 26.4°F-3.1°C 37% 0.9 mph NW1.4 kmh NW 4.9 mph7.9 kmh 29.61 in1002.7 mb 0.00 in0.0 mm 0.00 in/hr0.0 mm/hr 0.00 in0.0 mm
12:09 PM 51.6°F10.9°C 24.8°F-4.0°C 35% 0.9 mph NW1.4 kmh NW 4.0 mph6.4 kmh 29.61 in1002.7 mb 0.00 in0.0 mm 0.00 in/hr0.0 mm/hr 0.00 in0.0 mm
12:08 PM 51.3°F10.7°C 25.2°F-3.8°C 36% 0.9 mph NE1.4 kmh NE 2.0 mph3.2 kmh 29.61 in1002.7 mb 0.00 in0.0 mm 0.00 in/hr0.0 mm/hr 0.00 in0.0 mm
12:07 PM 51.1°F10.6°C 25.7°F-3.5°C 37% 2.0 mph NW3.2 kmh NW 0.9 mph1.4 kmh 29.61 in1002.7 mb 0.00 in0.0 mm 0.00 in/hr0.0 mm/hr 0.00 in0.0 mm
12:06 PM 50.7°F10.4°C 24.8°F-4.0°C 36% 2.0 mph NW3.2 kmh NW -- 29.61 in1002.7 mb 0.00 in0.0 mm 0.00 in/hr0.0 mm/hr 0.00 in0.0 mm
12:05 PM 50.4°F10.2°C 24.4°F-4.2°C 36% 2.0 mph NW3.2 kmh NW 0.9 mph1.4 kmh 29.61 in1002.7 mb 0.00 in0.0 mm 0.00 in/hr0.0 mm/hr 0.00 in0.0 mm
12:04 PM 50.2°F10.1°C 25.0°F-3.9°C 37% 2.9 mph NW4.7 kmh NW 2.0 mph3.2 kmh 29.61 in1002.7 mb 0.00 in0.0 mm 0.00 in/hr0.0 mm/hr 0.00 in0.0 mm
12:03 PM 50.0°F10.0°C 24.8°F-4.0°C 37% 2.9 mph NNW4.7 kmh NNW 2.9 mph4.7 kmh 29.61 in1002.7 mb 0.00 in0.0 mm 0.00 in/hr0.0 mm/hr 0.00 in0.0 mm
12:02 PM 49.8°F9.9°C 25.2°F-3.8°C 38% 2.9 mph N4.7 kmh N 2.9 mph4.7 kmh 29.61 in1002.7 mb 0.00 in0.0 mm 0.00 in/hr0.0 mm/hr 0.00 in0.0 mm
12:01 PM 49.6°F9.8°C 25.0°F-3.9°C 38% 2.9 mph NE4.7 kmh NE 2.9 mph4.7 kmh 29.61 in1002.7 mb 0.00 in0.0 mm 0.00 in/hr0.0 mm/hr 0.00 in0.0 mm
12:00 PM 49.5°F9.7°C 25.0°F-3.9°C 38% 2.9 mph NW4.7 kmh NW 4.0 mph6.4 kmh 29.62 in1003.0 mb 0.00 in0.0 mm 0.00 in/hr0.0 mm/hr 0.00 in0.0 mm
11:59 AM 49.5°F9.7°C 24.3°F-4.3°C 37% 2.9 mph NW4.7 kmh NW 4.0 mph6.4 kmh 29.62 in1003.0 mb 0.00 in0.0 mm 0.00 in/hr0.0 mm/hr 0.00 in0.0 mm
11:58 AM 49.5°F9.7°C 25.0°F-3.9°C 38% 2.9 mph NW4.7 kmh NW 4.0 mph6.4 kmh 29.62 in1003.0 mb 0.00 in0.0 mm 0.00 in/hr0.0 mm/hr 0.00 in0.0 mm
11:57 AM 49.5°F9.7°C 25.0°F-3.9°C 38% 2.9 mph NE4.7 kmh NE 4.0 mph6.4 kmh 29.62 in1003.0 mb 0.00 in0.0 mm 0.00 in/hr0.0 mm/hr 0.00 in0.0 mm
11:56 AM 49.5°F9.7°C 25.5°F-3.6°C 39% 2.9 mph NE4.7 kmh NE 4.9 mph7.9 kmh 29.62 in1003.0 mb 0.00 in0.0 mm 0.00 in/hr0.0 mm/hr 0.00 in0.0 mm
11:55 AM 49.1°F9.5°C 24.6°F-4.1°C 38% 2.9 mph NW4.7 kmh NW 8.0 mph12.9 kmh 29.62 in1003.0 mb 0.00 in0.0 mm 0.00 in/hr0.0 mm/hr 0.00 in0.0 mm
11:54 AM 48.9°F9.4°C 24.4°F-4.2°C 38% 4.0 mph W6.4 kmh W 4.0 mph6.4 kmh 29.62 in1003.0 mb 0.00 in0.0 mm 0.00 in/hr0.0 mm/hr 0.00 in0.0 mm
11:53 AM 48.7°F9.3°C 24.3°F-4.3°C 38% 4.0 mph W6.4 kmh W 2.0 mph3.2 kmh 29.62 in1003.0 mb 0.00 in0.0 mm 0.00 in/hr0.0 mm/hr 0.00 in0.0 mm
11:52 AM 48.7°F9.3°C 24.3°F-4.3°C 38% 4.9 mph WSW7.9 kmh WSW 4.0 mph6.4 kmh 29.62 in1003.0 mb 0.00 in0.0 mm 0.00 in/hr0.0 mm/hr 0.00 in0.0 mm
11:51 AM 48.6°F9.2°C 24.1°F-4.4°C 38% 6.0 mph W9.7 kmh W 4.9 mph7.9 kmh 29.62 in1003.0 mb 0.00 in0.0 mm 0.00 in/hr0.0 mm/hr 0.00 in0.0 mm
11:50 AM 48.4°F9.1°C 23.9°F-4.5°C 38% 6.0 mph W9.7 kmh W 4.9 mph7.9 kmh 29.62 in1003.0 mb 0.00 in0.0 mm 0.00 in/hr0.0 mm/hr 0.00 in0.0 mm
11:49 AM 48.4°F9.1°C 23.9°F-4.5°C 38% 6.9 mph W11.1 kmh W 4.9 mph7.9 kmh 29.62 in1003.0 mb 0.00 in0.0 mm 0.00 in/hr0.0 mm/hr 0.00 in0.0 mm
11:48 AM 48.4°F9.1°C 23.9°F-4.5°C 38% 6.9 mph W11.1 kmh W 4.9 mph7.9 kmh 29.62 in1003.0 mb 0.00 in0.0 mm 0.00 in/hr0.0 mm/hr 0.00 in0.0 mm
11:47 AM 48.4°F9.1°C 23.4°F-4.8°C 37% 8.1 mph WNW13.0 kmh WNW 6.9 mph11.1 kmh 29.62 in1003.0 mb 0.00 in0.0 mm 0.00 in/hr0.0 mm/hr 0.00 in0.0 mm
11:46 AM 48.4°F9.1°C 23.4°F-4.8°C 37% 8.1 mph WSW13.0 kmh WSW 6.9 mph11.1 kmh 29.62 in1003.0 mb 0.00 in0.0 mm 0.00 in/hr0.0 mm/hr 0.00 in0.0 mm
11:45 AM 48.6°F9.2°C 23.5°F-4.7°C 37% 8.1 mph W13.0 kmh W 8.1 mph13.0 kmh 29.64 in1003.7 mb 0.00 in0.0 mm 0.00 in/hr0.0 mm/hr 0.00 in0.0 mm
11:44 AM 48.6°F9.2°C 23.5°F-4.7°C 37% 8.1 mph W13.0 kmh W 8.1 mph13.0 kmh 29.64 in1003.7 mb 0.00 in0.0 mm 0.00 in/hr0.0 mm/hr 0.00 in0.0 mm
11:42 AM 48.6°F9.2°C 23.5°F-4.7°C 37% 8.1 mph WNW13.0 kmh WNW 11.0 mph17.7 kmh 29.64 in1003.7 mb 0.00 in0.0 mm 0.00 in/hr0.0 mm/hr 0.00 in0.0 mm
11:41 AM 48.6°F9.2°C 23.5°F-4.7°C 37% 6.9 mph W11.1 kmh W 13.0 mph20.9 kmh 29.64 in1003.7 mb 0.00 in0.0 mm 0.00 in/hr0.0 mm/hr 0.00 in0.0 mm
11:40 AM 48.6°F9.2°C 23.5°F-4.7°C 37% 6.9 mph WNW11.1 kmh WNW 14.1 mph22.7 kmh 29.64 in1003.7 mb 0.00 in0.0 mm 0.00 in/hr0.0 mm/hr 0.00 in0.0 mm
11:39 AM 48.6°F9.2°C 22.8°F-5.1°C 36% 6.9 mph WNW11.1 kmh WNW 14.1 mph22.7 kmh 29.64 in1003.7 mb 0.00 in0.0 mm 0.00 in/hr0.0 mm/hr 0.00 in0.0 mm
11:38 AM 48.6°F9.2°C 22.8°F-5.1°C 36% 6.0 mph W9.7 kmh W 13.0 mph20.9 kmh 29.64 in1003.7 mb 0.00 in0.0 mm 0.00 in/hr0.0 mm/hr 0.00 in0.0 mm
11:37 AM 48.6°F9.2°C 22.8°F-5.1°C 36% 6.0 mph WSW9.7 kmh WSW 10.1 mph16.3 kmh 29.64 in1003.7 mb 0.00 in0.0 mm 0.00 in/hr0.0 mm/hr 0.00 in0.0 mm
11:36 AM 48.6°F9.2°C 23.5°F-4.7°C 37% 6.0 mph W9.7 kmh W 6.9 mph11.1 kmh 29.64 in1003.7 mb 0.00 in0.0 mm 0.00 in/hr0.0 mm/hr 0.00 in0.0 mm
11:35 AM 48.6°F9.2°C 22.8°F-5.1°C 36% 6.0 mph WNW9.7 kmh WNW 13.0 mph20.9 kmh 29.64 in1003.7 mb 0.00 in0.0 mm 0.00 in/hr0.0 mm/hr 0.00 in0.0 mm
11:34 AM 48.6°F9.2°C 22.8°F-5.1°C 36% 6.0 mph WNW9.7 kmh WNW 13.0 mph20.9 kmh 29.64 in1003.7 mb 0.00 in0.0 mm 0.00 in/hr0.0 mm/hr 0.00 in0.0 mm
11:33 AM 48.6°F9.2°C 23.5°F-4.7°C 37% 6.0 mph W9.7 kmh W 8.1 mph13.0 kmh 29.64 in1003.7 mb 0.00 in0.0 mm 0.00 in/hr0.0 mm/hr 0.00 in0.0 mm
11:32 AM 48.6°F9.2°C 22.8°F-5.1°C 36% 6.0 mph SW9.7 kmh SW 8.1 mph13.0 kmh 29.64 in1003.7 mb 0.00 in0.0 mm 0.00 in/hr0.0 mm/hr 0.00 in0.0 mm
11:31 AM 48.7°F9.3°C 23.0°F-5.0°C 36% 6.0 mph WSW9.7 kmh WSW 8.1 mph13.0 kmh 29.64 in1003.7 mb 0.00 in0.0 mm 0.00 in/hr0.0 mm/hr 0.00 in0.0 mm
11:30 AM 48.7°F9.3°C 23.0°F-5.0°C 36% 4.9 mph WSW7.9 kmh WSW 10.1 mph16.3 kmh 29.65 in1004.1 mb 0.00 in0.0 mm 0.00 in/hr0.0 mm/hr 0.00 in0.0 mm
11:29 AM 48.7°F9.3°C 23.0°F-5.0°C 36% 4.9 mph WNW7.9 kmh WNW 8.1 mph13.0 kmh 29.65 in1004.1 mb 0.00 in0.0 mm 0.00 in/hr0.0 mm/hr 0.00 in0.0 mm
11:28 AM 48.7°F9.3°C 23.0°F-5.0°C 36% 4.9 mph W7.9 kmh W 12.1 mph19.5 kmh 29.65 in1004.1 mb 0.00 in0.0 mm 0.00 in/hr0.0 mm/hr 0.00 in0.0 mm
11:27 AM 48.7°F9.3°C 23.0°F-5.0°C 36% 4.9 mph WSW7.9 kmh WSW 12.1 mph19.5 kmh 29.65 in1004.1 mb 0.00 in0.0 mm 0.00 in/hr0.0 mm/hr 0.00 in0.0 mm
11:26 AM 48.7°F9.3°C 23.0°F-5.0°C 36% 6.0 mph SW9.7 kmh SW 10.1 mph16.3 kmh 29.65 in1004.1 mb 0.00 in0.0 mm 0.00 in/hr0.0 mm/hr 0.00 in0.0 mm
11:25 AM 48.7°F9.3°C 23.0°F-5.0°C 36% 6.0 mph WSW9.7 kmh WSW 6.0 mph9.7 kmh 29.65 in1004.1 mb 0.00 in0.0 mm 0.00 in/hr0.0 mm/hr 0.00 in0.0 mm
11:24 AM 48.7°F9.3°C 22.3°F-5.4°C 35% 6.9 mph WSW11.1 kmh WSW 8.9 mph14.3 kmh 29.65 in1004.1 mb 0.00 in0.0 mm 0.00 in/hr0.0 mm/hr 0.00 in0.0 mm
11:23 AM 48.7°F9.3°C 23.0°F-5.0°C 36% 6.9 mph WSW11.1 kmh WSW 8.9 mph14.3 kmh 29.65 in1004.1 mb 0.00 in0.0 mm 0.00 in/hr0.0 mm/hr 0.00 in0.0 mm
11:22 AM 48.7°F9.3°C 23.0°F-5.0°C 36% 6.9 mph W11.1 kmh W 6.9 mph11.1 kmh 29.65 in1004.1 mb 0.00 in0.0 mm 0.00 in/hr0.0 mm/hr 0.00 in0.0 mm
11:21 AM 48.7°F9.3°C 23.0°F-5.0°C 36% 8.1 mph WSW13.0 kmh WSW 8.9 mph14.3 kmh 29.65 in1004.1 mb 0.00 in0.0 mm 0.00 in/hr0.0 mm/hr 0.00 in0.0 mm
11:20 AM 48.9°F9.4°C 23.2°F-4.9°C 36% 8.9 mph W14.3 kmh W 6.9 mph11.1 kmh 29.65 in1004.1 mb 0.00 in0.0 mm 0.00 in/hr0.0 mm/hr 0.00 in0.0 mm
11:19 AM 48.9°F9.4°C 22.5°F-5.3°C 35% 8.9 mph W14.3 kmh W 8.9 mph14.3 kmh 29.65 in1004.1 mb 0.00 in0.0 mm 0.00 in/hr0.0 mm/hr 0.00 in0.0 mm
11:18 AM 48.9°F9.4°C 22.5°F-5.3°C 35% 8.9 mph W14.3 kmh W 10.1 mph16.3 kmh 29.65 in1004.1 mb 0.00 in0.0 mm 0.00 in/hr0.0 mm/hr 0.00 in0.0 mm
11:17 AM 48.9°F9.4°C 22.5°F-5.3°C 35% 8.9 mph W14.3 kmh W 15.0 mph24.1 kmh 29.65 in1004.1 mb 0.00 in0.0 mm 0.00 in/hr0.0 mm/hr 0.00 in0.0 mm
11:16 AM 49.1°F9.5°C 22.6°F-5.2°C 35% 8.1 mph W13.0 kmh W 15.0 mph24.1 kmh 29.65 in1004.1 mb 0.00 in0.0 mm 0.00 in/hr0.0 mm/hr 0.00 in0.0 mm
11:15 AM 49.1°F9.5°C 22.6°F-5.2°C 35% 8.1 mph W13.0 kmh W 11.0 mph17.7 kmh 29.66 in1004.4 mb 0.00 in0.0 mm 0.00 in/hr0.0 mm/hr 0.00 in0.0 mm
11:14 AM 49.3°F9.6°C 22.8°F-5.1°C 35% 8.1 mph WNW13.0 kmh WNW 12.1 mph19.5 kmh 29.66 in1004.4 mb 0.00 in0.0 mm 0.00 in/hr0.0 mm/hr 0.00 in0.0 mm
11:13 AM 49.3°F9.6°C 22.8°F-5.1°C 35% 6.9 mph WNW11.1 kmh WNW 11.0 mph17.7 kmh 29.66 in1004.4 mb 0.00 in0.0 mm 0.00 in/hr0.0 mm/hr 0.00 in0.0 mm
11:12 AM 49.3°F9.6°C 22.8°F-5.1°C 35% 6.9 mph SSW11.1 kmh SSW 14.1 mph22.7 kmh 29.66 in1004.4 mb 0.00 in0.0 mm 0.00 in/hr0.0 mm/hr 0.00 in0.0 mm
11:11 AM 49.3°F9.6°C 22.8°F-5.1°C 35% 6.9 mph WSW11.1 kmh WSW 18.0 mph29.0 kmh 29.66 in1004.4 mb 0.00 in0.0 mm 0.00 in/hr0.0 mm/hr 0.00 in0.0 mm
11:10 AM 49.3°F9.6°C 22.8°F-5.1°C 35% 6.0 mph W9.7 kmh W 16.1 mph25.9 kmh 29.66 in1004.4 mb 0.00 in0.0 mm 0.00 in/hr0.0 mm/hr 0.00 in0.0 mm
11:09 AM 49.1°F9.5°C 22.6°F-5.2°C 35% 6.0 mph WSW9.7 kmh WSW 10.1 mph16.3 kmh 29.66 in1004.4 mb 0.00 in0.0 mm 0.00 in/hr0.0 mm/hr 0.00 in0.0 mm
11:08 AM 49.3°F9.6°C 23.5°F-4.7°C 36% 6.0 mph W9.7 kmh W 10.1 mph16.3 kmh 29.66 in1004.4 mb 0.00 in0.0 mm 0.00 in/hr0.0 mm/hr 0.00 in0.0 mm
11:07 AM 49.3°F9.6°C 22.8°F-5.1°C 35% 6.0 mph WSW9.7 kmh WSW 10.1 mph16.3 kmh 29.66 in1004.4 mb 0.00 in0.0 mm 0.00 in/hr0.0 mm/hr 0.00 in0.0 mm
11:06 AM 49.3°F9.6°C 22.8°F-5.1°C 35% 6.0 mph WSW9.7 kmh WSW 10.1 mph16.3 kmh 29.66 in1004.4 mb 0.00 in0.0 mm 0.00 in/hr0.0 mm/hr 0.00 in0.0 mm
11:05 AM 49.3°F9.6°C 22.1°F-5.5°C 34% 6.0 mph WSW9.7 kmh WSW 8.9 mph14.3 kmh 29.66 in1004.4 mb 0.00 in0.0 mm 0.00 in/hr0.0 mm/hr 0.00 in0.0 mm
11:04 AM 49.3°F9.6°C 22.8°F-5.1°C 35% 6.0 mph WSW9.7 kmh WSW 8.1 mph13.0 kmh 29.66 in1004.4 mb 0.00 in0.0 mm 0.00 in/hr0.0 mm/hr 0.00 in0.0 mm
11:03 AM 49.3°F9.6°C 22.8°F-5.1°C 35% 6.0 mph SW9.7 kmh SW 4.9 mph7.9 kmh 29.66 in1004.4 mb 0.00 in0.0 mm 0.00 in/hr0.0 mm/hr 0.00 in0.0 mm
11:02 AM 49.1°F9.5°C 22.6°F-5.2°C 35% 6.0 mph SW9.7 kmh SW 15.0 mph24.1 kmh 29.66 in1004.4 mb 0.00 in0.0 mm 0.00 in/hr0.0 mm/hr 0.00 in0.0 mm
11:01 AM 49.1°F9.5°C 23.4°F-4.8°C 36% 6.0 mph W9.7 kmh W 15.0 mph24.1 kmh 29.66 in1004.4 mb 0.00 in0.0 mm 0.00 in/hr0.0 mm/hr 0.00 in0.0 mm
11:00 AM 49.1°F9.5°C 23.4°F-4.8°C 36% 6.0 mph W9.7 kmh W 6.9 mph11.1 kmh 29.66 in1004.4 mb 0.00 in0.0 mm 0.00 in/hr0.0 mm/hr 0.00 in0.0 mm
10:59 AM 49.1°F9.5°C 23.4°F-4.8°C 36% 6.0 mph W9.7 kmh W 8.9 mph14.3 kmh 29.66 in1004.4 mb 0.00 in0.0 mm 0.00 in/hr0.0 mm/hr 0.00 in0.0 mm
10:58 AM 49.1°F9.5°C 23.4°F-4.8°C 36% 6.0 mph WNW9.7 kmh WNW 8.9 mph14.3 kmh 29.66 in1004.4 mb 0.00 in0.0 mm 0.00 in/hr0.0 mm/hr 0.00 in0.0 mm
10:57 AM 49.1°F9.5°C 23.4°F-4.8°C 36% 6.0 mph WNW9.7 kmh WNW 8.9 mph14.3 kmh 29.66 in1004.4 mb 0.00 in0.0 mm 0.00 in/hr0.0 mm/hr 0.00 in0.0 mm
10:56 AM 48.9°F9.4°C 23.2°F-4.9°C 36% 6.0 mph SW9.7 kmh SW 13.0 mph20.9 kmh 29.66 in1004.4 mb 0.00 in0.0 mm 0.00 in/hr0.0 mm/hr 0.00 in0.0 mm
10:55 AM 48.9°F9.4°C 23.7°F-4.6°C 37% 4.9 mph WSW7.9 kmh WSW 21.0 mph33.8 kmh 29.66 in1004.4 mb 0.00 in0.0 mm 0.00 in/hr0.0 mm/hr 0.00 in0.0 mm
10:54 AM 48.7°F9.3°C 23.5°F-4.7°C 37% 4.0 mph SW6.4 kmh SW 8.9 mph14.3 kmh 29.66 in1004.4 mb 0.00 in0.0 mm 0.00 in/hr0.0 mm/hr 0.00 in0.0 mm
10:53 AM 48.6°F9.2°C 24.1°F-4.4°C 38% 4.0 mph SW6.4 kmh SW 6.0 mph9.7 kmh 29.66 in1004.4 mb 0.00 in0.0 mm 0.00 in/hr0.0 mm/hr 0.00 in0.0 mm
10:52 AM 48.6°F9.2°C 23.5°F-4.7°C 37% 4.0 mph WSW6.4 kmh WSW 6.0 mph9.7 kmh 29.66 in1004.4 mb 0.00 in0.0 mm 0.00 in/hr0.0 mm/hr 0.00 in0.0 mm
10:51 AM 48.4°F9.1°C 23.9°F-4.5°C 38% 4.0 mph W6.4 kmh W 8.1 mph13.0 kmh 29.66 in1004.4 mb 0.00 in0.0 mm 0.00 in/hr0.0 mm/hr 0.00 in0.0 mm
10:50 AM 48.0°F8.9°C 23.5°F-4.7°C 38% 4.0 mph W6.4 kmh W 11.0 mph17.7 kmh 29.66 in1004.4 mb 0.00 in0.0 mm 0.00 in/hr0.0 mm/hr 0.00 in0.0 mm
10:49 AM 48.0°F8.9°C 24.3°F-4.3°C 39% 4.0 mph WSW6.4 kmh WSW 8.1 mph13.0 kmh 29.66 in1004.4 mb 0.00 in0.0 mm 0.00 in/hr0.0 mm/hr 0.00 in0.0 mm
10:48 AM 47.8°F8.8°C 25.3°F-3.7°C 41% 4.0 mph WSW6.4 kmh WSW 6.0 mph9.7 kmh 29.66 in1004.4 mb 0.00 in0.0 mm 0.00 in/hr0.0 mm/hr 0.00 in0.0 mm
10:47 AM 47.8°F8.8°C 24.6°F-4.1°C 40% 4.9 mph SW7.9 kmh SW 6.0 mph9.7 kmh 29.66 in1004.4 mb 0.00 in0.0 mm 0.00 in/hr0.0 mm/hr 0.00 in0.0 mm
10:46 AM 48.0°F8.9°C 24.8°F-4.0°C 40% 4.9 mph WSW7.9 kmh WSW 4.0 mph6.4 kmh 29.66 in1004.4 mb 0.00 in0.0 mm 0.00 in/hr0.0 mm/hr 0.00 in0.0 mm
10:45 AM 48.0°F8.9°C 26.1°F-3.3°C 42% 6.0 mph SW9.7 kmh SW 4.0 mph6.4 kmh 29.67 in1004.7 mb 0.00 in0.0 mm 0.00 in/hr0.0 mm/hr 0.00 in0.0 mm
10:44 AM 48.4°F9.1°C 25.2°F-3.8°C 40% 6.0 mph SW9.7 kmh SW 6.0 mph9.7 kmh 29.67 in1004.7 mb 0.00 in0.0 mm 0.00 in/hr0.0 mm/hr 0.00 in0.0 mm
10:43 AM 48.6°F9.2°C 25.3°F-3.7°C 40% 6.9 mph S11.1 kmh S 6.9 mph11.1 kmh 29.67 in1004.7 mb 0.00 in0.0 mm 0.00 in/hr0.0 mm/hr 0.00 in0.0 mm
10:42 AM 48.7°F9.3°C 25.5°F-3.6°C 40% 6.9 mph SSW11.1 kmh SSW 6.0 mph9.7 kmh 29.67 in1004.7 mb 0.00 in0.0 mm 0.00 in/hr0.0 mm/hr 0.00 in0.0 mm
10:41 AM 48.9°F9.4°C 25.0°F-3.9°C 39% 8.1 mph SSE13.0 kmh SSE 8.1 mph13.0 kmh 29.67 in1004.7 mb 0.00 in0.0 mm 0.00 in/hr0.0 mm/hr 0.00 in0.0 mm
10:40 AM 49.1°F9.5°C 24.6°F-4.1°C 38% 8.1 mph SW13.0 kmh SW 10.1 mph16.3 kmh 29.67 in1004.7 mb 0.00 in0.0 mm 0.00 in/hr0.0 mm/hr 0.00 in0.0 mm
10:39 AM 49.1°F9.5°C 23.4°F-4.8°C 36% 8.1 mph WSW13.0 kmh WSW 10.1 mph16.3 kmh 29.67 in1004.7 mb 0.00 in0.0 mm 0.00 in/hr0.0 mm/hr 0.00 in0.0 mm
10:38 AM 48.9°F9.4°C 23.2°F-4.9°C 36% 8.1 mph WSW13.0 kmh WSW 12.1 mph19.5 kmh 29.67 in1004.7 mb 0.00 in0.0 mm 0.00 in/hr0.0 mm/hr 0.00 in0.0 mm
10:37 AM 48.9°F9.4°C 23.7°F-4.6°C 37% 6.9 mph WSW11.1 kmh WSW 12.1 mph19.5 kmh 29.67 in1004.7 mb 0.00 in0.0 mm 0.00 in/hr0.0 mm/hr 0.00 in0.0 mm
10:36 AM 48.7°F9.3°C 23.5°F-4.7°C 37% 8.1 mph W13.0 kmh W 10.1 mph16.3 kmh 29.67 in1004.7 mb 0.00 in0.0 mm 0.00 in/hr0.0 mm/hr 0.00 in0.0 mm
10:35 AM 48.6°F9.2°C 23.5°F-4.7°C 37% 8.1 mph WSW13.0 kmh WSW 10.1 mph16.3 kmh 29.67 in1004.7 mb 0.00 in0.0 mm 0.00 in/hr0.0 mm/hr 0.00 in0.0 mm
10:34 AM 48.6°F9.2°C 23.5°F-4.7°C 37% 6.9 mph W11.1 kmh W 17.0 mph27.4 kmh 29.67 in1004.7 mb 0.00 in0.0 mm 0.00 in/hr0.0 mm/hr 0.00 in0.0 mm
10:33 AM 48.4°F9.1°C 24.6°F-4.1°C 39% 6.9 mph W11.1 kmh W 17.0 mph27.4 kmh 29.67 in1004.7 mb 0.00 in0.0 mm 0.00 in/hr0.0 mm/hr 0.00 in0.0 mm
10:32 AM 48.0°F8.9°C 23.5°F-4.7°C 38% 6.9 mph WSW11.1 kmh WSW 10.1 mph16.3 kmh 29.67 in1004.7 mb 0.00 in0.0 mm 0.00 in/hr0.0 mm/hr 0.00 in0.0 mm
10:31 AM 47.8°F8.8°C 23.5°F-4.7°C 38% 6.9 mph WNW11.1 kmh WNW 13.0 mph20.9 kmh 29.67 in1004.7 mb 0.00 in0.0 mm 0.00 in/hr0.0 mm/hr 0.00 in0.0 mm
10:30 AM 47.7°F8.7°C 23.9°F-4.5°C 39% 6.9 mph WNW11.1 kmh WNW 11.0 mph17.7 kmh 29.68 in1005.1 mb 0.00 in0.0 mm 0.00 in/hr0.0 mm/hr 0.00 in0.0 mm
10:29 AM 47.5°F8.6°C 25.0°F-3.9°C 41% 6.0 mph WNW9.7 kmh WNW 10.1 mph16.3 kmh 29.68 in1005.1 mb 0.00 in0.0 mm 0.00 in/hr0.0 mm/hr 0.00 in0.0 mm
10:28 AM 47.3°F8.5°C 24.8°F-4.0°C 41% 6.0 mph WNW9.7 kmh WNW 6.9 mph11.1 kmh 29.68 in1005.1 mb 0.00 in0.0 mm 0.00 in/hr0.0 mm/hr 0.00 in0.0 mm
10:27 AM 46.9°F8.3°C 24.4°F-4.2°C 41% 6.0 mph WSW9.7 kmh WSW 10.1 mph16.3 kmh 29.68 in1005.1 mb 0.00 in0.0 mm 0.00 in/hr0.0 mm/hr 0.00 in0.0 mm
10:25 AM 46.2°F7.9°C 25.0°F-3.9°C 43% 6.0 mph W9.7 kmh W 12.1 mph19.5 kmh 29.68 in1005.1 mb 0.00 in0.0 mm 0.00 in/hr0.0 mm/hr 0.00 in0.0 mm
10:24 AM 45.7°F7.6°C 24.4°F-4.2°C 43% 6.0 mph WSW9.7 kmh WSW 8.1 mph13.0 kmh 29.68 in1005.1 mb 0.00 in0.0 mm 0.00 in/hr0.0 mm/hr 0.00 in0.0 mm
10:23 AM 45.1°F7.3°C 25.0°F-3.9°C 45% 4.9 mph SW7.9 kmh SW 8.9 mph14.3 kmh 29.68 in1005.1 mb 0.00 in0.0 mm 0.00 in/hr0.0 mm/hr 0.00 in0.0 mm
10:22 AM 44.2°F6.8°C 24.3°F-4.3°C 45% 4.9 mph WSW7.9 kmh WSW 15.0 mph24.1 kmh 29.68 in1005.1 mb 0.00 in0.0 mm 0.00 in/hr0.0 mm/hr 0.00 in0.0 mm
10:21 AM 43.5°F6.4°C 24.6°F-4.1°C 47% 4.9 mph SW7.9 kmh SW 15.0 mph24.1 kmh 29.68 in1005.1 mb 0.00 in0.0 mm 0.00 in/hr0.0 mm/hr 0.00 in0.0 mm
10:20 AM 42.8°F6.0°C 25.5°F-3.6°C 50% 4.0 mph NW6.4 kmh NW 8.1 mph13.0 kmh 29.68 in1005.1 mb 0.00 in0.0 mm 0.00 in/hr0.0 mm/hr 0.00 in0.0 mm
10:19 AM 42.1°F5.6°C 24.3°F-4.3°C 49% 4.0 mph W6.4 kmh W 8.1 mph13.0 kmh 29.68 in1005.1 mb 0.00 in0.0 mm 0.00 in/hr0.0 mm/hr 0.00 in0.0 mm
10:18 AM 41.4°F5.2°C 25.0°F-3.9°C 52% 4.0 mph S6.4 kmh S 10.0 mph16.1 kmh 29.68 in1005.1 mb 0.00 in0.0 mm 0.00 in/hr0.0 mm/hr 0.00 in0.0 mm
10:17 AM 40.6°F4.8°C 24.4°F-4.2°C 52% 4.0 mph W6.4 kmh W 10.0 mph16.1 kmh 29.68 in1005.1 mb 0.00 in0.0 mm 0.00 in/hr0.0 mm/hr 0.00 in0.0 mm
10:16 AM 40.3°F4.6°C 25.3°F-3.7°C 55% 4.0 mph WNW6.4 kmh WNW 8.1 mph13.0 kmh 29.68 in1005.1 mb 0.00 in0.0 mm 0.00 in/hr0.0 mm/hr 0.00 in0.0 mm
10:15 AM 39.6°F4.2°C 25.2°F-3.8°C 56% 4.0 mph WSW6.4 kmh WSW 8.9 mph14.3 kmh 29.70 in1005.8 mb 0.00 in0.0 mm 0.00 in/hr0.0 mm/hr 0.00 in0.0 mm
10:14 AM 39.0°F3.9°C 25.5°F-3.6°C 58% 4.0 mph WNW6.4 kmh WNW 6.9 mph11.1 kmh 29.70 in1005.8 mb 0.00 in0.0 mm 0.00 in/hr0.0 mm/hr 0.00 in0.0 mm
10:13 AM 38.5°F3.6°C 25.9°F-3.4°C 60% 2.9 mph NE4.7 kmh NE 4.0 mph6.4 kmh 29.70 in1005.8 mb 0.00 in0.0 mm 0.00 in/hr0.0 mm/hr 0.00 in0.0 mm
10:12 AM 37.8°F3.2°C 25.5°F-3.6°C 61% 2.9 mph NNW4.7 kmh NNW 8.1 mph13.0 kmh 29.70 in1005.8 mb 0.00 in0.0 mm 0.00 in/hr0.0 mm/hr 0.00 in0.0 mm
10:11 AM 37.2°F2.9°C 24.6°F-4.1°C 60% 2.9 mph NE4.7 kmh NE 4.9 mph7.9 kmh 29.70 in1005.8 mb 0.00 in0.0 mm 0.00 in/hr0.0 mm/hr 0.00 in0.0 mm
10:10 AM 37.0°F2.8°C 25.7°F-3.5°C 63% 2.9 mph NNE4.7 kmh NNE 4.9 mph7.9 kmh 29.70 in1005.8 mb 0.00 in0.0 mm 0.00 in/hr0.0 mm/hr 0.00 in0.0 mm
10:09 AM 36.9°F2.7°C 25.9°F-3.4°C 64% 2.9 mph N4.7 kmh N 8.1 mph13.0 kmh 29.70 in1005.8 mb 0.00 in0.0 mm 0.00 in/hr0.0 mm/hr 0.00 in0.0 mm
10:08 AM 36.3°F2.4°C 25.3°F-3.7°C 64% 2.9 mph WNW4.7 kmh WNW 6.0 mph9.7 kmh 29.70 in1005.8 mb 0.00 in0.0 mm 0.00 in/hr0.0 mm/hr 0.00 in0.0 mm
10:07 AM 36.3°F2.4°C 26.1°F-3.3°C 66% 2.9 mph NE4.7 kmh NE 6.9 mph11.1 kmh 29.70 in1005.8 mb 0.00 in0.0 mm 0.00 in/hr0.0 mm/hr 0.00 in0.0 mm
10:06 AM 36.1°F2.3°C 25.5°F-3.6°C 65% 2.9 mph WNW4.7 kmh WNW 6.9 mph11.1 kmh 29.70 in1005.8 mb 0.00 in0.0 mm 0.00 in/hr0.0 mm/hr 0.00 in0.0 mm
10:05 AM 36.1°F2.3°C 25.2°F-3.8°C 64% 2.9 mph NW4.7 kmh NW 4.0 mph6.4 kmh 29.70 in1005.8 mb 0.00 in0.0 mm 0.00 in/hr0.0 mm/hr 0.00 in0.0 mm
10:04 AM 36.0°F2.2°C 25.3°F-3.7°C 65% 2.9 mph WSW4.7 kmh WSW 2.0 mph3.2 kmh 29.70 in1005.8 mb 0.00 in0.0 mm 0.00 in/hr0.0 mm/hr 0.00 in0.0 mm
10:03 AM 36.0°F2.2°C 25.0°F-3.9°C 64% 2.9 mph N4.7 kmh N 2.9 mph4.7 kmh 29.70 in1005.8 mb 0.00 in0.0 mm 0.00 in/hr0.0 mm/hr 0.00 in0.0 mm
10:02 AM 36.0°F2.2°C 25.0°F-3.9°C 64% 2.9 mph NNW4.7 kmh NNW 6.0 mph9.7 kmh 29.70 in1005.8 mb 0.00 in0.0 mm 0.00 in/hr0.0 mm/hr 0.00 in0.0 mm
10:01 AM 36.0°F2.2°C 25.3°F-3.7°C 65% 2.9 mph N4.7 kmh N 6.0 mph9.7 kmh 29.70 in1005.8 mb 0.00 in0.0 mm 0.00 in/hr0.0 mm/hr 0.00 in0.0 mm
10:00 AM 35.8°F2.1°C 24.8°F-4.0°C 64% 2.9 mph N4.7 kmh N 7.0 mph11.3 kmh 29.70 in1005.8 mb 0.00 in0.0 mm 0.00 in/hr0.0 mm/hr 0.00 in0.0 mm
09:59 AM 35.8°F2.1°C 24.1°F-4.4°C 62% 2.0 mph NW3.2 kmh NW 4.9 mph7.9 kmh 29.70 in1005.8 mb 0.00 in0.0 mm 0.00 in/hr0.0 mm/hr 0.00 in0.0 mm
09:58 AM 35.6°F2.0°C 23.9°F-4.5°C 62% 2.0 mph NW3.2 kmh NW 2.9 mph4.7 kmh 29.70 in1005.8 mb 0.00 in0.0 mm 0.00 in/hr0.0 mm/hr 0.00 in0.0 mm
09:57 AM 35.4°F1.9°C 24.1°F-4.4°C 63% 2.0 mph NW3.2 kmh NW 2.9 mph4.7 kmh 29.70 in1005.8 mb 0.00 in0.0 mm 0.00 in/hr0.0 mm/hr 0.00 in0.0 mm
09:56 AM 35.4°F1.9°C 23.7°F-4.6°C 62% 2.0 mph WNW3.2 kmh WNW 2.9 mph4.7 kmh 29.70 in1005.8 mb 0.00 in0.0 mm 0.00 in/hr0.0 mm/hr 0.00 in0.0 mm
09:55 AM 35.4°F1.9°C 24.1°F-4.4°C 63% 2.0 mph WNW3.2 kmh WNW 2.9 mph4.7 kmh 29.70 in1005.8 mb 0.00 in0.0 mm 0.00 in/hr0.0 mm/hr 0.00 in0.0 mm
09:54 AM 35.4°F1.9°C 23.7°F-4.6°C 62% 2.0 mph W3.2 kmh W 2.9 mph4.7 kmh 29.70 in1005.8 mb 0.00 in0.0 mm 0.00 in/hr0.0 mm/hr 0.00 in0.0 mm
09:53 AM 35.2°F1.8°C 23.9°F-4.5°C 63% 2.0 mph W3.2 kmh W 2.9 mph4.7 kmh 29.70 in1005.8 mb 0.00 in0.0 mm 0.00 in/hr0.0 mm/hr 0.00 in0.0 mm
09:52 AM 35.2°F1.8°C 23.9°F-4.5°C 63% 2.0 mph WNW3.2 kmh WNW 4.9 mph7.9 kmh 29.70 in1005.8 mb 0.00 in0.0 mm 0.00 in/hr0.0 mm/hr 0.00 in0.0 mm
09:51 AM 35.2°F1.8°C 23.9°F-4.5°C 63% 0.9 mph WNW1.4 kmh WNW 4.9 mph7.9 kmh 29.70 in1005.8 mb 0.00 in0.0 mm 0.00 in/hr0.0 mm/hr 0.00 in0.0 mm
09:50 AM 35.2°F1.8°C 23.2°F-4.9°C 61% 0.9 mph NW1.4 kmh NW 4.9 mph7.9 kmh 29.70 in1005.8 mb 0.00 in0.0 mm 0.00 in/hr0.0 mm/hr 0.00 in0.0 mm
09:49 AM 35.2°F1.8°C 23.2°F-4.9°C 61% 0.9 mph NE1.4 kmh NE 4.0 mph6.4 kmh 29.70 in1005.8 mb 0.00 in0.0 mm 0.00 in/hr0.0 mm/hr 0.00 in0.0 mm
09:48 AM 35.1°F1.7°C 23.0°F-5.0°C 61% 0.9 mph NE1.4 kmh NE 2.0 mph3.2 kmh 29.70 in1005.8 mb 0.00 in0.0 mm 0.00 in/hr0.0 mm/hr 0.00 in0.0 mm
09:47 AM 35.1°F1.7°C 23.4°F-4.8°C 62% 0.9 mph N1.4 kmh N 0.9 mph1.4 kmh 29.70 in1005.8 mb 0.00 in0.0 mm 0.00 in/hr0.0 mm/hr 0.00 in0.0 mm
09:46 AM 35.1°F1.7°C 23.4°F-4.8°C 62% 0.9 mph WNW1.4 kmh WNW 4.0 mph6.4 kmh 29.70 in1005.8 mb 0.00 in0.0 mm 0.00 in/hr0.0 mm/hr 0.00 in0.0 mm
09:45 AM 35.1°F1.7°C 24.1°F-4.4°C 64% Calm Calm 4.9 mph7.9 kmh 29.72 in1006.4 mb 0.00 in0.0 mm 0.00 in/hr0.0 mm/hr 0.00 in0.0 mm
09:44 AM 35.2°F1.8°C 24.6°F-4.1°C 65% Calm Calm 2.0 mph3.2 kmh 29.72 in1006.4 mb 0.00 in0.0 mm 0.00 in/hr0.0 mm/hr 0.00 in0.0 mm
09:43 AM 35.1°F1.7°C 24.1°F-4.4°C 64% Calm Calm 2.0 mph3.2 kmh 29.72 in1006.4 mb 0.00 in0.0 mm 0.00 in/hr0.0 mm/hr 0.00 in0.0 mm
09:42 AM 35.1°F1.7°C 23.7°F-4.6°C 63% Calm Calm 0.9 mph1.4 kmh 29.72 in1006.4 mb 0.00 in0.0 mm 0.00 in/hr0.0 mm/hr 0.00 in0.0 mm
09:41 AM 35.1°F1.7°C 23.0°F-5.0°C 61% 0.9 mph SW1.4 kmh SW 0.9 mph1.4 kmh 29.72 in1006.4 mb 0.00 in0.0 mm 0.00 in/hr0.0 mm/hr 0.00 in0.0 mm
09:40 AM 34.9°F1.6°C 22.8°F-5.1°C 61% 0.9 mph E1.4 kmh E 0.9 mph1.4 kmh 29.72 in1006.4 mb 0.00 in0.0 mm 0.00 in/hr0.0 mm/hr 0.00 in0.0 mm
09:39 AM 34.9°F1.6°C 22.8°F-5.1°C 61% 0.9 mph E1.4 kmh E 2.0 mph3.2 kmh 29.72 in1006.4 mb 0.00 in0.0 mm 0.00 in/hr0.0 mm/hr 0.00 in0.0 mm
09:38 AM 34.9°F1.6°C 23.2°F-4.9°C 62% 0.9 mph SSE1.4 kmh SSE 2.0 mph3.2 kmh 29.72 in1006.4 mb 0.00 in0.0 mm 0.00 in/hr0.0 mm/hr 0.00 in0.0 mm
09:37 AM 34.9°F1.6°C 22.8°F-5.1°C 61% 0.9 mph SE1.4 kmh SE 0.9 mph1.4 kmh 29.72 in1006.4 mb 0.00 in0.0 mm 0.00 in/hr0.0 mm/hr 0.00 in0.0 mm
09:36 AM 34.7°F1.5°C 22.6°F-5.2°C 61% 2.0 mph SSE3.2 kmh SSE -- 29.72 in1006.4 mb 0.00 in0.0 mm 0.00 in/hr0.0 mm/hr 0.00 in0.0 mm
09:35 AM 34.5°F1.4°C 22.5°F-5.3°C 61% 2.0 mph SE3.2 kmh SE -- 29.72 in1006.4 mb 0.00 in0.0 mm 0.00 in/hr0.0 mm/hr 0.00 in0.0 mm
09:34 AM 34.5°F1.4°C 22.5°F-5.3°C 61% 2.0 mph SE3.2 kmh SE 0.9 mph1.4 kmh 29.72 in1006.4 mb 0.00 in0.0 mm 0.00 in/hr0.0 mm/hr 0.00 in0.0 mm
09:32 AM 34.5°F1.4°C 22.8°F-5.1°C 62% 2.9 mph E4.7 kmh E 2.9 mph4.7 kmh 29.72 in1006.4 mb 0.00 in0.0 mm 0.00 in/hr0.0 mm/hr 0.00 in0.0 mm
09:31 AM 34.3°F1.3°C 23.0°F-5.0°C 63% 2.9 mph NNE4.7 kmh NNE 4.0 mph6.4 kmh 29.72 in1006.4 mb 0.00 in0.0 mm 0.00 in/hr0.0 mm/hr 0.00 in0.0 mm
09:30 AM 34.3°F1.3°C 23.4°F-4.8°C 64% 2.9 mph NW4.7 kmh NW 4.9 mph7.9 kmh 29.71 in1006.1 mb 0.00 in0.0 mm 0.00 in/hr0.0 mm/hr 0.00 in0.0 mm
09:29 AM 34.3°F1.3°C 23.4°F-4.8°C 64% 2.9 mph SW4.7 kmh SW 4.9 mph7.9 kmh 29.71 in1006.1 mb 0.00 in0.0 mm 0.00 in/hr0.0 mm/hr 0.00 in0.0 mm
09:28 AM 34.3°F1.3°C 22.6°F-5.2°C 62% 2.9 mph NW4.7 kmh NW 4.0 mph6.4 kmh 29.71 in1006.1 mb 0.00 in0.0 mm 0.00 in/hr0.0 mm/hr 0.00 in0.0 mm
09:27 AM 34.3°F1.3°C 22.6°F-5.2°C 62% 2.9 mph SW4.7 kmh SW 8.1 mph13.0 kmh 29.71 in1006.1 mb 0.00 in0.0 mm 0.00 in/hr0.0 mm/hr 0.00 in0.0 mm
09:26 AM 34.2°F1.2°C 22.5°F-5.3°C 62% 2.0 mph SE3.2 kmh SE 4.9 mph7.9 kmh 29.71 in1006.1 mb 0.00 in0.0 mm 0.00 in/hr0.0 mm/hr 0.00 in0.0 mm
09:25 AM 34.2°F1.2°C 22.5°F-5.3°C 62% 2.0 mph E3.2 kmh E 4.9 mph7.9 kmh 29.71 in1006.1 mb 0.00 in0.0 mm 0.00 in/hr0.0 mm/hr 0.00 in0.0 mm
09:24 AM 34.2°F1.2°C 22.8°F-5.1°C 63% 2.0 mph SE3.2 kmh SE 2.9 mph4.7 kmh 29.71 in1006.1 mb 0.00 in0.0 mm 0.00 in/hr0.0 mm/hr 0.00 in0.0 mm
09:23 AM 34.0°F1.1°C 22.3°F-5.4°C 62% 2.0 mph N3.2 kmh N 6.9 mph11.1 kmh 29.71 in1006.1 mb 0.00 in0.0 mm 0.00 in/hr0.0 mm/hr 0.00 in0.0 mm
09:22 AM 34.0°F1.1°C 22.6°F-5.2°C 63% 2.0 mph WSW3.2 kmh WSW 6.9 mph11.1 kmh 29.71 in1006.1 mb 0.00 in0.0 mm 0.00 in/hr0.0 mm/hr 0.00 in0.0 mm
09:21 AM 34.0°F1.1°C 22.3°F-5.4°C 62% 2.0 mph SE3.2 kmh SE 6.9 mph11.1 kmh 29.71 in1006.1 mb 0.00 in0.0 mm 0.00 in/hr0.0 mm/hr 0.00 in0.0 mm
09:20 AM 34.0°F1.1°C 22.6°F-5.2°C 63% 0.9 mph SE1.4 kmh SE 6.9 mph11.1 kmh 29.71 in1006.1 mb 0.00 in0.0 mm 0.00 in/hr0.0 mm/hr 0.00 in0.0 mm
09:19 AM 34.0°F1.1°C 23.0°F-5.0°C 64% 0.9 mph SE1.4 kmh SE 2.9 mph4.7 kmh 29.71 in1006.1 mb 0.00 in0.0 mm 0.00 in/hr0.0 mm/hr 0.00 in0.0 mm
09:18 AM 34.0°F1.1°C 23.0°F-5.0°C 64% 0.9 mph NNW1.4 kmh NNW 2.0 mph3.2 kmh 29.71 in1006.1 mb 0.00 in0.0 mm 0.00 in/hr0.0 mm/hr 0.00 in0.0 mm
09:17 AM 34.0°F1.1°C 23.0°F-5.0°C 64% 0.9 mph WSW1.4 kmh WSW 4.0 mph6.4 kmh 29.71 in1006.1 mb 0.00 in0.0 mm 0.00 in/hr0.0 mm/hr 0.00 in0.0 mm
09:16 AM 33.8°F1.0°C 23.0°F-5.0°C 64% 0.9 mph ENE1.4 kmh ENE 2.9 mph4.7 kmh 29.71 in1006.1 mb 0.00 in0.0 mm 0.00 in/hr0.0 mm/hr 0.00 in0.0 mm
09:15 AM 33.8°F1.0°C 23.4°F-4.8°C 65% 0.9 mph ENE1.4 kmh ENE 2.9 mph4.7 kmh 29.70 in1005.8 mb 0.00 in0.0 mm 0.00 in/hr0.0 mm/hr 0.00 in0.0 mm
09:14 AM 33.8°F1.0°C 23.0°F-5.0°C 64% 0.9 mph W1.4 kmh W 2.0 mph3.2 kmh 29.70 in1005.8 mb 0.00 in0.0 mm 0.00 in/hr0.0 mm/hr 0.00 in0.0 mm
09:13 AM 33.6°F0.9°C 23.5°F-4.7°C 66% 0.9 mph W1.4 kmh W 0.9 mph1.4 kmh 29.70 in1005.8 mb 0.00 in0.0 mm 0.00 in/hr0.0 mm/hr 0.00 in0.0 mm
09:12 AM 33.6°F0.9°C 23.2°F-4.9°C 65% 2.0 mph W3.2 kmh W 0.9 mph1.4 kmh 29.70 in1005.8 mb 0.00 in0.0 mm 0.00 in/hr0.0 mm/hr 0.00 in0.0 mm
09:11 AM 33.6°F0.9°C 23.2°F-4.9°C 65% 2.0 mph W3.2 kmh W 2.0 mph3.2 kmh 29.70 in1005.8 mb 0.00 in0.0 mm 0.00 in/hr0.0 mm/hr 0.00 in0.0 mm
09:10 AM 33.6°F0.9°C 23.2°F-4.9°C 65% 2.0 mph W3.2 kmh W 2.9 mph4.7 kmh 29.70 in1005.8 mb 0.00 in0.0 mm 0.00 in/hr0.0 mm/hr 0.00 in0.0 mm
09:09 AM 33.6°F0.9°C 22.8°F-5.1°C 64% 2.0 mph W3.2 kmh W 2.0 mph3.2 kmh 29.70 in1005.8 mb 0.00 in0.0 mm 0.00 in/hr0.0 mm/hr 0.00 in0.0 mm
09:08 AM 33.6°F0.9°C 22.8°F-5.1°C 64% 2.0 mph E3.2 kmh E 2.9 mph4.7 kmh 29.70 in1005.8 mb 0.00 in0.0 mm 0.00 in/hr0.0 mm/hr 0.00 in0.0 mm
09:07 AM 33.4°F0.8°C 22.6°F-5.2°C 64% 2.0 mph ENE3.2 kmh ENE 4.0 mph6.4 kmh 29.70 in1005.8 mb 0.00 in0.0 mm 0.00 in/hr0.0 mm/hr 0.00 in0.0 mm
09:06 AM 33.4°F0.8°C 22.6°F-5.2°C 64% 2.0 mph ESE3.2 kmh ESE 4.9 mph7.9 kmh 29.70 in1005.8 mb 0.00 in0.0 mm 0.00 in/hr0.0 mm/hr 0.00 in0.0 mm
09:05 AM 33.4°F0.8°C 22.6°F-5.2°C 64% 2.0 mph ENE3.2 kmh ENE 4.9 mph7.9 kmh 29.70 in1005.8 mb 0.00 in0.0 mm 0.00 in/hr0.0 mm/hr 0.00 in0.0 mm
09:04 AM 33.3°F0.7°C 22.8°F-5.1°C 65% 2.0 mph ENE3.2 kmh ENE 2.9 mph4.7 kmh 29.70 in1005.8 mb 0.00 in0.0 mm 0.00 in/hr0.0 mm/hr 0.00 in0.0 mm
09:03 AM 33.3°F0.7°C 22.8°F-5.1°C 65% 2.0 mph NE3.2 kmh NE 2.9 mph4.7 kmh 29.70 in1005.8 mb 0.00 in0.0 mm 0.00 in/hr0.0 mm/hr 0.00 in0.0 mm
09:02 AM 33.3°F0.7°C 22.8°F-5.1°C 65% 2.0 mph SE3.2 kmh SE 2.0 mph3.2 kmh 29.70 in1005.8 mb 0.00 in0.0 mm 0.00 in/hr0.0 mm/hr 0.00 in0.0 mm
09:01 AM 33.1°F0.6°C 22.6°F-5.2°C 65% 2.0 mph ESE3.2 kmh ESE 2.0 mph3.2 kmh 29.70 in1005.8 mb 0.00 in0.0 mm 0.00 in/hr0.0 mm/hr 0.00 in0.0 mm
09:00 AM 33.1°F0.6°C 22.6°F-5.2°C 65% 2.0 mph SE3.2 kmh SE 2.9 mph4.7 kmh 29.70 in1005.8 mb 0.00 in0.0 mm 0.00 in/hr0.0 mm/hr 0.00 in0.0 mm
08:59 AM 33.1°F0.6°C 22.6°F-5.2°C 65% 2.0 mph SE3.2 kmh SE 6.0 mph9.7 kmh 29.70 in1005.8 mb 0.00 in0.0 mm 0.00 in/hr0.0 mm/hr 0.00 in0.0 mm
08:58 AM 32.9°F0.5°C 22.8°F-5.1°C 66% 2.0 mph NE3.2 kmh NE 4.9 mph7.9 kmh 29.70 in1005.8 mb 0.00 in0.0 mm 0.00 in/hr0.0 mm/hr 0.00 in0.0 mm
08:57 AM 32.7°F0.4°C 22.6°F-5.2°C 66% 2.0 mph E3.2 kmh E 2.9 mph4.7 kmh 29.70 in1005.8 mb 0.00 in0.0 mm 0.00 in/hr0.0 mm/hr 0.00 in0.0 mm
08:56 AM 32.7°F0.4°C 22.6°F-5.2°C 66% 2.0 mph E3.2 kmh E 2.0 mph3.2 kmh 29.70 in1005.8 mb 0.00 in0.0 mm 0.00 in/hr0.0 mm/hr 0.00 in0.0 mm
08:55 AM 32.5°F0.3°C 22.5°F-5.3°C 66% 2.0 mph SE3.2 kmh SE 4.0 mph6.4 kmh 29.70 in1005.8 mb 0.00 in0.0 mm 0.00 in/hr0.0 mm/hr 0.00 in0.0 mm
08:54 AM 32.5°F0.3°C 22.8°F-5.1°C 67% 0.9 mph ENE1.4 kmh ENE 4.0 mph6.4 kmh 29.70 in1005.8 mb 0.00 in0.0 mm 0.00 in/hr0.0 mm/hr 0.00 in0.0 mm
08:53 AM 32.4°F0.2°C 22.6°F-5.2°C 67% 0.9 mph SE1.4 kmh SE 2.9 mph4.7 kmh 29.70 in1005.8 mb 0.00 in0.0 mm 0.00 in/hr0.0 mm/hr 0.00 in0.0 mm
08:52 AM 32.4°F0.2°C 22.6°F-5.2°C 67% 0.9 mph SSE1.4 kmh SSE 2.9 mph4.7 kmh 29.70 in1005.8 mb 0.00 in0.0 mm 0.00 in/hr0.0 mm/hr 0.00 in0.0 mm
08:51 AM 32.2°F0.1°C 22.5°F-5.3°C 67% 0.9 mph E1.4 kmh E 2.9 mph4.7 kmh 29.70 in1005.8 mb 0.00 in0.0 mm 0.00 in/hr0.0 mm/hr 0.00 in0.0 mm
08:50 AM 32.2°F0.1°C 22.5°F-5.3°C 67% 0.9 mph ENE1.4 kmh ENE 2.0 mph3.2 kmh 29.70 in1005.8 mb 0.00 in0.0 mm 0.00 in/hr0.0 mm/hr 0.00 in0.0 mm
08:49 AM 32.2°F0.1°C 23.2°F-4.9°C 69% 0.9 mph NE1.4 kmh NE 2.0 mph3.2 kmh 29.70 in1005.8 mb 0.00 in0.0 mm 0.00 in/hr0.0 mm/hr 0.00 in0.0 mm
08:48 AM 32.2°F0.1°C 22.8°F-5.1°C 68% 0.9 mph W1.4 kmh W 2.0 mph3.2 kmh 29.70 in1005.8 mb 0.00 in0.0 mm 0.00 in/hr0.0 mm/hr 0.00 in0.0 mm
08:47 AM 32.2°F0.1°C 22.8°F-5.1°C 68% 0.9 mph W1.4 kmh W 2.9 mph4.7 kmh 29.70 in1005.8 mb 0.00 in0.0 mm 0.00 in/hr0.0 mm/hr 0.00 in0.0 mm
08:46 AM 32.2°F0.1°C 22.8°F-5.1°C 68% 0.9 mph ESE1.4 kmh ESE 2.9 mph4.7 kmh 29.70 in1005.8 mb 0.00 in0.0 mm 0.00 in/hr0.0 mm/hr 0.00 in0.0 mm
08:45 AM 32.0°F0.0°C 22.3°F-5.4°C 67% 0.9 mph NE1.4 kmh NE 2.9 mph4.7 kmh 29.71 in1006.1 mb 0.00 in0.0 mm 0.00 in/hr0.0 mm/hr 0.00 in0.0 mm
08:44 AM 31.8°F-0.1°C 22.5°F-5.3°C 68% 0.9 mph ENE1.4 kmh ENE 2.0 mph3.2 kmh 29.71 in1006.1 mb 0.00 in0.0 mm 0.00 in/hr0.0 mm/hr 0.00 in0.0 mm
08:43 AM 31.8°F-0.1°C 22.5°F-5.3°C 68% 0.9 mph ENE1.4 kmh ENE 2.0 mph3.2 kmh 29.71 in1006.1 mb 0.00 in0.0 mm 0.00 in/hr0.0 mm/hr 0.00 in0.0 mm
08:42 AM 31.6°F-0.2°C 22.6°F-5.2°C 69% 2.0 mph ENE3.2 kmh ENE 2.0 mph3.2 kmh 29.71 in1006.1 mb 0.00 in0.0 mm 0.00 in/hr0.0 mm/hr 0.00 in0.0 mm
08:41 AM 31.3°F-0.4°C 22.6°F-5.2°C 70% 2.0 mph ESE3.2 kmh ESE 0.9 mph1.4 kmh 29.71 in1006.1 mb 0.00 in0.0 mm 0.00 in/hr0.0 mm/hr 0.00 in0.0 mm
08:40 AM 31.3°F-0.4°C 22.6°F-5.2°C 70% 2.0 mph W3.2 kmh W 0.9 mph1.4 kmh 29.71 in1006.1 mb 0.00 in0.0 mm 0.00 in/hr0.0 mm/hr 0.00 in0.0 mm
08:39 AM 30.9°F-0.6°C 22.3°F-5.4°C 70% 2.0 mph W3.2 kmh W 2.0 mph3.2 kmh 29.71 in1006.1 mb 0.00 in0.0 mm 0.00 in/hr0.0 mm/hr 0.00 in0.0 mm
08:38 AM 30.6°F-0.8°C 21.9°F-5.6°C 70% 2.0 mph WSW3.2 kmh WSW 2.9 mph4.7 kmh 29.71 in1006.1 mb 0.00 in0.0 mm 0.00 in/hr0.0 mm/hr 0.00 in0.0 mm
08:37 AM 30.2°F-1.0°C 21.6°F-5.8°C 70% 2.0 mph ENE3.2 kmh ENE 6.0 mph9.7 kmh 29.71 in1006.1 mb 0.00 in0.0 mm 0.00 in/hr0.0 mm/hr 0.00 in0.0 mm
08:36 AM 29.8°F-1.2°C 21.6°F-5.8°C 71% 2.0 mph E3.2 kmh E 4.0 mph6.4 kmh 29.71 in1006.1 mb 0.00 in0.0 mm 0.00 in/hr0.0 mm/hr 0.00 in0.0 mm
08:35 AM 29.7°F-1.3°C 22.1°F-5.5°C 73% 2.0 mph ESE3.2 kmh ESE 2.9 mph4.7 kmh 29.71 in1006.1 mb 0.00 in0.0 mm 0.00 in/hr0.0 mm/hr 0.00 in0.0 mm
08:34 AM 29.7°F-1.3°C 22.1°F-5.5°C 73% 2.0 mph NNW3.2 kmh NNW 2.9 mph4.7 kmh 29.71 in1006.1 mb 0.00 in0.0 mm 0.00 in/hr0.0 mm/hr 0.00 in0.0 mm
08:33 AM 29.7°F-1.3°C 22.5°F-5.3°C 74% 2.0 mph N3.2 kmh N 4.9 mph7.9 kmh 29.71 in1006.1 mb 0.00 in0.0 mm 0.00 in/hr0.0 mm/hr 0.00 in0.0 mm
08:32 AM 29.5°F-1.4°C 22.5°F-5.3°C 75% 2.0 mph WNW3.2 kmh WNW 6.9 mph11.1 kmh 29.71 in1006.1 mb 0.00 in0.0 mm 0.00 in/hr0.0 mm/hr 0.00 in0.0 mm
08:31 AM 29.5°F-1.4°C 21.9°F-5.6°C 73% 0.9 mph W1.4 kmh W 6.9 mph11.1 kmh 29.71 in1006.1 mb 0.00 in0.0 mm 0.00 in/hr0.0 mm/hr 0.00 in0.0 mm
08:29 AM 28.9°F-1.7°C 21.7°F-5.7°C 74% 2.0 mph ENE3.2 kmh ENE 2.9 mph4.7 kmh 29.74 in1007.1 mb 0.00 in0.0 mm 0.00 in/hr0.0 mm/hr 0.00 in0.0 mm
08:28 AM 28.8°F-1.8°C 21.6°F-5.8°C 74% 2.0 mph E3.2 kmh E 2.9 mph4.7 kmh 29.74 in1007.1 mb 0.00 in0.0 mm 0.00 in/hr0.0 mm/hr 0.00 in0.0 mm
08:27 AM 28.6°F-1.9°C 21.4°F-5.9°C 74% 2.0 mph NNE3.2 kmh NNE 0.9 mph1.4 kmh 29.74 in1007.1 mb 0.00 in0.0 mm 0.00 in/hr0.0 mm/hr 0.00 in0.0 mm
08:26 AM 28.6°F-1.9°C 21.4°F-5.9°C 74% 2.0 mph NNE3.2 kmh NNE 2.0 mph3.2 kmh 29.74 in1007.1 mb 0.00 in0.0 mm 0.00 in/hr0.0 mm/hr 0.00 in0.0 mm
08:25 AM 28.4°F-2.0°C 21.6°F-5.8°C 75% 2.0 mph NNE3.2 kmh NNE 2.0 mph3.2 kmh 29.74 in1007.1 mb 0.00 in0.0 mm 0.00 in/hr0.0 mm/hr 0.00 in0.0 mm
08:24 AM 28.2°F-2.1°C 21.6°F-5.8°C 76% 2.0 mph NE3.2 kmh NE 0.9 mph1.4 kmh 29.74 in1007.1 mb 0.00 in0.0 mm 0.00 in/hr0.0 mm/hr 0.00 in0.0 mm
08:23 AM 28.2°F-2.1°C 21.6°F-5.8°C 76% 2.0 mph NE3.2 kmh NE 0.9 mph1.4 kmh 29.74 in1007.1 mb 0.00 in0.0 mm 0.00 in/hr0.0 mm/hr 0.00 in0.0 mm
08:22 AM 28.2°F-2.1°C 21.9°F-5.6°C 77% 2.0 mph NNE3.2 kmh NNE 4.9 mph7.9 kmh 29.74 in1007.1 mb 0.00 in0.0 mm 0.00 in/hr0.0 mm/hr 0.00 in0.0 mm
08:21 AM 28.2°F-2.1°C 22.3°F-5.4°C 78% 2.0 mph WNW3.2 kmh WNW 8.1 mph13.0 kmh 29.74 in1007.1 mb 0.00 in0.0 mm 0.00 in/hr0.0 mm/hr 0.00 in0.0 mm
08:20 AM 28.0°F-2.2°C 21.4°F-5.9°C 76% 0.9 mph WNW1.4 kmh WNW 8.1 mph13.0 kmh 29.74 in1007.1 mb 0.00 in0.0 mm 0.00 in/hr0.0 mm/hr 0.00 in0.0 mm
08:19 AM 28.0°F-2.2°C 21.2°F-6.0°C 75% 0.9 mph ENE1.4 kmh ENE 0.9 mph1.4 kmh 29.74 in1007.1 mb 0.00 in0.0 mm 0.00 in/hr0.0 mm/hr 0.00 in0.0 mm
08:18 AM 27.9°F-2.3°C 21.2°F-6.0°C 76% 0.9 mph ENE1.4 kmh ENE 4.0 mph6.4 kmh 29.74 in1007.1 mb 0.00 in0.0 mm 0.00 in/hr0.0 mm/hr 0.00 in0.0 mm
08:17 AM 27.7°F-2.4°C 21.0°F-6.1°C 76% 0.9 mph ENE1.4 kmh ENE 4.0 mph6.4 kmh 29.74 in1007.1 mb 0.00 in0.0 mm 0.00 in/hr0.0 mm/hr 0.00 in0.0 mm
08:16 AM 27.5°F-2.5°C 21.2°F-6.0°C 77% 0.9 mph ENE1.4 kmh ENE 4.0 mph6.4 kmh 29.74 in1007.1 mb 0.00 in0.0 mm 0.00 in/hr0.0 mm/hr 0.00 in0.0 mm
08:15 AM 27.3°F-2.6°C 21.0°F-6.1°C 77% 0.9 mph ENE1.4 kmh ENE 2.0 mph3.2 kmh 29.74 in1007.1 mb 0.00 in0.0 mm 0.00 in/hr0.0 mm/hr 0.00 in0.0 mm
08:14 AM 27.3°F-2.6°C 21.4°F-5.9°C 78% 0.9 mph E1.4 kmh E 2.0 mph3.2 kmh 29.74 in1007.1 mb 0.00 in0.0 mm 0.00 in/hr0.0 mm/hr 0.00 in0.0 mm
08:13 AM 27.1°F-2.7°C 21.2°F-6.0°C 78% 0.9 mph WSW1.4 kmh WSW 0.9 mph1.4 kmh 29.74 in1007.1 mb 0.00 in0.0 mm 0.00 in/hr0.0 mm/hr 0.00 in0.0 mm
08:12 AM 27.1°F-2.7°C 20.8°F-6.2°C 77% 0.9 mph SW1.4 kmh SW 2.0 mph3.2 kmh 29.74 in1007.1 mb 0.00 in0.0 mm 0.00 in/hr0.0 mm/hr 0.00 in0.0 mm
08:11 AM 27.1°F-2.7°C 20.8°F-6.2°C 77% 0.9 mph WSW1.4 kmh WSW 2.0 mph3.2 kmh 29.74 in1007.1 mb 0.00 in0.0 mm 0.00 in/hr0.0 mm/hr 0.00 in0.0 mm
08:10 AM 27.1°F-2.7°C 21.2°F-6.0°C 78% 0.9 mph WSW1.4 kmh WSW 2.0 mph3.2 kmh 29.74 in1007.1 mb 0.00 in0.0 mm 0.00 in/hr0.0 mm/hr 0.00 in0.0 mm
08:09 AM 27.0°F-2.8°C 21.0°F-6.1°C 78% Calm Calm 2.0 mph3.2 kmh 29.74 in1007.1 mb 0.00 in0.0 mm 0.00 in/hr0.0 mm/hr 0.00 in0.0 mm
08:08 AM 27.0°F-2.8°C 20.7°F-6.3°C 77% 0.9 mph NW1.4 kmh NW 0.9 mph1.4 kmh 29.74 in1007.1 mb 0.00 in0.0 mm 0.00 in/hr0.0 mm/hr 0.00 in0.0 mm
08:07 AM 27.0°F-2.8°C 20.5°F-6.4°C 76% 0.9 mph NW1.4 kmh NW 2.0 mph3.2 kmh 29.74 in1007.1 mb 0.00 in0.0 mm 0.00 in/hr0.0 mm/hr 0.00 in0.0 mm
08:06 AM 26.8°F-2.9°C 20.3°F-6.5°C 76% 0.9 mph N1.4 kmh N 2.0 mph3.2 kmh 29.74 in1007.1 mb 0.00 in0.0 mm 0.00 in/hr0.0 mm/hr 0.00 in0.0 mm
08:05 AM 26.6°F-3.0°C 20.1°F-6.6°C 76% 0.9 mph N1.4 kmh N 0.9 mph1.4 kmh 29.74 in1007.1 mb 0.00 in0.0 mm 0.00 in/hr0.0 mm/hr 0.00 in0.0 mm
08:04 AM 26.4°F-3.1°C 20.1°F-6.6°C 77% 0.9 mph ENE1.4 kmh ENE -- 29.74 in1007.1 mb 0.00 in0.0 mm 0.00 in/hr0.0 mm/hr 0.00 in0.0 mm
08:03 AM 26.4°F-3.1°C 20.1°F-6.6°C 77% 0.9 mph ENE1.4 kmh ENE -- 29.74 in1007.1 mb 0.00 in0.0 mm 0.00 in/hr0.0 mm/hr 0.00 in0.0 mm
08:02 AM 26.2°F-3.2°C 19.9°F-6.7°C 77% 0.9 mph ENE1.4 kmh ENE 0.9 mph1.4 kmh 29.74 in1007.1 mb 0.00 in0.0 mm 0.00 in/hr0.0 mm/hr 0.00 in0.0 mm
08:01 AM 26.2°F-3.2°C 19.9°F-6.7°C 77% 0.9 mph ENE1.4 kmh ENE 0.9 mph1.4 kmh 29.74 in1007.1 mb 0.00 in0.0 mm 0.00 in/hr0.0 mm/hr 0.00 in0.0 mm
08:00 AM 26.1°F-3.3°C 20.1°F-6.6°C 78% 0.9 mph NW1.4 kmh NW 0.9 mph1.4 kmh 29.76 in1007.8 mb 0.00 in0.0 mm 0.00 in/hr0.0 mm/hr 0.00 in0.0 mm
07:59 AM 26.1°F-3.3°C 20.1°F-6.6°C 78% 0.9 mph NNW1.4 kmh NNW 2.9 mph4.7 kmh 29.76 in1007.8 mb 0.00 in0.0 mm 0.00 in/hr0.0 mm/hr 0.00 in0.0 mm
07:58 AM 25.9°F-3.4°C 19.9°F-6.7°C 78% 0.9 mph NNE1.4 kmh NNE 4.0 mph6.4 kmh 29.76 in1007.8 mb 0.00 in0.0 mm 0.00 in/hr0.0 mm/hr 0.00 in0.0 mm
07:57 AM 25.9°F-3.4°C 19.9°F-6.7°C 78% 0.9 mph NNE1.4 kmh NNE 4.0 mph6.4 kmh 29.76 in1007.8 mb 0.00 in0.0 mm 0.00 in/hr0.0 mm/hr 0.00 in0.0 mm
07:56 AM 25.7°F-3.5°C 20.1°F-6.6°C 79% Calm Calm 2.0 mph3.2 kmh 29.76 in1007.8 mb 0.00 in0.0 mm 0.00 in/hr0.0 mm/hr 0.00 in0.0 mm
07:55 AM 25.5°F-3.6°C 19.9°F-6.7°C 79% Calm Calm 0.9 mph1.4 kmh 29.76 in1007.8 mb 0.00 in0.0 mm 0.00 in/hr0.0 mm/hr 0.00 in0.0 mm
07:54 AM 25.5°F-3.6°C 19.9°F-6.7°C 79% Calm Calm 0.9 mph1.4 kmh 29.76 in1007.8 mb 0.00 in0.0 mm 0.00 in/hr0.0 mm/hr 0.00 in0.0 mm
07:53 AM 25.5°F-3.6°C 19.9°F-6.7°C 79% Calm Calm 0.9 mph1.4 kmh 29.76 in1007.8 mb 0.00 in0.0 mm 0.00 in/hr0.0 mm/hr 0.00 in0.0 mm
07:52 AM 25.5°F-3.6°C 19.9°F-6.7°C 79% 0.9 mph SW1.4 kmh SW -- 29.76 in1007.8 mb 0.00 in0.0 mm 0.00 in/hr0.0 mm/hr 0.00 in0.0 mm
07:51 AM 25.5°F-3.6°C 19.9°F-6.7°C 79% 0.9 mph SW1.4 kmh SW -- 29.76 in1007.8 mb 0.00 in0.0 mm 0.00 in/hr0.0 mm/hr 0.00 in0.0 mm
07:50 AM 25.3°F-3.7°C 19.8°F-6.8°C 79% 0.9 mph SW1.4 kmh SW 0.9 mph1.4 kmh 29.76 in1007.8 mb 0.00 in0.0 mm 0.00 in/hr0.0 mm/hr 0.00 in0.0 mm
07:49 AM 25.3°F-3.7°C 19.8°F-6.8°C 79% 0.9 mph SW1.4 kmh SW 0.9 mph1.4 kmh 29.76 in1007.8 mb 0.00 in0.0 mm 0.00 in/hr0.0 mm/hr 0.00 in0.0 mm
07:48 AM 25.3°F-3.7°C 19.8°F-6.8°C 79% 0.9 mph SW1.4 kmh SW 2.0 mph3.2 kmh 29.76 in1007.8 mb 0.00 in0.0 mm 0.00 in/hr0.0 mm/hr 0.00 in0.0 mm
07:47 AM 25.3°F-3.7°C 19.8°F-6.8°C 79% 0.9 mph SW1.4 kmh SW 2.0 mph3.2 kmh 29.76 in1007.8 mb 0.00 in0.0 mm 0.00 in/hr0.0 mm/hr 0.00 in0.0 mm
07:46 AM 25.5°F-3.6°C 19.6°F-6.9°C 78% 0.9 mph N1.4 kmh N 0.9 mph1.4 kmh 29.76 in1007.8 mb 0.00 in0.0 mm 0.00 in/hr0.0 mm/hr 0.00 in0.0 mm
07:45 AM 25.5°F-3.6°C 19.6°F-6.9°C 78% 0.9 mph WNW1.4 kmh WNW 0.9 mph1.4 kmh 29.77 in1008.1 mb 0.00 in0.0 mm 0.00 in/hr0.0 mm/hr 0.00 in0.0 mm
07:44 AM 25.5°F-3.6°C 19.6°F-6.9°C 78% 2.0 mph NW3.2 kmh NW 2.9 mph4.7 kmh 29.77 in1008.1 mb 0.00 in0.0 mm 0.00 in/hr0.0 mm/hr 0.00 in0.0 mm
07:43 AM 25.9°F-3.4°C 19.8°F-6.8°C 77% 2.0 mph NW3.2 kmh NW 4.0 mph6.4 kmh 29.77 in1008.1 mb 0.00 in0.0 mm 0.00 in/hr0.0 mm/hr 0.00 in0.0 mm
07:42 AM 25.9°F-3.4°C 19.8°F-6.8°C 77% 2.0 mph NW3.2 kmh NW 4.0 mph6.4 kmh 29.77 in1008.1 mb 0.00 in0.0 mm 0.00 in/hr0.0 mm/hr 0.00 in0.0 mm
07:41 AM 26.1°F-3.3°C 19.6°F-6.9°C 76% 2.0 mph WNW3.2 kmh WNW 4.0 mph6.4 kmh 29.77 in1008.1 mb 0.00 in0.0 mm 0.00 in/hr0.0 mm/hr 0.00 in0.0 mm
07:40 AM 26.1°F-3.3°C 19.6°F-6.9°C 76% 2.0 mph E3.2 kmh E 2.0 mph3.2 kmh 29.77 in1008.1 mb 0.00 in0.0 mm 0.00 in/hr0.0 mm/hr 0.00 in0.0 mm
07:39 AM 25.9°F-3.4°C 19.4°F-7.0°C 76% 2.0 mph E3.2 kmh E 2.0 mph3.2 kmh 29.77 in1008.1 mb 0.00 in0.0 mm 0.00 in/hr0.0 mm/hr 0.00 in0.0 mm
07:38 AM 26.1°F-3.3°C 19.6°F-6.9°C 76% 2.0 mph SE3.2 kmh SE 2.0 mph3.2 kmh 29.77 in1008.1 mb 0.00 in0.0 mm 0.00 in/hr0.0 mm/hr 0.00 in0.0 mm
07:37 AM 26.1°F-3.3°C 19.6°F-6.9°C 76% 2.0 mph NNW3.2 kmh NNW 0.9 mph1.4 kmh 29.77 in1008.1 mb 0.00 in0.0 mm 0.00 in/hr0.0 mm/hr 0.00 in0.0 mm
07:36 AM 26.2°F-3.2°C 19.8°F-6.8°C 76% 2.0 mph NNW3.2 kmh NNW 2.0 mph3.2 kmh 29.77 in1008.1 mb 0.00 in0.0 mm 0.00 in/hr0.0 mm/hr 0.00 in0.0 mm
07:35 AM 26.4°F-3.1°C 19.9°F-6.7°C 76% 2.9 mph NW4.7 kmh NW 4.0 mph6.4 kmh 29.77 in1008.1 mb 0.00 in0.0 mm 0.00 in/hr0.0 mm/hr 0.00 in0.0 mm
07:34 AM 26.4°F-3.1°C 19.9°F-6.7°C 76% 2.9 mph NW4.7 kmh NW 4.9 mph7.9 kmh 29.77 in1008.1 mb 0.00 in0.0 mm 0.00 in/hr0.0 mm/hr 0.00 in0.0 mm
07:33 AM 26.1°F-3.3°C 19.8°F-6.8°C 77% 2.9 mph E4.7 kmh E 8.1 mph13.0 kmh 29.77 in1008.1 mb 0.00 in0.0 mm 0.00 in/hr0.0 mm/hr 0.00 in0.0 mm
07:32 AM 25.7°F-3.5°C 19.8°F-6.8°C 78% 2.0 mph ESE3.2 kmh ESE 9.0 mph14.5 kmh 29.77 in1008.1 mb 0.00 in0.0 mm 0.00 in/hr0.0 mm/hr 0.00 in0.0 mm
07:31 AM 25.5°F-3.6°C 19.9°F-6.7°C 79% 2.0 mph ESE3.2 kmh ESE 4.0 mph6.4 kmh 29.77 in1008.1 mb 0.00 in0.0 mm 0.00 in/hr0.0 mm/hr 0.00 in0.0 mm
07:30 AM 25.5°F-3.6°C 19.9°F-6.7°C 79% 0.9 mph WNW1.4 kmh WNW 6.0 mph9.7 kmh 29.78 in1008.5 mb 0.00 in0.0 mm 0.00 in/hr0.0 mm/hr 0.00 in0.0 mm
07:29 AM 25.5°F-3.6°C 19.9°F-6.7°C 79% 0.9 mph NW1.4 kmh NW 5.0 mph8.0 kmh 29.78 in1008.5 mb 0.00 in0.0 mm 0.00 in/hr0.0 mm/hr 0.00 in0.0 mm
07:28 AM 25.5°F-3.6°C 19.9°F-6.7°C 79% 0.9 mph SE1.4 kmh SE 5.0 mph8.0 kmh 29.78 in1008.5 mb 0.00 in0.0 mm 0.00 in/hr0.0 mm/hr 0.00 in0.0 mm
07:27 AM 25.5°F-3.6°C 19.9°F-6.7°C 79% 0.9 mph E1.4 kmh E 2.9 mph4.7 kmh 29.78 in1008.5 mb 0.00 in0.0 mm 0.00 in/hr0.0 mm/hr 0.00 in0.0 mm
07:26 AM 25.5°F-3.6°C 19.9°F-6.7°C 79% 0.9 mph SSW1.4 kmh SSW 2.9 mph4.7 kmh 29.78 in1008.5 mb 0.00 in0.0 mm 0.00 in/hr0.0 mm/hr 0.00 in0.0 mm
07:25 AM 25.5°F-3.6°C 19.9°F-6.7°C 79% 0.9 mph NW1.4 kmh NW 2.9 mph4.7 kmh 29.78 in1008.5 mb 0.00 in0.0 mm 0.00 in/hr0.0 mm/hr 0.00 in0.0 mm
07:24 AM 25.5°F-3.6°C 19.9°F-6.7°C 79% 0.9 mph NW1.4 kmh NW 2.9 mph4.7 kmh 29.78 in1008.5 mb 0.00 in0.0 mm 0.00 in/hr0.0 mm/hr 0.00 in0.0 mm
07:23 AM 25.5°F-3.6°C 19.9°F-6.7°C 79% 0.9 mph NNW1.4 kmh NNW 2.0 mph3.2 kmh 29.78 in1008.5 mb 0.00 in0.0 mm 0.00 in/hr0.0 mm/hr 0.00 in0.0 mm
07:22 AM 25.5°F-3.6°C 19.9°F-6.7°C 79% 0.9 mph WSW1.4 kmh WSW -- 29.78 in1008.5 mb 0.00 in0.0 mm 0.00 in/hr0.0 mm/hr 0.00 in0.0 mm
07:21 AM 25.5°F-3.6°C 19.9°F-6.7°C 79% 0.9 mph WSW1.4 kmh WSW -- 29.78 in1008.5 mb 0.00 in0.0 mm 0.00 in/hr0.0 mm/hr 0.00 in0.0 mm
07:20 AM 25.5°F-3.6°C 19.6°F-6.9°C 78% 0.9 mph WSW1.4 kmh WSW 2.0 mph3.2 kmh 29.78 in1008.5 mb 0.00 in0.0 mm 0.00 in/hr0.0 mm/hr 0.00 in0.0 mm
07:19 AM 25.5°F-3.6°C 19.6°F-6.9°C 78% 0.9 mph WSW1.4 kmh WSW 2.0 mph3.2 kmh 29.78 in1008.5 mb 0.00 in0.0 mm 0.00 in/hr0.0 mm/hr 0.00 in0.0 mm
07:18 AM 25.3°F-3.7°C 19.8°F-6.8°C 79% 0.9 mph NNW1.4 kmh NNW 0.9 mph1.4 kmh 29.78 in1008.5 mb 0.00 in0.0 mm 0.00 in/hr0.0 mm/hr 0.00 in0.0 mm
07:17 AM 25.3°F-3.7°C 19.8°F-6.8°C 79% 0.9 mph NW1.4 kmh NW 2.0 mph3.2 kmh 29.78 in1008.5 mb 0.00 in0.0 mm 0.00 in/hr0.0 mm/hr 0.00 in0.0 mm
07:16 AM 25.3°F-3.7°C 19.8°F-6.8°C 79% 0.9 mph WSW1.4 kmh WSW 2.9 mph4.7 kmh 29.78 in1008.5 mb 0.00 in0.0 mm 0.00 in/hr0.0 mm/hr 0.00 in0.0 mm
07:15 AM 25.2°F-3.8°C 19.6°F-6.9°C 79% 0.9 mph NE1.4 kmh NE 2.9 mph4.7 kmh 29.80 in1009.1 mb 0.00 in0.0 mm 0.00 in/hr0.0 mm/hr 0.00 in0.0 mm
07:14 AM 25.2°F-3.8°C 19.6°F-6.9°C 79% 2.0 mph SE3.2 kmh SE 4.0 mph6.4 kmh 29.80 in1009.1 mb 0.00 in0.0 mm 0.00 in/hr0.0 mm/hr 0.00 in0.0 mm
07:13 AM 25.2°F-3.8°C 19.6°F-6.9°C 79% 2.0 mph SW3.2 kmh SW 4.0 mph6.4 kmh 29.80 in1009.1 mb 0.00 in0.0 mm 0.00 in/hr0.0 mm/hr 0.00 in0.0 mm
07:12 AM 25.0°F-3.9°C 19.4°F-7.0°C 79% 2.0 mph SE3.2 kmh SE 0.9 mph1.4 kmh 29.80 in1009.1 mb 0.00 in0.0 mm 0.00 in/hr0.0 mm/hr 0.00 in0.0 mm
07:11 AM 25.0°F-3.9°C 19.4°F-7.0°C 79% 2.9 mph SE4.7 kmh SE 0.9 mph1.4 kmh 29.80 in1009.1 mb 0.00 in0.0 mm 0.00 in/hr0.0 mm/hr 0.00 in0.0 mm
07:10 AM 25.0°F-3.9°C 19.4°F-7.0°C 79% 2.9 mph S4.7 kmh S 4.0 mph6.4 kmh 29.80 in1009.1 mb 0.00 in0.0 mm 0.00 in/hr0.0 mm/hr 0.00 in0.0 mm
07:09 AM 24.8°F-4.0°C 19.2°F-7.1°C 79% 4.0 mph SW6.4 kmh SW 4.0 mph6.4 kmh 29.80 in1009.1 mb 0.00 in0.0 mm 0.00 in/hr0.0 mm/hr 0.00 in0.0 mm
07:08 AM 24.6°F-4.1°C 19.4°F-7.0°C 80% 4.0 mph SE6.4 kmh SE 2.0 mph3.2 kmh 29.80 in1009.1 mb 0.00 in0.0 mm 0.00 in/hr0.0 mm/hr 0.00 in0.0 mm
07:07 AM 24.6°F-4.1°C 19.4°F-7.0°C 80% 4.0 mph ESE6.4 kmh ESE 4.9 mph7.9 kmh 29.80 in1009.1 mb 0.00 in0.0 mm 0.00 in/hr0.0 mm/hr 0.00 in0.0 mm
07:06 AM 24.6°F-4.1°C 19.4°F-7.0°C 80% 4.0 mph SSW6.4 kmh SSW 4.9 mph7.9 kmh 29.80 in1009.1 mb 0.00 in0.0 mm 0.00 in/hr0.0 mm/hr 0.00 in0.0 mm
07:05 AM 24.4°F-4.2°C 19.4°F-7.0°C 81% 4.0 mph SE6.4 kmh SE 4.0 mph6.4 kmh 29.80 in1009.1 mb 0.00 in0.0 mm 0.00 in/hr0.0 mm/hr 0.00 in0.0 mm
07:04 AM 24.4°F-4.2°C 19.4°F-7.0°C 81% 4.0 mph S6.4 kmh S 6.0 mph9.7 kmh 29.80 in1009.1 mb 0.00 in0.0 mm 0.00 in/hr0.0 mm/hr 0.00 in0.0 mm
07:03 AM 24.4°F-4.2°C 19.4°F-7.0°C 81% 2.9 mph SSW4.7 kmh SSW 6.0 mph9.7 kmh 29.80 in1009.1 mb 0.00 in0.0 mm 0.00 in/hr0.0 mm/hr 0.00 in0.0 mm
07:02 AM 24.4°F-4.2°C 19.4°F-7.0°C 81% 2.9 mph SSE4.7 kmh SSE 6.0 mph9.7 kmh 29.80 in1009.1 mb 0.00 in0.0 mm 0.00 in/hr0.0 mm/hr 0.00 in0.0 mm
07:01 AM 24.4°F-4.2°C 18.9°F-7.3°C 79% 2.0 mph SW3.2 kmh SW 6.9 mph11.1 kmh 29.80 in1009.1 mb 0.00 in0.0 mm 0.00 in/hr0.0 mm/hr 0.00 in0.0 mm
07:00 AM 24.4°F-4.2°C 18.9°F-7.3°C 79% 2.0 mph SSE3.2 kmh SSE 8.1 mph13.0 kmh 29.80 in1009.1 mb 0.00 in0.0 mm 0.00 in/hr0.0 mm/hr 0.00 in0.0 mm
06:59 AM 24.3°F-4.3°C 19.0°F-7.2°C 80% 2.0 mph E3.2 kmh E 6.0 mph9.7 kmh 29.80 in1009.1 mb 0.00 in0.0 mm 0.00 in/hr0.0 mm/hr 0.00 in0.0 mm
06:58 AM 24.3°F-4.3°C 19.0°F-7.2°C 80% 0.9 mph N1.4 kmh N 4.9 mph7.9 kmh 29.80 in1009.1 mb 0.00 in0.0 mm 0.00 in/hr0.0 mm/hr 0.00 in0.0 mm
06:57 AM 24.1°F-4.4°C 18.9°F-7.3°C 80% 0.9 mph E1.4 kmh E 4.9 mph7.9 kmh 29.80 in1009.1 mb 0.00 in0.0 mm 0.00 in/hr0.0 mm/hr 0.00 in0.0 mm
06:56 AM 24.1°F-4.4°C 18.9°F-7.3°C 80% 0.9 mph NW1.4 kmh NW 2.9 mph4.7 kmh 29.80 in1009.1 mb 0.00 in0.0 mm 0.00 in/hr0.0 mm/hr 0.00 in0.0 mm
06:55 AM 24.1°F-4.4°C 18.9°F-7.3°C 80% 0.9 mph ENE1.4 kmh ENE 2.9 mph4.7 kmh 29.80 in1009.1 mb 0.00 in0.0 mm 0.00 in/hr0.0 mm/hr 0.00 in0.0 mm
06:54 AM 23.9°F-4.5°C 18.7°F-7.4°C 80% 0.9 mph NW1.4 kmh NW 3.0 mph4.8 kmh 29.80 in1009.1 mb 0.00 in0.0 mm 0.00 in/hr0.0 mm/hr 0.00 in0.0 mm
06:53 AM 23.9°F-4.5°C 18.7°F-7.4°C 80% 0.9 mph NW1.4 kmh NW 2.0 mph3.2 kmh 29.80 in1009.1 mb 0.00 in0.0 mm 0.00 in/hr0.0 mm/hr 0.00 in0.0 mm
06:52 AM 23.7°F-4.6°C 18.7°F-7.4°C 81% Calm Calm 0.9 mph1.4 kmh 29.80 in1009.1 mb 0.00 in0.0 mm 0.00 in/hr0.0 mm/hr 0.00 in0.0 mm
06:51 AM 23.5°F-4.7°C 18.5°F-7.5°C 81% 0.9 mph ENE1.4 kmh ENE 0.9 mph1.4 kmh 29.80 in1009.1 mb 0.00 in0.0 mm 0.00 in/hr0.0 mm/hr 0.00 in0.0 mm
06:50 AM 23.5°F-4.7°C 18.5°F-7.5°C 81% 0.9 mph ENE1.4 kmh ENE 2.0 mph3.2 kmh 29.80 in1009.1 mb 0.00 in0.0 mm 0.00 in/hr0.0 mm/hr 0.00 in0.0 mm
06:49 AM 23.5°F-4.7°C 18.5°F-7.5°C 81% 0.9 mph ENE1.4 kmh ENE 2.0 mph3.2 kmh 29.80 in1009.1 mb 0.00 in0.0 mm 0.00 in/hr0.0 mm/hr 0.00 in0.0 mm
06:48 AM 23.5°F-4.7°C 18.5°F-7.5°C 81% 0.9 mph ENE1.4 kmh ENE 0.9 mph1.4 kmh 29.80 in1009.1 mb 0.00 in0.0 mm 0.00 in/hr0.0 mm/hr 0.00 in0.0 mm
06:47 AM 23.5°F-4.7°C 18.5°F-7.5°C 81% 0.9 mph ENE1.4 kmh ENE 2.0 mph3.2 kmh 29.80 in1009.1 mb 0.00 in0.0 mm 0.00 in/hr0.0 mm/hr 0.00 in0.0 mm
06:46 AM 23.5°F-4.7°C 18.5°F-7.5°C 81% Calm Calm 2.0 mph3.2 kmh 29.80 in1009.1 mb 0.00 in0.0 mm 0.00 in/hr0.0 mm/hr 0.00 in0.0 mm
06:45 AM 23.7°F-4.6°C 18.7°F-7.4°C 81% Calm Calm 2.0 mph3.2 kmh 29.80 in1009.1 mb 0.00 in0.0 mm 0.00 in/hr0.0 mm/hr 0.00 in0.0 mm
06:44 AM 23.7°F-4.6°C 18.7°F-7.4°C 81% Calm Calm 0.9 mph1.4 kmh 29.80 in1009.1 mb 0.00 in0.0 mm 0.00 in/hr0.0 mm/hr 0.00 in0.0 mm
06:43 AM 23.9°F-4.5°C 18.7°F-7.4°C 80% Calm Calm 0.9 mph1.4 kmh 29.80 in1009.1 mb 0.00 in0.0 mm 0.00 in/hr0.0 mm/hr 0.00 in0.0 mm
06:42 AM 24.1°F-4.4°C 18.9°F-7.3°C 80% Calm Calm 2.0 mph3.2 kmh 29.80 in1009.1 mb 0.00 in0.0 mm 0.00 in/hr0.0 mm/hr 0.00 in0.0 mm
06:41 AM 24.1°F-4.4°C 18.9°F-7.3°C 80% Calm Calm 2.9 mph4.7 kmh 29.80 in1009.1 mb 0.00 in0.0 mm 0.00 in/hr0.0 mm/hr 0.00 in0.0 mm
06:39 AM 24.1°F-4.4°C 18.5°F-7.5°C 79% Calm Calm 0.9 mph1.4 kmh 29.80 in1009.1 mb 0.00 in0.0 mm 0.00 in/hr0.0 mm/hr 0.00 in0.0 mm
06:38 AM 23.9°F-4.5°C 18.7°F-7.4°C 80% Calm Calm -- 29.80 in1009.1 mb 0.00 in0.0 mm 0.00 in/hr0.0 mm/hr 0.00 in0.0 mm
06:37 AM 23.9°F-4.5°C 18.7°F-7.4°C 80% Calm Calm -- 29.80 in1009.1 mb 0.00 in0.0 mm 0.00 in/hr0.0 mm/hr 0.00 in0.0 mm
06:36 AM 23.9°F-4.5°C 18.7°F-7.4°C 80% Calm Calm 0.9 mph1.4 kmh 29.80 in1009.1 mb 0.00 in0.0 mm 0.00 in/hr0.0 mm/hr 0.00 in0.0 mm
06:35 AM 23.7°F-4.6°C 18.5°F-7.5°C 80% Calm Calm 0.9 mph1.4 kmh 29.80 in1009.1 mb 0.00 in0.0 mm 0.00 in/hr0.0 mm/hr 0.00 in0.0 mm
06:34 AM 23.7°F-4.6°C 18.5°F-7.5°C 80% Calm Calm 0.9 mph1.4 kmh 29.80 in1009.1 mb 0.00 in0.0 mm 0.00 in/hr0.0 mm/hr 0.00 in0.0 mm
06:33 AM 23.7°F-4.6°C 18.5°F-7.5°C 80% Calm Calm 0.9 mph1.4 kmh 29.80 in1009.1 mb 0.00 in0.0 mm 0.00 in/hr0.0 mm/hr 0.00 in0.0 mm
06:32 AM 23.7°F-4.6°C 18.5°F-7.5°C 80% Calm Calm -- 29.80 in1009.1 mb 0.00 in0.0 mm 0.00 in/hr0.0 mm/hr 0.00 in0.0 mm
06:31 AM 23.7°F-4.6°C 18.5°F-7.5°C 80% Calm Calm -- 29.80 in1009.1 mb 0.00 in0.0 mm 0.00 in/hr0.0 mm/hr 0.00 in0.0 mm
06:30 AM 23.5°F-4.7°C 18.5°F-7.5°C 81% Calm Calm 2.0 mph3.2 kmh 29.80 in1009.1 mb 0.00 in0.0 mm 0.00 in/hr0.0 mm/hr 0.00 in0.0 mm
06:29 AM 23.5°F-4.7°C 18.5°F-7.5°C 81% Calm Calm 2.0 mph3.2 kmh 29.80 in1009.1 mb 0.00 in0.0 mm 0.00 in/hr0.0 mm/hr 0.00 in0.0 mm
06:28 AM 23.4°F-4.8°C 18.3°F-7.6°C 81% Calm Calm 0.9 mph1.4 kmh 29.80 in1009.1 mb 0.00 in0.0 mm 0.00 in/hr0.0 mm/hr 0.00 in0.0 mm
06:27 AM 23.4°F-4.8°C 18.3°F-7.6°C 81% Calm Calm 0.9 mph1.4 kmh 29.80 in1009.1 mb 0.00 in0.0 mm 0.00 in/hr0.0 mm/hr 0.00 in0.0 mm
06:26 AM 23.2°F-4.9°C 18.5°F-7.5°C 82% 0.9 mph ESE1.4 kmh ESE -- 29.80 in1009.1 mb 0.00 in0.0 mm 0.00 in/hr0.0 mm/hr 0.00 in0.0 mm
06:25 AM 23.2°F-4.9°C 18.5°F-7.5°C 82% 0.9 mph ESE1.4 kmh ESE 0.9 mph1.4 kmh 29.80 in1009.1 mb 0.00 in0.0 mm 0.00 in/hr0.0 mm/hr 0.00 in0.0 mm
06:24 AM 23.2°F-4.9°C 18.5°F-7.5°C 82% 0.9 mph ESE1.4 kmh ESE 2.9 mph4.7 kmh 29.80 in1009.1 mb 0.00 in0.0 mm 0.00 in/hr0.0 mm/hr 0.00 in0.0 mm
06:23 AM 23.0°F-5.0°C 18.3°F-7.6°C 82% 0.9 mph ESE1.4 kmh ESE 2.9 mph4.7 kmh 29.80 in1009.1 mb 0.00 in0.0 mm 0.00 in/hr0.0 mm/hr 0.00 in0.0 mm
06:22 AM 23.2°F-4.9°C 18.5°F-7.5°C 82% 0.9 mph SE1.4 kmh SE 0.9 mph1.4 kmh 29.80 in1009.1 mb 0.00 in0.0 mm 0.00 in/hr0.0 mm/hr 0.00 in0.0 mm
06:21 AM 23.2°F-4.9°C 18.5°F-7.5°C 82% 0.9 mph WNW1.4 kmh WNW 0.9 mph1.4 kmh 29.80 in1009.1 mb 0.00 in0.0 mm 0.00 in/hr0.0 mm/hr 0.00 in0.0 mm
06:20 AM 23.2°F-4.9°C 18.1°F-7.7°C 81% 0.9 mph WNW1.4 kmh WNW 0.9 mph1.4 kmh 29.80 in1009.1 mb 0.00 in0.0 mm 0.00 in/hr0.0 mm/hr 0.00 in0.0 mm
06:19 AM 23.4°F-4.8°C 18.3°F-7.6°C 81% 0.9 mph WNW1.4 kmh WNW 2.0 mph3.2 kmh 29.80 in1009.1 mb 0.00 in0.0 mm 0.00 in/hr0.0 mm/hr 0.00 in0.0 mm
06:18 AM 23.4°F-4.8°C 18.1°F-7.7°C 80% 0.9 mph WNW1.4 kmh WNW 2.0 mph3.2 kmh 29.80 in1009.1 mb 0.00 in0.0 mm 0.00 in/hr0.0 mm/hr 0.00 in0.0 mm
06:17 AM 23.4°F-4.8°C 18.1°F-7.7°C 80% 0.9 mph S1.4 kmh S 0.9 mph1.4 kmh 29.80 in1009.1 mb 0.00 in0.0 mm 0.00 in/hr0.0 mm/hr 0.00 in0.0 mm
06:16 AM 23.4°F-4.8°C 18.3°F-7.6°C 81% 0.9 mph S1.4 kmh S 0.9 mph1.4 kmh 29.80 in1009.1 mb 0.00 in0.0 mm 0.00 in/hr0.0 mm/hr 0.00 in0.0 mm
06:15 AM 23.2°F-4.9°C 18.1°F-7.7°C 81% 0.9 mph SE1.4 kmh SE 2.0 mph3.2 kmh 29.81 in1009.5 mb 0.00 in0.0 mm 0.00 in/hr0.0 mm/hr 0.00 in0.0 mm
06:14 AM 23.2°F-4.9°C 18.1°F-7.7°C 81% 0.9 mph SE1.4 kmh SE 0.9 mph1.4 kmh 29.81 in1009.5 mb 0.00 in0.0 mm 0.00 in/hr0.0 mm/hr 0.00 in0.0 mm
06:13 AM 23.2°F-4.9°C 18.0°F-7.8°C 80% 0.9 mph NNW1.4 kmh NNW 0.9 mph1.4 kmh 29.81 in1009.5 mb 0.00 in0.0 mm 0.00 in/hr0.0 mm/hr 0.00 in0.0 mm
06:12 AM 23.2°F-4.9°C 18.1°F-7.7°C 81% 0.9 mph NNW1.4 kmh NNW 2.0 mph3.2 kmh 29.81 in1009.5 mb 0.00 in0.0 mm 0.00 in/hr0.0 mm/hr 0.00 in0.0 mm
06:11 AM 23.2°F-4.9°C 18.1°F-7.7°C 81% 0.9 mph NNW1.4 kmh NNW 4.9 mph7.9 kmh 29.81 in1009.5 mb 0.00 in0.0 mm 0.00 in/hr0.0 mm/hr 0.00 in0.0 mm
06:10 AM 23.2°F-4.9°C 18.1°F-7.7°C 81% 0.9 mph NNW1.4 kmh NNW 4.0 mph6.4 kmh 29.81 in1009.5 mb 0.00 in0.0 mm 0.00 in/hr0.0 mm/hr 0.00 in0.0 mm
06:09 AM 23.2°F-4.9°C 18.1°F-7.7°C 81% 0.9 mph SSE1.4 kmh SSE -- 29.81 in1009.5 mb 0.00 in0.0 mm 0.00 in/hr0.0 mm/hr 0.00 in0.0 mm
06:08 AM 23.2°F-4.9°C 18.1°F-7.7°C 81% 0.9 mph SSE1.4 kmh SSE 0.9 mph1.4 kmh 29.81 in1009.5 mb 0.00 in0.0 mm 0.00 in/hr0.0 mm/hr 0.00 in0.0 mm
06:07 AM 23.0°F-5.0°C 18.0°F-7.8°C 81% 0.9 mph SSE1.4 kmh SSE 2.0 mph3.2 kmh 29.81 in1009.5 mb 0.00 in0.0 mm 0.00 in/hr0.0 mm/hr 0.00 in0.0 mm
06:06 AM 23.0°F-5.0°C 18.0°F-7.8°C 81% Calm Calm 0.9 mph1.4 kmh 29.81 in1009.5 mb 0.00 in0.0 mm 0.00 in/hr0.0 mm/hr 0.00 in0.0 mm
06:05 AM 22.8°F-5.1°C 18.0°F-7.8°C 81% Calm Calm 0.9 mph1.4 kmh 29.81 in1009.5 mb 0.00 in0.0 mm 0.00 in/hr0.0 mm/hr 0.00 in0.0 mm
06:04 AM 22.8°F-5.1°C 18.0°F-7.8°C 81% Calm Calm 2.0 mph3.2 kmh 29.81 in1009.5 mb 0.00 in0.0 mm 0.00 in/hr0.0 mm/hr 0.00 in0.0 mm
06:03 AM 22.8°F-5.1°C 18.0°F-7.8°C 81% Calm Calm 2.0 mph3.2 kmh 29.81 in1009.5 mb 0.00 in0.0 mm 0.00 in/hr0.0 mm/hr 0.00 in0.0 mm
06:02 AM 22.8°F-5.1°C 18.0°F-7.8°C 81% Calm Calm 0.9 mph1.4 kmh 29.81 in1009.5 mb 0.00 in0.0 mm 0.00 in/hr0.0 mm/hr 0.00 in0.0 mm
06:01 AM 22.8°F-5.1°C 18.0°F-7.8°C 81% Calm Calm 0.9 mph1.4 kmh 29.81 in1009.5 mb 0.00 in0.0 mm 0.00 in/hr0.0 mm/hr 0.00 in0.0 mm
06:00 AM 22.8°F-5.1°C 18.0°F-7.8°C 81% Calm Calm -- 29.80 in1009.1 mb 0.00 in0.0 mm 0.00 in/hr0.0 mm/hr 0.00 in0.0 mm
05:59 AM 22.8°F-5.1°C 18.0°F-7.8°C 81% Calm Calm -- 29.80 in1009.1 mb 0.00 in0.0 mm 0.00 in/hr0.0 mm/hr 0.00 in0.0 mm
05:58 AM 22.8°F-5.1°C 18.0°F-7.8°C 81% Calm Calm -- 29.80 in1009.1 mb 0.00 in0.0 mm 0.00 in/hr0.0 mm/hr 0.00 in0.0 mm
05:57 AM 22.8°F-5.1°C 18.0°F-7.8°C 81% Calm Calm -- 29.80 in1009.1 mb 0.00 in0.0 mm 0.00 in/hr0.0 mm/hr 0.00 in0.0 mm
05:56 AM 22.8°F-5.1°C 18.0°F-7.8°C 81% Calm Calm 0.9 mph1.4 kmh 29.80 in1009.1 mb 0.00 in0.0 mm 0.00 in/hr0.0 mm/hr 0.00 in0.0 mm
05:55 AM 22.8°F-5.1°C 18.0°F-7.8°C 81% Calm Calm 0.9 mph1.4 kmh 29.80 in1009.1 mb 0.00 in0.0 mm 0.00 in/hr0.0 mm/hr 0.00 in0.0 mm
05:54 AM 22.6°F-5.2°C 17.8°F-7.9°C 81% Calm Calm 2.0 mph3.2 kmh 29.80 in1009.1 mb 0.00 in0.0 mm 0.00 in/hr0.0 mm/hr 0.00 in0.0 mm
05:53 AM 22.8°F-5.1°C 18.0°F-7.8°C 81% Calm Calm 2.0 mph3.2 kmh 29.80 in1009.1 mb 0.00 in0.0 mm 0.00 in/hr0.0 mm/hr 0.00 in0.0 mm
05:52 AM 22.8°F-5.1°C 18.0°F-7.8°C 81% Calm Calm -- 29.80 in1009.1 mb 0.00 in0.0 mm 0.00 in/hr0.0 mm/hr 0.00 in0.0 mm
05:50 AM 22.8°F-5.1°C 18.0°F-7.8°C 81% Calm Calm 0.9 mph1.4 kmh 29.80 in1009.1 mb 0.00 in0.0 mm 0.00 in/hr0.0 mm/hr 0.00 in0.0 mm
05:49 AM 22.8°F-5.1°C 17.6°F-8.0°C 80% Calm Calm 0.9 mph1.4 kmh 29.80 in1009.1 mb 0.00 in0.0 mm 0.00 in/hr0.0 mm/hr 0.00 in0.0 mm
05:48 AM 23.0°F-5.0°C 17.8°F-7.9°C 80% 0.9 mph NW1.4 kmh NW 0.9 mph1.4 kmh 29.80 in1009.1 mb 0.00 in0.0 mm 0.00 in/hr0.0 mm/hr 0.00 in0.0 mm
05:47 AM 23.0°F-5.0°C 17.8°F-7.9°C 80% 0.9 mph NW1.4 kmh NW 0.9 mph1.4 kmh 29.80 in1009.1 mb 0.00 in0.0 mm 0.00 in/hr0.0 mm/hr 0.00 in0.0 mm
05:46 AM 22.8°F-5.1°C 17.6°F-8.0°C 80% 0.9 mph NNW1.4 kmh NNW 0.9 mph1.4 kmh 29.80 in1009.1 mb 0.00 in0.0 mm 0.00 in/hr0.0 mm/hr 0.00 in0.0 mm
05:45 AM 22.8°F-5.1°C 17.6°F-8.0°C 80% 0.9 mph NNW1.4 kmh NNW -- 29.80 in1009.1 mb 0.00 in0.0 mm 0.00 in/hr0.0 mm/hr 0.00 in0.0 mm
05:44 AM 22.8°F-5.1°C 17.6°F-8.0°C 80% 0.9 mph NW1.4 kmh NW -- 29.81 in1009.5 mb 0.00 in0.0 mm 0.00 in/hr0.0 mm/hr 0.00 in0.0 mm
05:43 AM 22.8°F-5.1°C 17.2°F-8.2°C 79% 0.9 mph NW1.4 kmh NW -- 29.81 in1009.5 mb 0.00 in0.0 mm 0.00 in/hr0.0 mm/hr 0.00 in0.0 mm
05:42 AM 22.8°F-5.1°C 17.2°F-8.2°C 79% 0.9 mph NW1.4 kmh NW 0.9 mph1.4 kmh 29.81 in1009.5 mb 0.00 in0.0 mm 0.00 in/hr0.0 mm/hr 0.00 in0.0 mm
05:41 AM 22.8°F-5.1°C 17.2°F-8.2°C 79% 0.9 mph NW1.4 kmh NW 0.9 mph1.4 kmh 29.81 in1009.5 mb 0.00 in0.0 mm 0.00 in/hr0.0 mm/hr 0.00 in0.0 mm
05:40 AM 23.2°F-4.9°C 17.4°F-8.1°C 78% 0.9 mph NNE1.4 kmh NNE 2.0 mph3.2 kmh 29.81 in1009.5 mb 0.00 in0.0 mm 0.00 in/hr0.0 mm/hr 0.00 in0.0 mm
05:39 AM 23.4°F-4.8°C 17.2°F-8.2°C 77% 0.9 mph NE1.4 kmh NE 4.0 mph6.4 kmh 29.81 in1009.5 mb 0.00 in0.0 mm 0.00 in/hr0.0 mm/hr 0.00 in0.0 mm
05:38 AM 23.5°F-4.7°C 17.8°F-7.9°C 78% Calm Calm 4.0 mph6.4 kmh 29.81 in1009.5 mb 0.00 in0.0 mm 0.00 in/hr0.0 mm/hr 0.00 in0.0 mm
05:37 AM 23.5°F-4.7°C 17.8°F-7.9°C 78% Calm Calm 2.0 mph3.2 kmh 29.81 in1009.5 mb 0.00 in0.0 mm 0.00 in/hr0.0 mm/hr 0.00 in0.0 mm
05:36 AM 23.5°F-4.7°C 18.0°F-7.8°C 79% Calm Calm -- 29.81 in1009.5 mb 0.00 in0.0 mm 0.00 in/hr0.0 mm/hr 0.00 in0.0 mm
05:35 AM 23.4°F-4.8°C 17.8°F-7.9°C 79% Calm Calm 0.9 mph1.4 kmh 29.81 in1009.5 mb 0.00 in0.0 mm 0.00 in/hr0.0 mm/hr 0.00 in0.0 mm
05:34 AM 23.4°F-4.8°C 17.8°F-7.9°C 79% Calm Calm 0.9 mph1.4 kmh 29.81 in1009.5 mb 0.00 in0.0 mm 0.00 in/hr0.0 mm/hr 0.00 in0.0 mm
05:33 AM 23.2°F-4.9°C 17.6°F-8.0°C 79% Calm Calm -- 29.81 in1009.5 mb 0.00 in0.0 mm 0.00 in/hr0.0 mm/hr 0.00 in0.0 mm
05:32 AM 23.2°F-4.9°C 17.6°F-8.0°C 79% Calm Calm -- 29.81 in1009.5 mb 0.00 in0.0 mm 0.00 in/hr0.0 mm/hr 0.00 in0.0 mm
05:31 AM 23.2°F-4.9°C 17.4°F-8.1°C 78% Calm Calm -- 29.81 in1009.5 mb 0.00 in0.0 mm 0.00 in/hr0.0 mm/hr 0.00 in0.0 mm
05:30 AM 23.4°F-4.8°C 17.6°F-8.0°C 78% Calm Calm -- 29.81 in1009.5 mb 0.00 in0.0 mm 0.00 in/hr0.0 mm/hr 0.00 in0.0 mm
05:29 AM 23.4°F-4.8°C 17.8°F-7.9°C 79% Calm Calm 0.9 mph1.4 kmh 29.83 in1010.2 mb 0.00 in0.0 mm 0.00 in/hr0.0 mm/hr 0.00 in0.0 mm
05:28 AM 23.4°F-4.8°C 17.8°F-7.9°C 79% Calm Calm 0.9 mph1.4 kmh 29.83 in1010.2 mb 0.00 in0.0 mm 0.00 in/hr0.0 mm/hr 0.00 in0.0 mm
05:27 AM 23.2°F-4.9°C 17.6°F-8.0°C 79% Calm Calm 2.0 mph3.2 kmh 29.83 in1010.2 mb 0.00 in0.0 mm 0.00 in/hr0.0 mm/hr 0.00 in0.0 mm
05:26 AM 23.2°F-4.9°C 17.6°F-8.0°C 79% Calm Calm 0.9 mph1.4 kmh 29.83 in1010.2 mb 0.00 in0.0 mm 0.00 in/hr0.0 mm/hr 0.00 in0.0 mm
05:25 AM 23.0°F-5.0°C 17.8°F-7.9°C 80% Calm Calm 0.9 mph1.4 kmh 29.83 in1010.2 mb 0.00 in0.0 mm 0.00 in/hr0.0 mm/hr 0.00 in0.0 mm
05:24 AM 22.8°F-5.1°C 17.6°F-8.0°C 80% Calm Calm -- 29.83 in1010.2 mb 0.00 in0.0 mm 0.00 in/hr0.0 mm/hr 0.00 in0.0 mm
05:23 AM 22.6°F-5.2°C 17.4°F-8.1°C 80% Calm Calm 0.9 mph1.4 kmh 29.83 in1010.2 mb 0.00 in0.0 mm 0.00 in/hr0.0 mm/hr 0.00 in0.0 mm
05:22 AM 22.6°F-5.2°C 17.4°F-8.1°C 80% 0.9 mph SE1.4 kmh SE 0.9 mph1.4 kmh 29.83 in1010.2 mb 0.00 in0.0 mm 0.00 in/hr0.0 mm/hr 0.00 in0.0 mm
05:21 AM 22.5°F-5.3°C 17.6°F-8.0°C 81% 0.9 mph SE1.4 kmh SE 0.9 mph1.4 kmh 29.83 in1010.2 mb 0.00 in0.0 mm 0.00 in/hr0.0 mm/hr 0.00 in0.0 mm
05:20 AM 22.5°F-5.3°C 17.6°F-8.0°C 81% 0.9 mph SE1.4 kmh SE 0.9 mph1.4 kmh 29.83 in1010.2 mb 0.00 in0.0 mm 0.00 in/hr0.0 mm/hr 0.00 in0.0 mm
05:19 AM 22.3°F-5.4°C 17.4°F-8.1°C 81% 0.9 mph SE1.4 kmh SE 0.9 mph1.4 kmh 29.83 in1010.2 mb 0.00 in0.0 mm 0.00 in/hr0.0 mm/hr 0.00 in0.0 mm
05:18 AM 22.3°F-5.4°C 17.4°F-8.1°C 81% 0.9 mph SE1.4 kmh SE -- 29.83 in1010.2 mb 0.00 in0.0 mm 0.00 in/hr0.0 mm/hr 0.00 in0.0 mm
05:17 AM 22.3°F-5.4°C 17.4°F-8.1°C 81% 0.9 mph SE1.4 kmh SE 0.9 mph1.4 kmh 29.83 in1010.2 mb 0.00 in0.0 mm 0.00 in/hr0.0 mm/hr 0.00 in0.0 mm
05:16 AM 22.3°F-5.4°C 17.1°F-8.3°C 80% 0.9 mph SE1.4 kmh SE 0.9 mph1.4 kmh 29.83 in1010.2 mb 0.00 in0.0 mm 0.00 in/hr0.0 mm/hr 0.00 in0.0 mm
05:15 AM 22.3°F-5.4°C 17.4°F-8.1°C 81% 0.9 mph WSW1.4 kmh WSW 2.0 mph3.2 kmh 29.83 in1010.2 mb 0.00 in0.0 mm 0.00 in/hr0.0 mm/hr 0.00 in0.0 mm
05:14 AM 22.3°F-5.4°C 17.4°F-8.1°C 81% 0.9 mph WSW1.4 kmh WSW 2.0 mph3.2 kmh 29.84 in1010.5 mb 0.00 in0.0 mm 0.00 in/hr0.0 mm/hr 0.00 in0.0 mm
05:13 AM 22.1°F-5.5°C 17.2°F-8.2°C 81% 0.9 mph NNW1.4 kmh NNW 2.0 mph3.2 kmh 29.84 in1010.5 mb 0.00 in0.0 mm 0.00 in/hr0.0 mm/hr 0.00 in0.0 mm
05:12 AM 21.9°F-5.6°C 17.2°F-8.2°C 82% 0.9 mph NW1.4 kmh NW 2.9 mph4.7 kmh 29.84 in1010.5 mb 0.00 in0.0 mm 0.00 in/hr0.0 mm/hr 0.00 in0.0 mm
05:11 AM 21.9°F-5.6°C 17.2°F-8.2°C 82% 0.9 mph NE1.4 kmh NE 2.0 mph3.2 kmh 29.84 in1010.5 mb 0.00 in0.0 mm 0.00 in/hr0.0 mm/hr 0.00 in0.0 mm
05:10 AM 21.7°F-5.7°C 17.1°F-8.3°C 82% 0.9 mph SW1.4 kmh SW 2.0 mph3.2 kmh 29.84 in1010.5 mb 0.00 in0.0 mm 0.00 in/hr0.0 mm/hr 0.00 in0.0 mm
05:09 AM 21.7°F-5.7°C 17.1°F-8.3°C 82% 0.9 mph SW1.4 kmh SW 2.0 mph3.2 kmh 29.84 in1010.5 mb 0.00 in0.0 mm 0.00 in/hr0.0 mm/hr 0.00 in0.0 mm
05:08 AM 21.6°F-5.8°C 17.2°F-8.2°C 83% 0.9 mph S1.4 kmh S 0.9 mph1.4 kmh 29.84 in1010.5 mb 0.00 in0.0 mm 0.00 in/hr0.0 mm/hr 0.00 in0.0 mm
05:07 AM 21.6°F-5.8°C 17.2°F-8.2°C 83% 0.9 mph ENE1.4 kmh ENE 0.9 mph1.4 kmh 29.84 in1010.5 mb 0.00 in0.0 mm 0.00 in/hr0.0 mm/hr 0.00 in0.0 mm
05:06 AM 21.4°F-5.9°C 17.1°F-8.3°C 83% 0.9 mph WNW1.4 kmh WNW 2.9 mph4.7 kmh 29.84 in1010.5 mb 0.00 in0.0 mm 0.00 in/hr0.0 mm/hr 0.00 in0.0 mm
05:05 AM 21.4°F-5.9°C 17.1°F-8.3°C 83% Calm Calm 3.0 mph4.8 kmh 29.84 in1010.5 mb 0.00 in0.0 mm 0.00 in/hr0.0 mm/hr 0.00 in0.0 mm
05:04 AM 21.2°F-6.0°C 16.5°F-8.6°C 82% Calm Calm 2.0 mph3.2 kmh 29.84 in1010.5 mb 0.00 in0.0 mm 0.00 in/hr0.0 mm/hr 0.00 in0.0 mm
05:03 AM 21.2°F-6.0°C 16.3°F-8.7°C 81% Calm Calm 0.9 mph1.4 kmh 29.84 in1010.5 mb 0.00 in0.0 mm 0.00 in/hr0.0 mm/hr 0.00 in0.0 mm
05:02 AM 21.2°F-6.0°C 16.3°F-8.7°C 81% Calm Calm 0.9 mph1.4 kmh 29.84 in1010.5 mb 0.00 in0.0 mm 0.00 in/hr0.0 mm/hr 0.00 in0.0 mm
05:01 AM 21.2°F-6.0°C 16.3°F-8.7°C 81% Calm Calm 0.9 mph1.4 kmh 29.84 in1010.5 mb 0.00 in0.0 mm 0.00 in/hr0.0 mm/hr 0.00 in0.0 mm
05:00 AM 21.2°F-6.0°C 16.3°F-8.7°C 81% Calm Calm -- 29.84 in1010.5 mb 0.00 in0.0 mm 0.00 in/hr0.0 mm/hr 0.00 in0.0 mm
04:59 AM 21.2°F-6.0°C 16.3°F-8.7°C 81% Calm Calm -- 29.84 in1010.5 mb 0.00 in0.0 mm 0.00 in/hr0.0 mm/hr 0.00 in0.0 mm
04:58 AM 21.2°F-6.0°C 16.3°F-8.7°C 81% Calm Calm 0.9 mph1.4 kmh 29.84 in1010.5 mb 0.00 in0.0 mm 0.00 in/hr0.0 mm/hr 0.00 in0.0 mm
04:57 AM 21.4°F-5.9°C 16.5°F-8.6°C 81% Calm Calm 0.9 mph1.4 kmh 29.84 in1010.5 mb 0.00 in0.0 mm 0.00 in/hr0.0 mm/hr 0.00 in0.0 mm
04:56 AM 21.4°F-5.9°C 16.2°F-8.8°C 80% Calm Calm 0.9 mph1.4 kmh 29.84 in1010.5 mb 0.00 in0.0 mm 0.00 in/hr0.0 mm/hr 0.00 in0.0 mm
04:55 AM 21.4°F-5.9°C 16.2°F-8.8°C 80% Calm Calm 0.9 mph1.4 kmh 29.84 in1010.5 mb 0.00 in0.0 mm 0.00 in/hr0.0 mm/hr 0.00 in0.0 mm
04:54 AM 21.4°F-5.9°C 16.5°F-8.6°C 81% Calm Calm 0.9 mph1.4 kmh 29.84 in1010.5 mb 0.00 in0.0 mm 0.00 in/hr0.0 mm/hr 0.00 in0.0 mm
04:53 AM 21.4°F-5.9°C 16.5°F-8.6°C 81% Calm Calm 0.9 mph1.4 kmh 29.84 in1010.5 mb 0.00 in0.0 mm 0.00 in/hr0.0 mm/hr 0.00 in0.0 mm
04:52 AM 21.2°F-6.0°C 16.3°F-8.7°C 81% Calm Calm 0.9 mph1.4 kmh 29.84 in1010.5 mb 0.00 in0.0 mm 0.00 in/hr0.0 mm/hr 0.00 in0.0 mm
04:51 AM 21.0°F-6.1°C 16.2°F-8.8°C 81% Calm Calm 2.0 mph3.2 kmh 29.84 in1010.5 mb 0.00 in0.0 mm 0.00 in/hr0.0 mm/hr 0.00 in0.0 mm
04:50 AM 21.0°F-6.1°C 15.8°F-9.0°C 80% Calm Calm 2.0 mph3.2 kmh 29.84 in1010.5 mb 0.00 in0.0 mm 0.00 in/hr0.0 mm/hr 0.00 in0.0 mm
04:49 AM 21.0°F-6.1°C 16.2°F-8.8°C 81% Calm Calm 2.0 mph3.2 kmh 29.84 in1010.5 mb 0.00 in0.0 mm 0.00 in/hr0.0 mm/hr 0.00 in0.0 mm
04:48 AM 21.0°F-6.1°C 16.2°F-8.8°C 81% Calm Calm 2.9 mph4.7 kmh 29.84 in1010.5 mb 0.00 in0.0 mm 0.00 in/hr0.0 mm/hr 0.00 in0.0 mm
04:47 AM 20.8°F-6.2°C 16.0°F-8.9°C 81% Calm Calm 0.9 mph1.4 kmh 29.84 in1010.5 mb 0.00 in0.0 mm 0.00 in/hr0.0 mm/hr 0.00 in0.0 mm
04:46 AM 20.8°F-6.2°C 16.0°F-8.9°C 81% Calm Calm 0.9 mph1.4 kmh 29.84 in1010.5 mb 0.00 in0.0 mm 0.00 in/hr0.0 mm/hr 0.00 in0.0 mm
04:45 AM 20.8°F-6.2°C 16.0°F-8.9°C 81% Calm Calm 0.9 mph1.4 kmh 29.84 in1010.5 mb 0.00 in0.0 mm 0.00 in/hr0.0 mm/hr 0.00 in0.0 mm
04:44 AM 20.7°F-6.3°C 15.8°F-9.0°C 81% Calm Calm 0.9 mph1.4 kmh 29.84 in1010.5 mb 0.00 in0.0 mm 0.00 in/hr0.0 mm/hr 0.00 in0.0 mm
04:43 AM 20.7°F-6.3°C 15.8°F-9.0°C 81% 0.9 mph SE1.4 kmh SE -- 29.84 in1010.5 mb 0.00 in0.0 mm 0.00 in/hr0.0 mm/hr 0.00 in0.0 mm
04:42 AM 20.7°F-6.3°C 15.8°F-9.0°C 81% 0.9 mph SE1.4 kmh SE -- 29.84 in1010.5 mb 0.00 in0.0 mm 0.00 in/hr0.0 mm/hr 0.00 in0.0 mm
04:41 AM 20.5°F-6.4°C 15.6°F-9.1°C 81% 0.9 mph SE1.4 kmh SE -- 29.84 in1010.5 mb 0.00 in0.0 mm 0.00 in/hr0.0 mm/hr 0.00 in0.0 mm
04:40 AM 20.5°F-6.4°C 15.6°F-9.1°C 81% 0.9 mph SE1.4 kmh SE -- 29.84 in1010.5 mb 0.00 in0.0 mm 0.00 in/hr0.0 mm/hr 0.00 in0.0 mm
04:39 AM 20.5°F-6.4°C 15.6°F-9.1°C 81% 0.9 mph SE1.4 kmh SE -- 29.84 in1010.5 mb 0.00 in0.0 mm 0.00 in/hr0.0 mm/hr 0.00 in0.0 mm
04:38 AM 20.3°F-6.5°C 15.4°F-9.2°C 81% 0.9 mph SE1.4 kmh SE 0.9 mph1.4 kmh 29.84 in1010.5 mb 0.00 in0.0 mm 0.00 in/hr0.0 mm/hr 0.00 in0.0 mm
04:37 AM 20.1°F-6.6°C 15.3°F-9.3°C 81% 0.9 mph N1.4 kmh N 0.9 mph1.4 kmh 29.84 in1010.5 mb 0.00 in0.0 mm 0.00 in/hr0.0 mm/hr 0.00 in0.0 mm
04:36 AM 20.1°F-6.6°C 14.9°F-9.5°C 80% 0.9 mph N1.4 kmh N 0.9 mph1.4 kmh 29.84 in1010.5 mb 0.00 in0.0 mm 0.00 in/hr0.0 mm/hr 0.00 in0.0 mm
04:35 AM 20.1°F-6.6°C 14.9°F-9.5°C 80% Calm Calm 2.9 mph4.7 kmh 29.84 in1010.5 mb 0.00 in0.0 mm 0.00 in/hr0.0 mm/hr 0.00 in0.0 mm
04:34 AM 20.3°F-6.5°C 15.4°F-9.2°C 81% Calm Calm 2.9 mph4.7 kmh 29.84 in1010.5 mb 0.00 in0.0 mm 0.00 in/hr0.0 mm/hr 0.00 in0.0 mm
04:33 AM 20.3°F-6.5°C 15.4°F-9.2°C 81% Calm Calm 2.0 mph3.2 kmh 29.84 in1010.5 mb 0.00 in0.0 mm 0.00 in/hr0.0 mm/hr 0.00 in0.0 mm
04:32 AM 20.5°F-6.4°C 15.6°F-9.1°C 81% Calm Calm -- 29.84 in1010.5 mb 0.00 in0.0 mm 0.00 in/hr0.0 mm/hr 0.00 in0.0 mm
04:31 AM 20.5°F-6.4°C 15.6°F-9.1°C 81% Calm Calm -- 29.84 in1010.5 mb 0.00 in0.0 mm 0.00 in/hr0.0 mm/hr 0.00 in0.0 mm
04:30 AM 20.5°F-6.4°C 15.6°F-9.1°C 81% Calm Calm -- 29.84 in1010.5 mb 0.00 in0.0 mm 0.00 in/hr0.0 mm/hr 0.00 in0.0 mm
04:29 AM 20.5°F-6.4°C 15.6°F-9.1°C 81% Calm Calm -- 29.85 in1010.8 mb 0.00 in0.0 mm 0.00 in/hr0.0 mm/hr 0.00 in0.0 mm
04:28 AM 20.5°F-6.4°C 15.6°F-9.1°C 81% Calm Calm -- 29.85 in1010.8 mb 0.00 in0.0 mm 0.00 in/hr0.0 mm/hr 0.00 in0.0 mm
04:27 AM 20.3°F-6.5°C 15.4°F-9.2°C 81% Calm Calm -- 29.85 in1010.8 mb 0.00 in0.0 mm 0.00 in/hr0.0 mm/hr 0.00 in0.0 mm
04:26 AM 20.3°F-6.5°C 15.4°F-9.2°C 81% Calm Calm -- 29.85 in1010.8 mb 0.00 in0.0 mm 0.00 in/hr0.0 mm/hr 0.00 in0.0 mm
04:25 AM 20.1°F-6.6°C 15.3°F-9.3°C 81% Calm Calm -- 29.85 in1010.8 mb 0.00 in0.0 mm 0.00 in/hr0.0 mm/hr 0.00 in0.0 mm
04:24 AM 20.1°F-6.6°C 15.3°F-9.3°C 81% Calm Calm 0.9 mph1.4 kmh 29.85 in1010.8 mb 0.00 in0.0 mm 0.00 in/hr0.0 mm/hr 0.00 in0.0 mm
04:23 AM 20.1°F-6.6°C 15.3°F-9.3°C 81% 0.9 mph S1.4 kmh S 0.9 mph1.4 kmh 29.85 in1010.8 mb 0.00 in0.0 mm 0.00 in/hr0.0 mm/hr 0.00 in0.0 mm
04:22 AM 20.1°F-6.6°C 15.3°F-9.3°C 81% 0.9 mph W1.4 kmh W -- 29.85 in1010.8 mb 0.00 in0.0 mm 0.00 in/hr0.0 mm/hr 0.00 in0.0 mm
04:21 AM 20.1°F-6.6°C 15.3°F-9.3°C 81% 0.9 mph W1.4 kmh W -- 29.85 in1010.8 mb 0.00 in0.0 mm 0.00 in/hr0.0 mm/hr 0.00 in0.0 mm
04:20 AM 20.1°F-6.6°C 15.3°F-9.3°C 81% 2.0 mph W3.2 kmh W 0.9 mph1.4 kmh 29.85 in1010.8 mb 0.00 in0.0 mm 0.00 in/hr0.0 mm/hr 0.00 in0.0 mm
04:19 AM 20.1°F-6.6°C 15.4°F-9.2°C 82% 2.0 mph W3.2 kmh W 0.9 mph1.4 kmh 29.85 in1010.8 mb 0.00 in0.0 mm 0.00 in/hr0.0 mm/hr 0.00 in0.0 mm
04:17 AM 19.8°F-6.8°C 15.1°F-9.4°C 82% 2.0 mph NE3.2 kmh NE 0.9 mph1.4 kmh 29.85 in1010.8 mb 0.00 in0.0 mm 0.00 in/hr0.0 mm/hr 0.00 in0.0 mm
04:16 AM 19.6°F-6.9°C 14.7°F-9.6°C 81% 2.0 mph NE3.2 kmh NE 0.9 mph1.4 kmh 29.85 in1010.8 mb 0.00 in0.0 mm 0.00 in/hr0.0 mm/hr 0.00 in0.0 mm
04:15 AM 19.8°F-6.8°C 14.9°F-9.5°C 81% 2.0 mph N3.2 kmh N 2.0 mph3.2 kmh 29.85 in1010.8 mb 0.00 in0.0 mm 0.00 in/hr0.0 mm/hr 0.00 in0.0 mm
04:14 AM 19.8°F-6.8°C 14.5°F-9.7°C 80% 2.0 mph NW3.2 kmh NW 4.0 mph6.4 kmh 29.86 in1011.2 mb 0.00 in0.0 mm 0.00 in/hr0.0 mm/hr 0.00 in0.0 mm
04:13 AM 20.1°F-6.6°C 14.9°F-9.5°C 80% 0.9 mph NW1.4 kmh NW 6.9 mph11.1 kmh 29.86 in1011.2 mb 0.00 in0.0 mm 0.00 in/hr0.0 mm/hr 0.00 in0.0 mm
04:12 AM 20.3°F-6.5°C 15.1°F-9.4°C 80% 0.9 mph WNW1.4 kmh WNW 6.0 mph9.7 kmh 29.86 in1011.2 mb 0.00 in0.0 mm 0.00 in/hr0.0 mm/hr 0.00 in0.0 mm
04:11 AM 20.1°F-6.6°C 14.9°F-9.5°C 80% 0.9 mph NE1.4 kmh NE 3.0 mph4.8 kmh 29.86 in1011.2 mb 0.00 in0.0 mm 0.00 in/hr0.0 mm/hr 0.00 in0.0 mm
04:10 AM 20.1°F-6.6°C 14.9°F-9.5°C 80% 0.9 mph NE1.4 kmh NE 3.0 mph4.8 kmh 29.86 in1011.2 mb 0.00 in0.0 mm 0.00 in/hr0.0 mm/hr 0.00 in0.0 mm
04:09 AM 20.1°F-6.6°C 14.9°F-9.5°C 80% 0.9 mph NW1.4 kmh NW -- 29.86 in1011.2 mb 0.00 in0.0 mm 0.00 in/hr0.0 mm/hr 0.00 in0.0 mm
04:08 AM 20.1°F-6.6°C 14.9°F-9.5°C 80% 0.9 mph NW1.4 kmh NW 2.0 mph3.2 kmh 29.86 in1011.2 mb 0.00 in0.0 mm 0.00 in/hr0.0 mm/hr 0.00 in0.0 mm
04:07 AM 20.1°F-6.6°C 14.9°F-9.5°C 80% 0.9 mph NW1.4 kmh NW 2.0 mph3.2 kmh 29.86 in1011.2 mb 0.00 in0.0 mm 0.00 in/hr0.0 mm/hr 0.00 in0.0 mm
04:06 AM 19.9°F-6.7°C 15.1°F-9.4°C 81% Calm Calm 2.0 mph3.2 kmh 29.86 in1011.2 mb 0.00 in0.0 mm 0.00 in/hr0.0 mm/hr 0.00 in0.0 mm
04:05 AM 19.9°F-6.7°C 15.1°F-9.4°C 81% Calm Calm -- 29.86 in1011.2 mb 0.00 in0.0 mm 0.00 in/hr0.0 mm/hr 0.00 in0.0 mm
04:04 AM 19.9°F-6.7°C 15.1°F-9.4°C 81% Calm Calm -- 29.86 in1011.2 mb 0.00 in0.0 mm 0.00 in/hr0.0 mm/hr 0.00 in0.0 mm
04:03 AM 19.9°F-6.7°C 15.1°F-9.4°C 81% Calm Calm 0.9 mph1.4 kmh 29.86 in1011.2 mb 0.00 in0.0 mm 0.00 in/hr0.0 mm/hr 0.00 in0.0 mm
04:02 AM 19.9°F-6.7°C 14.7°F-9.6°C 80% Calm Calm 0.9 mph1.4 kmh 29.86 in1011.2 mb 0.00 in0.0 mm 0.00 in/hr0.0 mm/hr 0.00 in0.0 mm
04:01 AM 19.9°F-6.7°C 14.7°F-9.6°C 80% Calm Calm 2.0 mph3.2 kmh 29.86 in1011.2 mb 0.00 in0.0 mm 0.00 in/hr0.0 mm/hr 0.00 in0.0 mm
04:00 AM 20.1°F-6.6°C 15.3°F-9.3°C 81% Calm Calm 0.9 mph1.4 kmh 29.86 in1011.2 mb 0.00 in0.0 mm 0.00 in/hr0.0 mm/hr 0.00 in0.0 mm
03:59 AM 19.9°F-6.7°C 15.3°F-9.3°C 82% Calm Calm 0.9 mph1.4 kmh 29.87 in1011.5 mb 0.00 in0.0 mm 0.00 in/hr0.0 mm/hr 0.00 in0.0 mm
03:58 AM 19.8°F-6.8°C 15.1°F-9.4°C 82% Calm Calm 2.0 mph3.2 kmh 29.87 in1011.5 mb 0.00 in0.0 mm 0.00 in/hr0.0 mm/hr 0.00 in0.0 mm
03:57 AM 19.6°F-6.9°C 14.7°F-9.6°C 81% Calm Calm 0.9 mph1.4 kmh 29.87 in1011.5 mb 0.00 in0.0 mm 0.00 in/hr0.0 mm/hr 0.00 in0.0 mm
03:56 AM 19.6°F-6.9°C 14.7°F-9.6°C 81% Calm Calm 0.9 mph1.4 kmh 29.87 in1011.5 mb 0.00 in0.0 mm 0.00 in/hr0.0 mm/hr 0.00 in0.0 mm
03:55 AM 19.6°F-6.9°C 14.7°F-9.6°C 81% Calm Calm 0.9 mph1.4 kmh 29.87 in1011.5 mb 0.00 in0.0 mm 0.00 in/hr0.0 mm/hr 0.00 in0.0 mm
03:54 AM 19.4°F-7.0°C 14.7°F-9.6°C 82% Calm Calm -- 29.87 in1011.5 mb 0.00 in0.0 mm 0.00 in/hr0.0 mm/hr 0.00 in0.0 mm
03:53 AM 19.4°F-7.0°C 14.7°F-9.6°C 82% Calm Calm 0.9 mph1.4 kmh 29.87 in1011.5 mb 0.00 in0.0 mm 0.00 in/hr0.0 mm/hr 0.00 in0.0 mm
03:52 AM 19.2°F-7.1°C 14.4°F-9.8°C 81% Calm Calm 0.9 mph1.4 kmh 29.87 in1011.5 mb 0.00 in0.0 mm 0.00 in/hr0.0 mm/hr 0.00 in0.0 mm
03:51 AM 19.2°F-7.1°C 14.0°F-10.0°C 80% Calm Calm 0.9 mph1.4 kmh 29.87 in1011.5 mb 0.00 in0.0 mm 0.00 in/hr0.0 mm/hr 0.00 in0.0 mm
03:50 AM 19.4°F-7.0°C 14.0°F-10.0°C 79% Calm Calm 0.9 mph1.4 kmh 29.87 in1011.5 mb 0.00 in0.0 mm 0.00 in/hr0.0 mm/hr 0.00 in0.0 mm
03:49 AM 19.6°F-6.9°C 14.2°F-9.9°C 79% Calm Calm -- 29.87 in1011.5 mb 0.00 in0.0 mm 0.00 in/hr0.0 mm/hr 0.00 in0.0 mm
03:48 AM 19.6°F-6.9°C 14.2°F-9.9°C 79% Calm Calm -- 29.87 in1011.5 mb 0.00 in0.0 mm 0.00 in/hr0.0 mm/hr 0.00 in0.0 mm
03:47 AM 19.8°F-6.8°C 14.4°F-9.8°C 79% Calm Calm 0.9 mph1.4 kmh 29.87 in1011.5 mb 0.00 in0.0 mm 0.00 in/hr0.0 mm/hr 0.00 in0.0 mm
03:46 AM 19.8°F-6.8°C 14.5°F-9.7°C 80% Calm Calm 0.9 mph1.4 kmh 29.87 in1011.5 mb 0.00 in0.0 mm 0.00 in/hr0.0 mm/hr 0.00 in0.0 mm
03:45 AM 19.8°F-6.8°C 14.5°F-9.7°C 80% Calm Calm -- 29.87 in1011.5 mb 0.00 in0.0 mm 0.00 in/hr0.0 mm/hr 0.00 in0.0 mm
03:44 AM 19.8°F-6.8°C 14.9°F-9.5°C 81% Calm Calm -- 29.89 in1012.2 mb 0.00 in0.0 mm 0.00 in/hr0.0 mm/hr 0.00 in0.0 mm
03:43 AM 19.8°F-6.8°C 14.9°F-9.5°C 81% Calm Calm -- 29.89 in1012.2 mb 0.00 in0.0 mm 0.00 in/hr0.0 mm/hr 0.00 in0.0 mm
03:42 AM 19.6°F-6.9°C 14.7°F-9.6°C 81% 0.9 mph ENE1.4 kmh ENE 0.9 mph1.4 kmh 29.89 in1012.2 mb 0.00 in0.0 mm 0.00 in/hr0.0 mm/hr 0.00 in0.0 mm
03:41 AM 19.4°F-7.0°C 14.7°F-9.6°C 82% 0.9 mph ENE1.4 kmh ENE 0.9 mph1.4 kmh 29.89 in1012.2 mb 0.00 in0.0 mm 0.00 in/hr0.0 mm/hr 0.00 in0.0 mm
03:40 AM 19.2°F-7.1°C 14.7°F-9.6°C 82% 0.9 mph ENE1.4 kmh ENE 0.9 mph1.4 kmh 29.89 in1012.2 mb 0.00 in0.0 mm 0.00 in/hr0.0 mm/hr 0.00 in0.0 mm
03:39 AM 19.2°F-7.1°C 14.4°F-9.8°C 81% 0.9 mph NE1.4 kmh NE 0.9 mph1.4 kmh 29.89 in1012.2 mb 0.00 in0.0 mm 0.00 in/hr0.0 mm/hr 0.00 in0.0 mm
03:38 AM 19.0°F-7.2°C 14.2°F-9.9°C 81% 0.9 mph NNW1.4 kmh NNW 0.9 mph1.4 kmh 29.89 in1012.2 mb 0.00 in0.0 mm 0.00 in/hr0.0 mm/hr 0.00 in0.0 mm
03:37 AM 19.0°F-7.2°C 14.2°F-9.9°C 81% 0.9 mph NW1.4 kmh NW 0.9 mph1.4 kmh 29.89 in1012.2 mb 0.00 in0.0 mm 0.00 in/hr0.0 mm/hr 0.00 in0.0 mm
03:36 AM 19.0°F-7.2°C 13.8°F-10.1°C 80% 0.9 mph NW1.4 kmh NW -- 29.89 in1012.2 mb 0.00 in0.0 mm 0.00 in/hr0.0 mm/hr 0.00 in0.0 mm
03:35 AM 19.2°F-7.1°C 13.8°F-10.1°C 79% 0.9 mph NW1.4 kmh NW -- 29.89 in1012.2 mb 0.00 in0.0 mm 0.00 in/hr0.0 mm/hr 0.00 in0.0 mm
03:34 AM 19.2°F-7.1°C 13.8°F-10.1°C 79% 0.9 mph NW1.4 kmh NW 0.9 mph1.4 kmh 29.89 in1012.2 mb 0.00 in0.0 mm 0.00 in/hr0.0 mm/hr 0.00 in0.0 mm
03:33 AM 19.4°F-7.0°C 14.2°F-9.9°C 80% 0.9 mph NW1.4 kmh NW 2.0 mph3.2 kmh 29.89 in1012.2 mb 0.00 in0.0 mm 0.00 in/hr0.0 mm/hr 0.00 in0.0 mm
03:32 AM 19.6°F-6.9°C 14.4°F-9.8°C 80% 0.9 mph NW1.4 kmh NW 2.0 mph3.2 kmh 29.89 in1012.2 mb 0.00 in0.0 mm 0.00 in/hr0.0 mm/hr 0.00 in0.0 mm
03:31 AM 19.6°F-6.9°C 14.7°F-9.6°C 81% 0.9 mph NNW1.4 kmh NNW 2.0 mph3.2 kmh 29.89 in1012.2 mb 0.00 in0.0 mm 0.00 in/hr0.0 mm/hr 0.00 in0.0 mm
03:30 AM 19.4°F-7.0°C 14.5°F-9.7°C 81% 0.9 mph NNW1.4 kmh NNW 2.0 mph3.2 kmh 29.89 in1012.2 mb 0.00 in0.0 mm 0.00 in/hr0.0 mm/hr 0.00 in0.0 mm
03:29 AM 19.4°F-7.0°C 14.5°F-9.7°C 81% 0.9 mph NNW1.4 kmh NNW 0.9 mph1.4 kmh 29.88 in1011.9 mb 0.00 in0.0 mm 0.00 in/hr0.0 mm/hr 0.00 in0.0 mm
03:28 AM 19.4°F-7.0°C 14.5°F-9.7°C 81% 0.9 mph N1.4 kmh N -- 29.88 in1011.9 mb 0.00 in0.0 mm 0.00 in/hr0.0 mm/hr 0.00 in0.0 mm
03:27 AM 19.4°F-7.0°C 14.5°F-9.7°C 81% 0.9 mph 1.4 kmh -- 29.88 in1011.9 mb 0.00 in0.0 mm 0.00 in/hr0.0 mm/hr 0.00 in0.0 mm
03:26 AM 19.4°F-7.0°C 14.5°F-9.7°C 81% 0.9 mph 1.4 kmh -- 29.88 in1011.9 mb 0.00 in0.0 mm 0.00 in/hr0.0 mm/hr 0.00 in0.0 mm
03:25 AM 19.4°F-7.0°C 14.2°F-9.9°C 80% 0.9 mph 1.4 kmh 0.9 mph1.4 kmh 29.88 in1011.9 mb 0.00 in0.0 mm 0.00 in/hr0.0 mm/hr 0.00 in0.0 mm
03:23 AM 19.8°F-6.8°C 14.4°F-9.8°C 79% 0.9 mph NNW1.4 kmh NNW 2.0 mph3.2 kmh 29.88 in1011.9 mb 0.00 in0.0 mm 0.00 in/hr0.0 mm/hr 0.00 in0.0 mm
03:22 AM 19.9°F-6.7°C 14.7°F-9.6°C 80% 0.9 mph WNW1.4 kmh WNW 3.0 mph4.8 kmh 29.88 in1011.9 mb 0.00 in0.0 mm 0.00 in/hr0.0 mm/hr 0.00 in0.0 mm
03:21 AM 19.9°F-6.7°C 14.7°F-9.6°C 80% 0.9 mph WNW1.4 kmh WNW 2.0 mph3.2 kmh 29.88 in1011.9 mb 0.00 in0.0 mm 0.00 in/hr0.0 mm/hr 0.00 in0.0 mm
03:20 AM 19.9°F-6.7°C 14.7°F-9.6°C 80% 0.9 mph NNE1.4 kmh NNE 2.0 mph3.2 kmh 29.88 in1011.9 mb 0.00 in0.0 mm 0.00 in/hr0.0 mm/hr 0.00 in0.0 mm
03:19 AM 19.9°F-6.7°C 14.7°F-9.6°C 80% 0.9 mph NE1.4 kmh NE 2.0 mph3.2 kmh 29.88 in1011.9 mb 0.00 in0.0 mm 0.00 in/hr0.0 mm/hr 0.00 in0.0 mm
03:18 AM 19.9°F-6.7°C 14.7°F-9.6°C 80% 0.9 mph NE1.4 kmh NE 2.0 mph3.2 kmh 29.88 in1011.9 mb 0.00 in0.0 mm 0.00 in/hr0.0 mm/hr 0.00 in0.0 mm
03:17 AM 19.9°F-6.7°C 14.5°F-9.7°C 79% 0.9 mph N1.4 kmh N 0.9 mph1.4 kmh 29.88 in1011.9 mb 0.00 in0.0 mm 0.00 in/hr0.0 mm/hr 0.00 in0.0 mm
03:16 AM 19.9°F-6.7°C 14.5°F-9.7°C 79% 0.9 mph NNW1.4 kmh NNW 0.9 mph1.4 kmh 29.88 in1011.9 mb 0.00 in0.0 mm 0.00 in/hr0.0 mm/hr 0.00 in0.0 mm
03:15 AM 19.9°F-6.7°C 14.7°F-9.6°C 80% 0.9 mph NNW1.4 kmh NNW 2.0 mph3.2 kmh 29.88 in1011.9 mb 0.00 in0.0 mm 0.00 in/hr0.0 mm/hr 0.00 in0.0 mm
03:14 AM 19.9°F-6.7°C 14.7°F-9.6°C 80% 0.9 mph NNW1.4 kmh NNW 2.0 mph3.2 kmh 29.89 in1012.2 mb 0.00 in0.0 mm 0.00 in/hr0.0 mm/hr 0.00 in0.0 mm
03:13 AM 19.8°F-6.8°C 14.9°F-9.5°C 81% 0.9 mph NNW1.4 kmh NNW 0.9 mph1.4 kmh 29.89 in1012.2 mb 0.00 in0.0 mm 0.00 in/hr0.0 mm/hr 0.00 in0.0 mm
03:12 AM 19.8°F-6.8°C 14.5°F-9.7°C 80% 0.9 mph NNE1.4 kmh NNE 0.9 mph1.4 kmh 29.89 in1012.2 mb 0.00 in0.0 mm 0.00 in/hr0.0 mm/hr 0.00 in0.0 mm
03:11 AM 19.8°F-6.8°C 14.5°F-9.7°C 80% 0.9 mph NNE1.4 kmh NNE 0.9 mph1.4 kmh 29.89 in1012.2 mb 0.00 in0.0 mm 0.00 in/hr0.0 mm/hr 0.00 in0.0 mm
03:10 AM 19.8°F-6.8°C 14.4°F-9.8°C 79% 0.9 mph NNE1.4 kmh NNE 0.9 mph1.4 kmh 29.89 in1012.2 mb 0.00 in0.0 mm 0.00 in/hr0.0 mm/hr 0.00 in0.0 mm
03:09 AM 19.8°F-6.8°C 14.0°F-10.0°C 78% 0.9 mph NNE1.4 kmh NNE 2.0 mph3.2 kmh 29.89 in1012.2 mb 0.00 in0.0 mm 0.00 in/hr0.0 mm/hr 0.00 in0.0 mm
03:08 AM 19.9°F-6.7°C 14.2°F-9.9°C 78% 0.9 mph NNE1.4 kmh NNE 2.0 mph3.2 kmh 29.89 in1012.2 mb 0.00 in0.0 mm 0.00 in/hr0.0 mm/hr 0.00 in0.0 mm
03:07 AM 20.1°F-6.6°C 14.4°F-9.8°C 78% 0.9 mph NW1.4 kmh NW 2.0 mph3.2 kmh 29.89 in1012.2 mb 0.00 in0.0 mm 0.00 in/hr0.0 mm/hr 0.00 in0.0 mm
03:06 AM 20.5°F-6.4°C 15.1°F-9.4°C 79% 0.9 mph NW1.4 kmh NW 4.0 mph6.4 kmh 29.89 in1012.2 mb 0.00 in0.0 mm 0.00 in/hr0.0 mm/hr 0.00 in0.0 mm
03:05 AM 20.5°F-6.4°C 15.3°F-9.3°C 80% Calm Calm 4.0 mph6.4 kmh 29.89 in1012.2 mb 0.00 in0.0 mm 0.00 in/hr0.0 mm/hr 0.00 in0.0 mm
03:04 AM 20.5°F-6.4°C 15.6°F-9.1°C 81% Calm Calm 2.0 mph3.2 kmh 29.89 in1012.2 mb 0.00 in0.0 mm 0.00 in/hr0.0 mm/hr 0.00 in0.0 mm
03:03 AM 20.3°F-6.5°C 15.4°F-9.2°C 81% Calm Calm 0.9 mph1.4 kmh 29.89 in1012.2 mb 0.00 in0.0 mm 0.00 in/hr0.0 mm/hr 0.00 in0.0 mm
03:02 AM 20.5°F-6.4°C 15.3°F-9.3°C 80% Calm Calm -- 29.89 in1012.2 mb 0.00 in0.0 mm 0.00 in/hr0.0 mm/hr 0.00 in0.0 mm
03:01 AM 20.5°F-6.4°C 15.1°F-9.4°C 79% Calm Calm -- 29.89 in1012.2 mb 0.00 in0.0 mm 0.00 in/hr0.0 mm/hr 0.00 in0.0 mm
03:00 AM 20.7°F-6.3°C 15.3°F-9.3°C 79% Calm Calm 0.9 mph1.4 kmh 29.89 in1012.2 mb 0.00 in0.0 mm 0.00 in/hr0.0 mm/hr 0.00 in0.0 mm
02:59 AM 20.8°F-6.2°C 15.4°F-9.2°C 79% Calm Calm 0.9 mph1.4 kmh 29.89 in1012.2 mb 0.00 in0.0 mm 0.00 in/hr0.0 mm/hr 0.00 in0.0 mm
02:58 AM 21.2°F-6.0°C 15.8°F-9.0°C 79% Calm Calm 0.9 mph1.4 kmh 29.89 in1012.2 mb 0.00 in0.0 mm 0.00 in/hr0.0 mm/hr 0.00 in0.0 mm
02:57 AM 21.4°F-5.9°C 15.8°F-9.0°C 79% Calm Calm 0.9 mph1.4 kmh 29.89 in1012.2 mb 0.00 in0.0 mm 0.00 in/hr0.0 mm/hr 0.00 in0.0 mm
02:56 AM 21.6°F-5.8°C 16.0°F-8.9°C 79% Calm Calm -- 29.89 in1012.2 mb 0.00 in0.0 mm 0.00 in/hr0.0 mm/hr 0.00 in0.0 mm
02:55 AM 21.7°F-5.7°C 16.2°F-8.8°C 79% Calm Calm -- 29.89 in1012.2 mb 0.00 in0.0 mm 0.00 in/hr0.0 mm/hr 0.00 in0.0 mm
02:54 AM 21.7°F-5.7°C 16.0°F-8.9°C 78% Calm Calm -- 29.89 in1012.2 mb 0.00 in0.0 mm 0.00 in/hr0.0 mm/hr 0.00 in0.0 mm
02:53 AM 21.7°F-5.7°C 16.0°F-8.9°C 78% Calm Calm -- 29.89 in1012.2 mb 0.00 in0.0 mm 0.00 in/hr0.0 mm/hr 0.00 in0.0 mm
02:52 AM 21.9°F-5.6°C 16.2°F-8.8°C 78% Calm Calm -- 29.89 in1012.2 mb 0.00 in0.0 mm 0.00 in/hr0.0 mm/hr 0.00 in0.0 mm
02:51 AM 21.9°F-5.6°C 16.2°F-8.8°C 78% Calm Calm -- 29.89 in1012.2 mb 0.00 in0.0 mm 0.00 in/hr0.0 mm/hr 0.00 in0.0 mm
02:50 AM 22.1°F-5.5°C 16.0°F-8.9°C 77% Calm Calm -- 29.89 in1012.2 mb 0.00 in0.0 mm 0.00 in/hr0.0 mm/hr 0.00 in0.0 mm
02:49 AM 22.3°F-5.4°C 16.2°F-8.8°C 77% Calm Calm -- 29.89 in1012.2 mb 0.00 in0.0 mm 0.00 in/hr0.0 mm/hr 0.00 in0.0 mm
02:48 AM 22.3°F-5.4°C 16.2°F-8.8°C 77% Calm Calm 0.9 mph1.4 kmh 29.89 in1012.2 mb 0.00 in0.0 mm 0.00 in/hr0.0 mm/hr 0.00 in0.0 mm
02:47 AM 22.3°F-5.4°C 16.5°F-8.6°C 78% Calm Calm 0.9 mph1.4 kmh 29.89 in1012.2 mb 0.00 in0.0 mm 0.00 in/hr0.0 mm/hr 0.00 in0.0 mm
02:46 AM 22.3°F-5.4°C 16.7°F-8.5°C 79% Calm Calm -- 29.89 in1012.2 mb 0.00 in0.0 mm 0.00 in/hr0.0 mm/hr 0.00 in0.0 mm
02:45 AM 22.3°F-5.4°C 16.7°F-8.5°C 79% Calm Calm 0.9 mph1.4 kmh 29.89 in1012.2 mb 0.00 in0.0 mm 0.00 in/hr0.0 mm/hr 0.00 in0.0 mm
02:44 AM 22.1°F-5.5°C 16.3°F-8.7°C 78% 0.9 mph NNE1.4 kmh NNE 0.9 mph1.4 kmh 29.91 in1012.9 mb 0.00 in0.0 mm 0.00 in/hr0.0 mm/hr 0.00 in0.0 mm
02:43 AM 21.9°F-5.6°C 15.8°F-9.0°C 77% 0.9 mph NNE1.4 kmh NNE 0.9 mph1.4 kmh 29.91 in1012.9 mb 0.00 in0.0 mm 0.00 in/hr0.0 mm/hr 0.00 in0.0 mm
02:42 AM 22.1°F-5.5°C 16.0°F-8.9°C 77% Calm Calm 0.9 mph1.4 kmh 29.91 in1012.9 mb 0.00 in0.0 mm 0.00 in/hr0.0 mm/hr 0.00 in0.0 mm
02:41 AM 22.1°F-5.5°C 16.3°F-8.7°C 78% 0.9 mph NNE1.4 kmh NNE 0.9 mph1.4 kmh 29.91 in1012.9 mb 0.00 in0.0 mm 0.00 in/hr0.0 mm/hr 0.00 in0.0 mm
02:40 AM 22.1°F-5.5°C 16.3°F-8.7°C 78% 0.9 mph ENE1.4 kmh ENE -- 29.91 in1012.9 mb 0.00 in0.0 mm 0.00 in/hr0.0 mm/hr 0.00 in0.0 mm
02:39 AM 22.3°F-5.4°C 16.2°F-8.8°C 77% 0.9 mph ENE1.4 kmh ENE -- 29.91 in1012.9 mb 0.00 in0.0 mm 0.00 in/hr0.0 mm/hr 0.00 in0.0 mm
02:38 AM 22.3°F-5.4°C 15.8°F-9.0°C 76% 0.9 mph ENE1.4 kmh ENE 0.9 mph1.4 kmh 29.91 in1012.9 mb 0.00 in0.0 mm 0.00 in/hr0.0 mm/hr 0.00 in0.0 mm
02:37 AM 22.5°F-5.3°C 16.0°F-8.9°C 76% 0.9 mph ENE1.4 kmh ENE 0.9 mph1.4 kmh 29.91 in1012.9 mb 0.00 in0.0 mm 0.00 in/hr0.0 mm/hr 0.00 in0.0 mm
02:36 AM 22.5°F-5.3°C 16.0°F-8.9°C 76% 0.9 mph W1.4 kmh W -- 29.91 in1012.9 mb 0.00 in0.0 mm 0.00 in/hr0.0 mm/hr 0.00 in0.0 mm
02:35 AM 22.6°F-5.2°C 16.0°F-8.9°C 75% 0.9 mph W1.4 kmh W 0.9 mph1.4 kmh 29.91 in1012.9 mb 0.00 in0.0 mm 0.00 in/hr0.0 mm/hr 0.00 in0.0 mm
02:34 AM 22.8°F-5.1°C 16.3°F-8.7°C 76% 0.9 mph WSW1.4 kmh WSW 0.9 mph1.4 kmh 29.91 in1012.9 mb 0.00 in0.0 mm 0.00 in/hr0.0 mm/hr 0.00 in0.0 mm
02:33 AM 22.8°F-5.1°C 16.3°F-8.7°C 76% 0.9 mph N1.4 kmh N 2.0 mph3.2 kmh 29.91 in1012.9 mb 0.00 in0.0 mm 0.00 in/hr0.0 mm/hr 0.00 in0.0 mm
02:32 AM 22.8°F-5.1°C 16.3°F-8.7°C 76% 0.9 mph NNE1.4 kmh NNE 2.9 mph4.7 kmh 29.91 in1012.9 mb 0.00 in0.0 mm 0.00 in/hr0.0 mm/hr 0.00 in0.0 mm
02:31 AM 22.8°F-5.1°C 16.3°F-8.7°C 76% Calm Calm 4.0 mph6.4 kmh 29.91 in1012.9 mb 0.00 in0.0 mm 0.00 in/hr0.0 mm/hr 0.00 in0.0 mm
02:30 AM 23.0°F-5.0°C 16.5°F-8.6°C 76% Calm Calm 2.9 mph4.7 kmh 29.93 in1013.5 mb 0.00 in0.0 mm 0.00 in/hr0.0 mm/hr 0.00 in0.0 mm
02:29 AM 23.0°F-5.0°C 16.5°F-8.6°C 76% Calm Calm 3.0 mph4.8 kmh 29.93 in1013.5 mb 0.00 in0.0 mm 0.00 in/hr0.0 mm/hr 0.00 in0.0 mm
02:28 AM 23.2°F-4.9°C 16.7°F-8.5°C 76% Calm Calm 0.9 mph1.4 kmh 29.93 in1013.5 mb 0.00 in0.0 mm 0.00 in/hr0.0 mm/hr 0.00 in0.0 mm
02:27 AM 23.2°F-4.9°C 16.7°F-8.5°C 76% Calm Calm 0.9 mph1.4 kmh 29.93 in1013.5 mb 0.00 in0.0 mm 0.00 in/hr0.0 mm/hr 0.00 in0.0 mm
02:26 AM 23.2°F-4.9°C 16.5°F-8.6°C 75% Calm Calm 0.9 mph1.4 kmh 29.93 in1013.5 mb 0.00 in0.0 mm 0.00 in/hr0.0 mm/hr 0.00 in0.0 mm
02:25 AM 23.4°F-4.8°C 16.7°F-8.5°C 75% Calm Calm -- 29.93 in1013.5 mb 0.00 in0.0 mm 0.00 in/hr0.0 mm/hr 0.00 in0.0 mm
02:24 AM 23.4°F-4.8°C 16.7°F-8.5°C 75% Calm Calm -- 29.93 in1013.5 mb 0.00 in0.0 mm 0.00 in/hr0.0 mm/hr 0.00 in0.0 mm
02:23 AM 23.4°F-4.8°C 16.7°F-8.5°C 75% Calm Calm -- 29.93 in1013.5 mb 0.00 in0.0 mm 0.00 in/hr0.0 mm/hr 0.00 in0.0 mm
02:21 AM 23.5°F-4.7°C 17.1°F-8.3°C 76% Calm Calm -- 29.93 in1013.5 mb 0.00 in0.0 mm 0.00 in/hr0.0 mm/hr 0.00 in0.0 mm
02:20 AM 23.5°F-4.7°C 17.4°F-8.1°C 77% Calm Calm -- 29.93 in1013.5 mb 0.00 in0.0 mm 0.00 in/hr0.0 mm/hr 0.00 in0.0 mm
02:19 AM 23.4°F-4.8°C 17.2°F-8.2°C 77% Calm Calm 0.9 mph1.4 kmh 29.93 in1013.5 mb 0.00 in0.0 mm 0.00 in/hr0.0 mm/hr 0.00 in0.0 mm
02:18 AM 23.4°F-4.8°C 17.2°F-8.2°C 77% Calm Calm 0.9 mph1.4 kmh 29.93 in1013.5 mb 0.00 in0.0 mm 0.00 in/hr0.0 mm/hr 0.00 in0.0 mm
02:17 AM 23.4°F-4.8°C 17.2°F-8.2°C 77% Calm Calm -- 29.93 in1013.5 mb 0.00 in0.0 mm 0.00 in/hr0.0 mm/hr 0.00 in0.0 mm
02:16 AM 23.4°F-4.8°C 17.2°F-8.2°C 77% Calm Calm -- 29.93 in1013.5 mb 0.00 in0.0 mm 0.00 in/hr0.0 mm/hr 0.00 in0.0 mm
02:15 AM 23.2°F-4.9°C 17.4°F-8.1°C 78% Calm Calm -- 29.93 in1013.5 mb 0.00 in0.0 mm 0.00 in/hr0.0 mm/hr 0.00 in0.0 mm
02:14 AM 23.2°F-4.9°C 17.4°F-8.1°C 78% 0.9 mph NNW1.4 kmh NNW 0.9 mph1.4 kmh 29.93 in1013.5 mb 0.00 in0.0 mm 0.00 in/hr0.0 mm/hr 0.00 in0.0 mm
02:13 AM 23.0°F-5.0°C 17.2°F-8.2°C 78% 0.9 mph NNW1.4 kmh NNW 0.9 mph1.4 kmh 29.93 in1013.5 mb 0.00 in0.0 mm 0.00 in/hr0.0 mm/hr 0.00 in0.0 mm
02:12 AM 22.8°F-5.1°C 17.1°F-8.3°C 78% 0.9 mph NNW1.4 kmh NNW 0.9 mph1.4 kmh 29.93 in1013.5 mb 0.00 in0.0 mm 0.00 in/hr0.0 mm/hr 0.00 in0.0 mm
02:11 AM 22.8°F-5.1°C 17.1°F-8.3°C 78% 0.9 mph NNW1.4 kmh NNW 0.9 mph1.4 kmh 29.93 in1013.5 mb 0.00 in0.0 mm 0.00 in/hr0.0 mm/hr 0.00 in0.0 mm
02:10 AM 22.8°F-5.1°C 17.1°F-8.3°C 78% Calm Calm 0.9 mph1.4 kmh 29.93 in1013.5 mb 0.00 in0.0 mm 0.00 in/hr0.0 mm/hr 0.00 in0.0 mm
02:09 AM 22.8°F-5.1°C 17.1°F-8.3°C 78% Calm Calm 0.9 mph1.4 kmh 29.93 in1013.5 mb 0.00 in0.0 mm 0.00 in/hr0.0 mm/hr 0.00 in0.0 mm
02:08 AM 22.8°F-5.1°C 16.7°F-8.5°C 77% Calm Calm 2.0 mph3.2 kmh 29.93 in1013.5 mb 0.00 in0.0 mm 0.00 in/hr0.0 mm/hr 0.00 in0.0 mm
02:07 AM 22.8°F-5.1°C 17.1°F-8.3°C 78% Calm Calm 2.0 mph3.2 kmh 29.93 in1013.5 mb 0.00 in0.0 mm 0.00 in/hr0.0 mm/hr 0.00 in0.0 mm
02:06 AM 23.0°F-5.0°C 17.2°F-8.2°C 78% Calm Calm 0.9 mph1.4 kmh 29.93 in1013.5 mb 0.00 in0.0 mm 0.00 in/hr0.0 mm/hr 0.00 in0.0 mm
02:05 AM 22.8°F-5.1°C 17.1°F-8.3°C 78% Calm Calm 0.9 mph1.4 kmh 29.93 in1013.5 mb 0.00 in0.0 mm 0.00 in/hr0.0 mm/hr 0.00 in0.0 mm
02:04 AM 22.8°F-5.1°C 17.1°F-8.3°C 78% Calm Calm -- 29.93 in1013.5 mb 0.00 in0.0 mm 0.00 in/hr0.0 mm/hr 0.00 in0.0 mm
02:03 AM 22.8°F-5.1°C 17.1°F-8.3°C 78% Calm Calm -- 29.93 in1013.5 mb 0.00 in0.0 mm 0.00 in/hr0.0 mm/hr 0.00 in0.0 mm
02:01 AM 22.8°F-5.1°C 17.1°F-8.3°C 78% Calm Calm -- 29.93 in1013.5 mb 0.00 in0.0 mm 0.00 in/hr0.0 mm/hr 0.00 in0.0 mm
02:00 AM 22.8°F-5.1°C 17.1°F-8.3°C 78% Calm Calm -- 29.93 in1013.5 mb 0.00 in0.0 mm 0.00 in/hr0.0 mm/hr 0.00 in0.0 mm
01:59 AM 22.8°F-5.1°C 16.7°F-8.5°C 77% Calm Calm -- 29.94 in1013.9 mb 0.00 in0.0 mm 0.00 in/hr0.0 mm/hr 0.00 in0.0 mm
01:58 AM 22.8°F-5.1°C 16.7°F-8.5°C 77% Calm Calm -- 29.94 in1013.9 mb 0.00 in0.0 mm 0.00 in/hr0.0 mm/hr 0.00 in0.0 mm
01:57 AM 23.2°F-4.9°C 16.7°F-8.5°C 76% Calm Calm -- 29.94 in1013.9 mb 0.00 in0.0 mm 0.00 in/hr0.0 mm/hr 0.00 in0.0 mm
01:56 AM 23.2°F-4.9°C 16.7°F-8.5°C 76% Calm Calm 0.9 mph1.4 kmh 29.94 in1013.9 mb 0.00 in0.0 mm 0.00 in/hr0.0 mm/hr 0.00 in0.0 mm
01:55 AM 23.4°F-4.8°C 17.2°F-8.2°C 77% Calm Calm 2.0 mph3.2 kmh 29.94 in1013.9 mb 0.00 in0.0 mm 0.00 in/hr0.0 mm/hr 0.00 in0.0 mm
01:54 AM 23.4°F-4.8°C 17.2°F-8.2°C 77% Calm Calm 0.9 mph1.4 kmh 29.94 in1013.9 mb 0.00 in0.0 mm 0.00 in/hr0.0 mm/hr 0.00 in0.0 mm
01:53 AM 23.2°F-4.9°C 17.1°F-8.3°C 77% Calm Calm 0.9 mph1.4 kmh 29.94 in1013.9 mb 0.00 in0.0 mm 0.00 in/hr0.0 mm/hr 0.00 in0.0 mm
01:52 AM 23.2°F-4.9°C 17.1°F-8.3°C 77% Calm Calm -- 29.94 in1013.9 mb 0.00 in0.0 mm 0.00 in/hr0.0 mm/hr 0.00 in0.0 mm
01:51 AM 23.2°F-4.9°C 17.1°F-8.3°C 77% Calm Calm -- 29.94 in1013.9 mb 0.00 in0.0 mm 0.00 in/hr0.0 mm/hr 0.00 in0.0 mm
01:50 AM 23.2°F-4.9°C 17.1°F-8.3°C 77% Calm Calm -- 29.94 in1013.9 mb 0.00 in0.0 mm 0.00 in/hr0.0 mm/hr 0.00 in0.0 mm
01:49 AM 23.2°F-4.9°C 17.1°F-8.3°C 77% Calm Calm -- 29.94 in1013.9 mb 0.00 in0.0 mm 0.00 in/hr0.0 mm/hr 0.00 in0.0 mm
01:48 AM 23.2°F-4.9°C 16.7°F-8.5°C 76% Calm Calm 0.9 mph1.4 kmh 29.94 in1013.9 mb 0.00 in0.0 mm 0.00 in/hr0.0 mm/hr 0.00 in0.0 mm
01:47 AM 23.2°F-4.9°C 16.7°F-8.5°C 76% Calm Calm 0.9 mph1.4 kmh 29.94 in1013.9 mb 0.00 in0.0 mm 0.00 in/hr0.0 mm/hr 0.00 in0.0 mm
01:46 AM 23.4°F-4.8°C 16.7°F-8.5°C 75% Calm Calm 0.9 mph1.4 kmh 29.94 in1013.9 mb 0.00 in0.0 mm 0.00 in/hr0.0 mm/hr 0.00 in0.0 mm
01:45 AM 23.5°F-4.7°C 16.5°F-8.6°C 74% Calm Calm 0.9 mph1.4 kmh 29.94 in1013.9 mb 0.00 in0.0 mm 0.00 in/hr0.0 mm/hr 0.00 in0.0 mm
01:44 AM 23.7°F-4.6°C 16.3°F-8.7°C 73% Calm Calm -- 29.94 in1013.9 mb 0.00 in0.0 mm 0.00 in/hr0.0 mm/hr 0.00 in0.0 mm
01:43 AM 24.1°F-4.4°C 17.1°F-8.3°C 74% Calm Calm 0.9 mph1.4 kmh 29.94 in1013.9 mb 0.00 in0.0 mm 0.00 in/hr0.0 mm/hr 0.00 in0.0 mm
01:42 AM 24.3°F-4.3°C 17.2°F-8.2°C 74% 0.9 mph WNW1.4 kmh WNW 0.9 mph1.4 kmh 29.94 in1013.9 mb 0.00 in0.0 mm 0.00 in/hr0.0 mm/hr 0.00 in0.0 mm
01:41 AM 24.3°F-4.3°C 17.2°F-8.2°C 74% 0.9 mph ENE1.4 kmh ENE -- 29.94 in1013.9 mb 0.00 in0.0 mm 0.00 in/hr0.0 mm/hr 0.00 in0.0 mm
01:39 AM 24.3°F-4.3°C 17.2°F-8.2°C 74% 0.9 mph ENE1.4 kmh ENE -- 29.94 in1013.9 mb 0.00 in0.0 mm 0.00 in/hr0.0 mm/hr 0.00 in0.0 mm
01:38 AM 24.3°F-4.3°C 17.2°F-8.2°C 74% 0.9 mph ENE1.4 kmh ENE 0.9 mph1.4 kmh 29.94 in1013.9 mb 0.00 in0.0 mm 0.00 in/hr0.0 mm/hr 0.00 in0.0 mm
01:37 AM 24.3°F-4.3°C 17.4°F-8.1°C 75% 0.9 mph ENE1.4 kmh ENE 0.9 mph1.4 kmh 29.94 in1013.9 mb 0.00 in0.0 mm 0.00 in/hr0.0 mm/hr 0.00 in0.0 mm
01:36 AM 24.3°F-4.3°C 17.4°F-8.1°C 75% 0.9 mph ENE1.4 kmh ENE 0.9 mph1.4 kmh 29.94 in1013.9 mb 0.00 in0.0 mm 0.00 in/hr0.0 mm/hr 0.00 in0.0 mm
01:35 AM 24.1°F-4.4°C 17.6°F-8.0°C 76% 0.9 mph ENE1.4 kmh ENE 2.0 mph3.2 kmh 29.94 in1013.9 mb 0.00 in0.0 mm 0.00 in/hr0.0 mm/hr 0.00 in0.0 mm
01:34 AM 23.7°F-4.6°C 17.2°F-8.2°C 76% 0.9 mph ENE1.4 kmh ENE 2.9 mph4.7 kmh 29.94 in1013.9 mb 0.00 in0.0 mm 0.00 in/hr0.0 mm/hr 0.00 in0.0 mm
01:33 AM 23.5°F-4.7°C 17.4°F-8.1°C 77% 0.9 mph ENE1.4 kmh ENE 2.0 mph3.2 kmh 29.94 in1013.9 mb 0.00 in0.0 mm 0.00 in/hr0.0 mm/hr 0.00 in0.0 mm
01:32 AM 23.4°F-4.8°C 17.2°F-8.2°C 77% 0.9 mph ENE1.4 kmh ENE 3.0 mph4.8 kmh 29.94 in1013.9 mb 0.00 in0.0 mm 0.00 in/hr0.0 mm/hr 0.00 in0.0 mm
01:31 AM 23.2°F-4.9°C 17.1°F-8.3°C 77% Calm Calm 2.0 mph3.2 kmh 29.94 in1013.9 mb 0.00 in0.0 mm 0.00 in/hr0.0 mm/hr 0.00 in0.0 mm
01:30 AM 23.0°F-5.0°C 16.9°F-8.4°C 77% Calm Calm 2.0 mph3.2 kmh 29.94 in1013.9 mb 0.00 in0.0 mm 0.00 in/hr0.0 mm/hr 0.00 in0.0 mm
01:29 AM 22.8°F-5.1°C 17.1°F-8.3°C 78% Calm Calm 0.9 mph1.4 kmh 29.95 in1014.2 mb 0.00 in0.0 mm 0.00 in/hr0.0 mm/hr 0.00 in0.0 mm
01:28 AM 22.8°F-5.1°C 17.1°F-8.3°C 78% Calm Calm 0.9 mph1.4 kmh 29.95 in1014.2 mb 0.00 in0.0 mm 0.00 in/hr0.0 mm/hr 0.00 in0.0 mm
01:27 AM 22.6°F-5.2°C 16.9°F-8.4°C 78% Calm Calm 0.9 mph1.4 kmh 29.95 in1014.2 mb 0.00 in0.0 mm 0.00 in/hr0.0 mm/hr 0.00 in0.0 mm
01:26 AM 22.5°F-5.3°C 16.7°F-8.5°C 78% Calm Calm 0.9 mph1.4 kmh 29.95 in1014.2 mb 0.00 in0.0 mm 0.00 in/hr0.0 mm/hr 0.00 in0.0 mm
01:25 AM 22.5°F-5.3°C 16.3°F-8.7°C 77% Calm Calm 0.9 mph1.4 kmh 29.95 in1014.2 mb 0.00 in0.0 mm 0.00 in/hr0.0 mm/hr 0.00 in0.0 mm
01:24 AM 22.5°F-5.3°C 15.8°F-9.0°C 75% Calm Calm -- 29.95 in1014.2 mb 0.00 in0.0 mm 0.00 in/hr0.0 mm/hr 0.00 in0.0 mm
01:23 AM 22.6°F-5.2°C 15.6°F-9.1°C 74% 0.9 mph NW1.4 kmh NW -- 29.95 in1014.2 mb 0.00 in0.0 mm 0.00 in/hr0.0 mm/hr 0.00 in0.0 mm
01:22 AM 23.0°F-5.0°C 16.0°F-8.9°C 74% 0.9 mph NW1.4 kmh NW -- 29.95 in1014.2 mb 0.00 in0.0 mm 0.00 in/hr0.0 mm/hr 0.00 in0.0 mm
01:21 AM 23.2°F-4.9°C 16.2°F-8.8°C 74% 0.9 mph NW1.4 kmh NW 0.9 mph1.4 kmh 29.95 in1014.2 mb 0.00 in0.0 mm 0.00 in/hr0.0 mm/hr 0.00 in0.0 mm
01:20 AM 23.5°F-4.7°C 16.5°F-8.6°C 74% 0.9 mph NW1.4 kmh NW 0.9 mph1.4 kmh 29.95 in1014.2 mb 0.00 in0.0 mm 0.00 in/hr0.0 mm/hr 0.00 in0.0 mm
01:19 AM 23.7°F-4.6°C 16.7°F-8.5°C 74% 0.9 mph W1.4 kmh W 0.9 mph1.4 kmh 29.95 in1014.2 mb 0.00 in0.0 mm 0.00 in/hr0.0 mm/hr 0.00 in0.0 mm
01:18 AM 23.7°F-4.6°C 16.9°F-8.4°C 75% Calm Calm 0.9 mph1.4 kmh 29.95 in1014.2 mb 0.00 in0.0 mm 0.00 in/hr0.0 mm/hr 0.00 in0.0 mm
01:17 AM 23.7°F-4.6°C 16.9°F-8.4°C 75% 0.9 mph E1.4 kmh E -- 29.95 in1014.2 mb 0.00 in0.0 mm 0.00 in/hr0.0 mm/hr 0.00 in0.0 mm
01:16 AM 23.7°F-4.6°C 16.9°F-8.4°C 75% 0.9 mph E1.4 kmh E 0.9 mph1.4 kmh 29.95 in1014.2 mb 0.00 in0.0 mm 0.00 in/hr0.0 mm/hr 0.00 in0.0 mm
01:15 AM 23.5°F-4.7°C 17.1°F-8.3°C 76% 0.9 mph ENE1.4 kmh ENE 2.0 mph3.2 kmh 29.95 in1014.2 mb 0.00 in0.0 mm 0.00 in/hr0.0 mm/hr 0.00 in0.0 mm
01:14 AM 23.4°F-4.8°C 16.9°F-8.4°C 76% 0.9 mph ESE1.4 kmh ESE 2.0 mph3.2 kmh 29.95 in1014.2 mb 0.00 in0.0 mm 0.00 in/hr0.0 mm/hr 0.00 in0.0 mm
01:13 AM 23.2°F-4.9°C 16.7°F-8.5°C 76% 0.9 mph ESE1.4 kmh ESE 2.0 mph3.2 kmh 29.95 in1014.2 mb 0.00 in0.0 mm 0.00 in/hr0.0 mm/hr 0.00 in0.0 mm
01:12 AM 23.2°F-4.9°C 16.7°F-8.5°C 76% 0.9 mph ESE1.4 kmh ESE 0.9 mph1.4 kmh 29.95 in1014.2 mb 0.00 in0.0 mm 0.00 in/hr0.0 mm/hr 0.00 in0.0 mm
01:11 AM 23.0°F-5.0°C 16.5°F-8.6°C 76% 0.9 mph ESE1.4 kmh ESE 0.9 mph1.4 kmh 29.95 in1014.2 mb 0.00 in0.0 mm 0.00 in/hr0.0 mm/hr 0.00 in0.0 mm
01:10 AM 22.8°F-5.1°C 16.3°F-8.7°C 76% 0.9 mph ESE1.4 kmh ESE 0.9 mph1.4 kmh 29.95 in1014.2 mb 0.00 in0.0 mm 0.00 in/hr0.0 mm/hr 0.00 in0.0 mm
01:09 AM 22.8°F-5.1°C 16.3°F-8.7°C 76% 0.9 mph ESE1.4 kmh ESE 0.9 mph1.4 kmh 29.95 in1014.2 mb 0.00 in0.0 mm 0.00 in/hr0.0 mm/hr 0.00 in0.0 mm
01:08 AM 22.8°F-5.1°C 16.2°F-8.8°C 75% 0.9 mph ESE1.4 kmh ESE 2.0 mph3.2 kmh 29.95 in1014.2 mb 0.00 in0.0 mm 0.00 in/hr0.0 mm/hr 0.00 in0.0 mm
01:07 AM 22.8°F-5.1°C 15.4°F-9.2°C 73% 0.9 mph E1.4 kmh E 2.0 mph3.2 kmh 29.95 in1014.2 mb 0.00 in0.0 mm 0.00 in/hr0.0 mm/hr 0.00 in0.0 mm
01:06 AM 23.2°F-4.9°C 15.8°F-9.0°C 73% 0.9 mph SE1.4 kmh SE 0.9 mph1.4 kmh 29.95 in1014.2 mb 0.00 in0.0 mm 0.00 in/hr0.0 mm/hr 0.00 in0.0 mm
01:05 AM 23.2°F-4.9°C 16.2°F-8.8°C 74% 0.9 mph S1.4 kmh S 2.9 mph4.7 kmh 29.95 in1014.2 mb 0.00 in0.0 mm 0.00 in/hr0.0 mm/hr 0.00 in0.0 mm
01:04 AM 23.4°F-4.8°C 16.7°F-8.5°C 75% 0.9 mph SW1.4 kmh SW 2.9 mph4.7 kmh 29.95 in1014.2 mb 0.00 in0.0 mm 0.00 in/hr0.0 mm/hr 0.00 in0.0 mm
01:03 AM 23.0°F-5.0°C 16.5°F-8.6°C 76% 0.9 mph E1.4 kmh E 2.9 mph4.7 kmh 29.95 in1014.2 mb 0.00 in0.0 mm 0.00 in/hr0.0 mm/hr 0.00 in0.0 mm
01:02 AM 22.6°F-5.2°C 16.5°F-8.6°C 77% 0.9 mph NE1.4 kmh NE 2.0 mph3.2 kmh 29.95 in1014.2 mb 0.00 in0.0 mm 0.00 in/hr0.0 mm/hr 0.00 in0.0 mm
01:01 AM 22.5°F-5.3°C 16.3°F-8.7°C 77% 0.9 mph NE1.4 kmh NE 0.9 mph1.4 kmh 29.95 in1014.2 mb 0.00 in0.0 mm 0.00 in/hr0.0 mm/hr 0.00 in0.0 mm
01:00 AM 22.3°F-5.4°C 16.2°F-8.8°C 77% 0.9 mph NE1.4 kmh NE 2.0 mph3.2 kmh 29.95 in1014.2 mb 0.00 in0.0 mm 0.00 in/hr0.0 mm/hr 0.00 in0.0 mm
12:59 AM 22.1°F-5.5°C 16.0°F-8.9°C 77% 0.9 mph N1.4 kmh N 0.9 mph1.4 kmh 29.95 in1014.2 mb 0.00 in0.0 mm 0.00 in/hr0.0 mm/hr 0.00 in0.0 mm
12:58 AM 21.9°F-5.6°C 15.4°F-9.2°C 76% 0.9 mph N1.4 kmh N 0.9 mph1.4 kmh 29.95 in1014.2 mb 0.00 in0.0 mm 0.00 in/hr0.0 mm/hr 0.00 in0.0 mm
12:57 AM 22.1°F-5.5°C 15.1°F-9.4°C 74% 0.9 mph NW1.4 kmh NW 0.9 mph1.4 kmh 29.95 in1014.2 mb 0.00 in0.0 mm 0.00 in/hr0.0 mm/hr 0.00 in0.0 mm
12:56 AM 22.5°F-5.3°C 14.7°F-9.6°C 72% 0.9 mph NW1.4 kmh NW -- 29.95 in1014.2 mb 0.00 in0.0 mm 0.00 in/hr0.0 mm/hr 0.00 in0.0 mm
12:55 AM 22.8°F-5.1°C 15.4°F-9.2°C 73% 0.9 mph NW1.4 kmh NW 2.9 mph4.7 kmh 29.95 in1014.2 mb 0.00 in0.0 mm 0.00 in/hr0.0 mm/hr 0.00 in0.0 mm
12:54 AM 23.2°F-4.9°C 16.5°F-8.6°C 75% 0.9 mph NW1.4 kmh NW 4.9 mph7.9 kmh 29.95 in1014.2 mb 0.00 in0.0 mm 0.00 in/hr0.0 mm/hr 0.00 in0.0 mm
12:53 AM 23.4°F-4.8°C 16.9°F-8.4°C 76% 0.9 mph NW1.4 kmh NW 4.0 mph6.4 kmh 29.95 in1014.2 mb 0.00 in0.0 mm 0.00 in/hr0.0 mm/hr 0.00 in0.0 mm
12:52 AM 23.2°F-4.9°C 16.7°F-8.5°C 76% Calm Calm 0.9 mph1.4 kmh 29.95 in1014.2 mb 0.00 in0.0 mm 0.00 in/hr0.0 mm/hr 0.00 in0.0 mm
12:51 AM 23.2°F-4.9°C 16.7°F-8.5°C 76% Calm Calm 0.9 mph1.4 kmh 29.95 in1014.2 mb 0.00 in0.0 mm 0.00 in/hr0.0 mm/hr 0.00 in0.0 mm
12:50 AM 23.2°F-4.9°C 16.5°F-8.6°C 75% Calm Calm -- 29.95 in1014.2 mb 0.00 in0.0 mm 0.00 in/hr0.0 mm/hr 0.00 in0.0 mm
12:49 AM 23.4°F-4.8°C 16.7°F-8.5°C 75% Calm Calm -- 29.95 in1014.2 mb 0.00 in0.0 mm 0.00 in/hr0.0 mm/hr 0.00 in0.0 mm
12:48 AM 23.4°F-4.8°C 16.3°F-8.7°C 74% Calm Calm 2.0 mph3.2 kmh 29.95 in1014.2 mb 0.00 in0.0 mm 0.00 in/hr0.0 mm/hr 0.00 in0.0 mm
12:47 AM 23.5°F-4.7°C 16.2°F-8.8°C 73% Calm Calm 2.0 mph3.2 kmh 29.95 in1014.2 mb 0.00 in0.0 mm 0.00 in/hr0.0 mm/hr 0.00 in0.0 mm
12:46 AM 23.7°F-4.6°C 16.3°F-8.7°C 73% Calm Calm 2.0 mph3.2 kmh 29.95 in1014.2 mb 0.00 in0.0 mm 0.00 in/hr0.0 mm/hr 0.00 in0.0 mm
12:45 AM 24.1°F-4.4°C 16.7°F-8.5°C 73% Calm Calm 0.9 mph1.4 kmh 29.95 in1014.2 mb 0.00 in0.0 mm 0.00 in/hr0.0 mm/hr 0.00 in0.0 mm
12:44 AM 24.3°F-4.3°C 16.9°F-8.4°C 73% Calm Calm 0.9 mph1.4 kmh 29.95 in1014.2 mb 0.00 in0.0 mm 0.00 in/hr0.0 mm/hr 0.00 in0.0 mm
12:43 AM 24.3°F-4.3°C 16.5°F-8.6°C 72% Calm Calm -- 29.95 in1014.2 mb 0.00 in0.0 mm 0.00 in/hr0.0 mm/hr 0.00 in0.0 mm
12:42 AM 24.4°F-4.2°C 16.7°F-8.5°C 72% Calm Calm -- 29.95 in1014.2 mb 0.00 in0.0 mm 0.00 in/hr0.0 mm/hr 0.00 in0.0 mm
12:41 AM 24.4°F-4.2°C 17.1°F-8.3°C 73% Calm Calm -- 29.95 in1014.2 mb 0.00 in0.0 mm 0.00 in/hr0.0 mm/hr 0.00 in0.0 mm
12:40 AM 24.3°F-4.3°C 16.9°F-8.4°C 73% Calm Calm -- 29.95 in1014.2 mb 0.00 in0.0 mm 0.00 in/hr0.0 mm/hr 0.00 in0.0 mm
12:39 AM 24.3°F-4.3°C 16.9°F-8.4°C 73% Calm Calm 0.9 mph1.4 kmh 29.95 in1014.2 mb 0.00 in0.0 mm 0.00 in/hr0.0 mm/hr 0.00 in0.0 mm
12:38 AM 24.3°F-4.3°C 16.9°F-8.4°C 73% 0.9 mph NNW1.4 kmh NNW -- 29.95 in1014.2 mb 0.00 in0.0 mm 0.00 in/hr0.0 mm/hr 0.00 in0.0 mm
12:37 AM 24.3°F-4.3°C 16.9°F-8.4°C 73% 0.9 mph NNW1.4 kmh NNW -- 29.95 in1014.2 mb 0.00 in0.0 mm 0.00 in/hr0.0 mm/hr 0.00 in0.0 mm
12:36 AM 24.3°F-4.3°C 16.5°F-8.6°C 72% 0.9 mph NNW1.4 kmh NNW -- 29.95 in1014.2 mb 0.00 in0.0 mm 0.00 in/hr0.0 mm/hr 0.00 in0.0 mm
12:35 AM 24.3°F-4.3°C 16.2°F-8.8°C 71% 0.9 mph NNW1.4 kmh NNW -- 29.95 in1014.2 mb 0.00 in0.0 mm 0.00 in/hr0.0 mm/hr 0.00 in0.0 mm
12:34 AM 24.4°F-4.2°C 16.3°F-8.7°C 71% 0.9 mph NW1.4 kmh NW 0.9 mph1.4 kmh 29.95 in1014.2 mb 0.00 in0.0 mm 0.00 in/hr0.0 mm/hr 0.00 in0.0 mm
12:33 AM 24.8°F-4.0°C 16.3°F-8.7°C 70% 0.9 mph NW1.4 kmh NW 0.9 mph1.4 kmh 29.95 in1014.2 mb 0.00 in0.0 mm 0.00 in/hr0.0 mm/hr 0.00 in0.0 mm
12:32 AM 25.0°F-3.9°C 16.9°F-8.4°C 71% 0.9 mph NW1.4 kmh NW 2.0 mph3.2 kmh 29.95 in1014.2 mb 0.00 in0.0 mm 0.00 in/hr0.0 mm/hr 0.00 in0.0 mm
12:31 AM 25.2°F-3.8°C 17.4°F-8.1°C 72% 0.9 mph NW1.4 kmh NW 2.0 mph3.2 kmh 29.95 in1014.2 mb 0.00 in0.0 mm 0.00 in/hr0.0 mm/hr 0.00 in0.0 mm
12:30 AM 25.2°F-3.8°C 17.4°F-8.1°C 72% 0.9 mph NNE1.4 kmh NNE 0.9 mph1.4 kmh 29.96 in1014.6 mb 0.00 in0.0 mm 0.00 in/hr0.0 mm/hr 0.00 in0.0 mm
12:29 AM 25.2°F-3.8°C 17.4°F-8.1°C 72% 0.9 mph NNE1.4 kmh NNE 2.0 mph3.2 kmh 29.96 in1014.6 mb 0.00 in0.0 mm 0.00 in/hr0.0 mm/hr 0.00 in0.0 mm
12:28 AM 25.2°F-3.8°C 17.1°F-8.3°C 71% Calm Calm 0.9 mph1.4 kmh 29.96 in1014.6 mb 0.00 in0.0 mm 0.00 in/hr0.0 mm/hr 0.00 in0.0 mm
12:27 AM 25.2°F-3.8°C 17.1°F-8.3°C 71% Calm Calm 2.0 mph3.2 kmh 29.96 in1014.6 mb 0.00 in0.0 mm 0.00 in/hr0.0 mm/hr 0.00 in0.0 mm
12:26 AM 25.3°F-3.7°C 16.9°F-8.4°C 70% Calm Calm 2.0 mph3.2 kmh 29.96 in1014.6 mb 0.00 in0.0 mm 0.00 in/hr0.0 mm/hr 0.00 in0.0 mm
12:25 AM 25.5°F-3.6°C 17.1°F-8.3°C 70% Calm Calm 2.0 mph3.2 kmh 29.96 in1014.6 mb 0.00 in0.0 mm 0.00 in/hr0.0 mm/hr 0.00 in0.0 mm
12:24 AM 25.7°F-3.5°C 17.6°F-8.0°C 71% Calm Calm 0.9 mph1.4 kmh 29.96 in1014.6 mb 0.00 in0.0 mm 0.00 in/hr0.0 mm/hr 0.00 in0.0 mm
12:23 AM 25.7°F-3.5°C 17.6°F-8.0°C 71% Calm Calm -- 29.96 in1014.6 mb 0.00 in0.0 mm 0.00 in/hr0.0 mm/hr 0.00 in0.0 mm
12:22 AM 25.9°F-3.4°C 17.8°F-7.9°C 71% Calm Calm -- 29.96 in1014.6 mb 0.00 in0.0 mm 0.00 in/hr0.0 mm/hr 0.00 in0.0 mm
12:21 AM 25.9°F-3.4°C 17.8°F-7.9°C 71% Calm Calm -- 29.96 in1014.6 mb 0.00 in0.0 mm 0.00 in/hr0.0 mm/hr 0.00 in0.0 mm
12:20 AM 25.9°F-3.4°C 17.4°F-8.1°C 70% Calm Calm -- 29.96 in1014.6 mb 0.00 in0.0 mm 0.00 in/hr0.0 mm/hr 0.00 in0.0 mm
12:19 AM 26.1°F-3.3°C 17.6°F-8.0°C 70% Calm Calm -- 29.96 in1014.6 mb 0.00 in0.0 mm 0.00 in/hr0.0 mm/hr 0.00 in0.0 mm
12:18 AM 26.1°F-3.3°C 17.6°F-8.0°C 70% Calm Calm -- 29.96 in1014.6 mb 0.00 in0.0 mm 0.00 in/hr0.0 mm/hr 0.00 in0.0 mm
12:17 AM 26.1°F-3.3°C 18.0°F-7.8°C 71% Calm Calm -- 29.96 in1014.6 mb 0.00 in0.0 mm 0.00 in/hr0.0 mm/hr 0.00 in0.0 mm
12:16 AM 26.1°F-3.3°C 18.0°F-7.8°C 71% Calm Calm -- 29.96 in1014.6 mb 0.00 in0.0 mm 0.00 in/hr0.0 mm/hr 0.00 in0.0 mm
12:15 AM 26.1°F-3.3°C 18.0°F-7.8°C 71% Calm Calm 0.9 mph1.4 kmh 29.97 in1014.9 mb 0.00 in0.0 mm 0.00 in/hr0.0 mm/hr 0.00 in0.0 mm
12:14 AM 26.2°F-3.2°C 18.1°F-7.7°C 71% Calm Calm -- 29.97 in1014.9 mb 0.00 in0.0 mm 0.00 in/hr0.0 mm/hr 0.00 in0.0 mm
12:13 AM 26.1°F-3.3°C 18.0°F-7.8°C 71% Calm Calm -- 29.97 in1014.9 mb 0.00 in0.0 mm 0.00 in/hr0.0 mm/hr 0.00 in0.0 mm
12:12 AM 26.1°F-3.3°C 18.0°F-7.8°C 71% Calm Calm 0.9 mph1.4 kmh 29.97 in1014.9 mb 0.00 in0.0 mm 0.00 in/hr0.0 mm/hr 0.00 in0.0 mm
12:11 AM 26.1°F-3.3°C 18.0°F-7.8°C 71% Calm Calm 2.0 mph3.2 kmh 29.97 in1014.9 mb 0.00 in0.0 mm 0.00 in/hr0.0 mm/hr 0.00 in0.0 mm
12:10 AM 26.1°F-3.3°C 18.0°F-7.8°C 71% 0.9 mph E1.4 kmh E 0.9 mph1.4 kmh 29.97 in1014.9 mb 0.00 in0.0 mm 0.00 in/hr0.0 mm/hr 0.00 in0.0 mm
12:09 AM 26.1°F-3.3°C 18.0°F-7.8°C 71% 0.9 mph NNW1.4 kmh NNW 0.9 mph1.4 kmh 29.97 in1014.9 mb 0.00 in0.0 mm 0.00 in/hr0.0 mm/hr 0.00 in0.0 mm
12:08 AM 26.2°F-3.2°C 18.1°F-7.7°C 71% 0.9 mph NW1.4 kmh NW 0.9 mph1.4 kmh 29.97 in1014.9 mb 0.00 in0.0 mm 0.00 in/hr0.0 mm/hr 0.00 in0.0 mm
12:07 AM 26.2°F-3.2°C 18.1°F-7.7°C 71% 0.9 mph SW1.4 kmh SW -- 29.97 in1014.9 mb 0.00 in0.0 mm 0.00 in/hr0.0 mm/hr 0.00 in0.0 mm
12:06 AM 26.1°F-3.3°C 18.3°F-7.6°C 72% 2.0 mph SW3.2 kmh SW 2.0 mph3.2 kmh 29.97 in1014.9 mb 0.00 in0.0 mm 0.00 in/hr0.0 mm/hr 0.00 in0.0 mm
12:05 AM 26.1°F-3.3°C 18.3°F-7.6°C 72% 2.0 mph SW3.2 kmh SW 2.0 mph3.2 kmh 29.97 in1014.9 mb 0.00 in0.0 mm 0.00 in/hr0.0 mm/hr 0.00 in0.0 mm
12:04 AM 25.9°F-3.4°C 18.1°F-7.7°C 72% 0.9 mph N1.4 kmh N 2.0 mph3.2 kmh 29.97 in1014.9 mb 0.00 in0.0 mm 0.00 in/hr0.0 mm/hr 0.00 in0.0 mm
12:03 AM 25.7°F-3.5°C 18.3°F-7.6°C 73% 2.0 mph N3.2 kmh N 0.9 mph1.4 kmh 29.97 in1014.9 mb 0.00 in0.0 mm 0.00 in/hr0.0 mm/hr 0.00 in0.0 mm
12:02 AM 25.5°F-3.6°C 18.1°F-7.7°C 73% 2.0 mph N3.2 kmh N 0.9 mph1.4 kmh 29.97 in1014.9 mb 0.00 in0.0 mm 0.00 in/hr0.0 mm/hr 0.00 in0.0 mm
12:01 AM 25.3°F-3.7°C 18.1°F-7.7°C 74% 2.0 mph N3.2 kmh N 0.9 mph1.4 kmh 29.97 in1014.9 mb 0.00 in0.0 mm 0.00 in/hr0.0 mm/hr 0.00 in0.0 mm
12:00 AM 25.3°F-3.7°C 18.1°F-7.7°C 74% 0.9 mph N1.4 kmh N 2.9 mph4.7 kmh 29.97 in1014.9 mb 0.00 in0.0 mm 0.00 in/hr0.0 mm/hr 0.00 in0.0 mm
WeatherForYou.com, LLC is not responsible for any damages or problems caused by this service. Current weather conditions are obtained from the closest station including government and personal stations which may have varying degrees of accuracy. Weather forecasts are derived from the NOAA NDFD and obtained through HAMweather's Aeris Weather API. Like all things, this site belongs to Jesus Christ... He just trusts me to maintain it. If you have any questions or comments email webmaster@weatherforyou.com

Copyright © 2014, WeatherForYou.com LLC. All rights reserved.